<?xml version='1.0' encoding='UTF-8'?><gpx version="1.1" creator="JPX - https://github.com/jenetics/jpx" xmlns="http://www.topografix.com/GPX/1/1"><trk><trkseg><trkpt lat="45.6181662" lon="10.7951715"><ele>634.5714285714286</ele><time>2026-03-22T13:44:26.123Z</time></trkpt><trkpt lat="45.6180981" lon="10.7951704"><ele>634.1428571428571</ele><time>2026-03-22T13:44:54.04Z</time></trkpt><trkpt lat="45.6180495" lon="10.7951065"><ele>633.7142857142858</ele><time>2026-03-22T13:45:00.123Z</time></trkpt><trkpt lat="45.6180043" lon="10.7950359"><ele>633.2857142857142</ele><time>2026-03-22T13:45:08.122Z</time></trkpt><trkpt lat="45.6179752" lon="10.7949372"><ele>632.8571428571429</ele><time>2026-03-22T13:45:12.122Z</time></trkpt><trkpt lat="45.6179556" lon="10.7948324"><ele>632.4285714285714</ele><time>2026-03-22T13:45:30.122Z</time></trkpt><trkpt lat="45.6179409" lon="10.7947381"><ele>632.0</ele><time>2026-03-22T13:45:35.122Z</time></trkpt><trkpt lat="45.617922" lon="10.7946479"><ele>632.0</ele><time>2026-03-22T13:45:46.122Z</time></trkpt><trkpt lat="45.6179274" lon="10.7945558"><ele>632.0</ele><time>2026-03-22T13:46:23.122Z</time></trkpt><trkpt lat="45.6179366" lon="10.794449"><ele>632.0</ele><time>2026-03-22T13:47:13.122Z</time></trkpt><trkpt lat="45.6180077" lon="10.7944413"><ele>632.0</ele><time>2026-03-22T13:47:56.122Z</time></trkpt><trkpt lat="45.6179399" lon="10.7945118"><ele>632.0</ele><time>2026-03-22T13:50:15.121Z</time></trkpt><trkpt lat="45.6179018" lon="10.7944313"><ele>632.0</ele><time>2026-03-22T13:50:36.122Z</time></trkpt><trkpt lat="45.6178838" lon="10.7942987"><ele>631.6666666666666</ele><time>2026-03-22T13:50:39.122Z</time></trkpt><trkpt lat="45.6178437" lon="10.794151"><ele>631.3333333333333</ele><time>2026-03-22T13:50:40.122Z</time></trkpt><trkpt lat="45.6178404" lon="10.7940554"><ele>631.0</ele><time>2026-03-22T13:50:42.121Z</time></trkpt><trkpt lat="45.6178463" lon="10.7939535"><ele>630.6666666666666</ele><time>2026-03-22T13:50:44.122Z</time></trkpt><trkpt lat="45.6178766" lon="10.7938408"><ele>630.3333333333334</ele><time>2026-03-22T13:50:46.122Z</time></trkpt><trkpt lat="45.6178512" lon="10.7937321"><ele>630.0</ele><time>2026-03-22T13:50:48.122Z</time></trkpt><trkpt lat="45.6178383" lon="10.7936261"><ele>628.4</ele><time>2026-03-22T13:50:50.122Z</time></trkpt><trkpt lat="45.6178385" lon="10.7934941"><ele>626.8</ele><time>2026-03-22T13:50:53.122Z</time></trkpt><trkpt lat="45.6178435" lon="10.7933898"><ele>625.2</ele><time>2026-03-22T13:50:55.122Z</time></trkpt><trkpt lat="45.6178514" lon="10.7932962"><ele>623.6</ele><time>2026-03-22T13:50:59.122Z</time></trkpt><trkpt lat="45.6177885" lon="10.7931343"><ele>622.0</ele><time>2026-03-22T13:51:03.122Z</time></trkpt><trkpt lat="45.61776" lon="10.7929941"><ele>611.6666666666667</ele><time>2026-03-22T13:51:05.122Z</time></trkpt><trkpt lat="45.6177208" lon="10.7928714"><ele>601.3333333333334</ele><time>2026-03-22T13:51:08.122Z</time></trkpt><trkpt lat="45.6176992" lon="10.792771"><ele>591.0</ele><time>2026-03-22T13:51:10.122Z</time></trkpt><trkpt lat="45.6176797" lon="10.7926576"><ele>580.6666666666666</ele><time>2026-03-22T13:51:13.122Z</time></trkpt><trkpt lat="45.6176715" lon="10.7925587"><ele>570.3333333333333</ele><time>2026-03-22T13:51:16.122Z</time></trkpt><trkpt lat="45.6176567" lon="10.7924669"><ele>560.0</ele><time>2026-03-22T13:51:19.122Z</time></trkpt><trkpt lat="45.6176577" lon="10.792371"><ele>559.3333333333333</ele><time>2026-03-22T13:51:22.122Z</time></trkpt><trkpt lat="45.6176387" lon="10.7922644"><ele>558.6666666666666</ele><time>2026-03-22T13:51:26.122Z</time></trkpt><trkpt lat="45.6176203" lon="10.7921501"><ele>558.0</ele><time>2026-03-22T13:51:29.122Z</time></trkpt><trkpt lat="45.6176186" lon="10.7920111"><ele>557.3333333333334</ele><time>2026-03-22T13:51:32.121Z</time></trkpt><trkpt lat="45.6176226" lon="10.7919087"><ele>556.6666666666667</ele><time>2026-03-22T13:51:34.122Z</time></trkpt><trkpt lat="45.6176237" lon="10.7917968"><ele>556.0</ele><time>2026-03-22T13:51:36.122Z</time></trkpt><trkpt lat="45.6176388" lon="10.7916887"><ele>556.0</ele><time>2026-03-22T13:51:38.122Z</time></trkpt><trkpt lat="45.6176343" lon="10.7915727"><ele>556.0</ele><time>2026-03-22T13:51:41.122Z</time></trkpt><trkpt lat="45.6176174" lon="10.7914712"><ele>556.0</ele><time>2026-03-22T13:51:44.122Z</time></trkpt><trkpt lat="45.6175857" lon="10.7913669"><ele>556.0</ele><time>2026-03-22T13:51:49.122Z</time></trkpt><trkpt lat="45.6175359" lon="10.791293"><ele>556.0</ele><time>2026-03-22T13:51:51.123Z</time></trkpt><trkpt lat="45.6174964" lon="10.7911913"><ele>556.0</ele><time>2026-03-22T13:51:53.123Z</time></trkpt><trkpt lat="45.6174503" lon="10.7910136"><ele>557.8</ele><time>2026-03-22T13:51:55.123Z</time></trkpt><trkpt lat="45.6174006" lon="10.7909125"><ele>559.6</ele><time>2026-03-22T13:51:57.123Z</time></trkpt><trkpt lat="45.6173346" lon="10.7908415"><ele>561.4</ele><time>2026-03-22T13:51:59.122Z</time></trkpt><trkpt lat="45.6172549" lon="10.7907606"><ele>563.2</ele><time>2026-03-22T13:52:01.124Z</time></trkpt><trkpt lat="45.6171733" lon="10.7906499"><ele>565.0</ele><time>2026-03-22T13:52:03.123Z</time></trkpt><trkpt lat="45.6170921" lon="10.7905415"><ele>565.0</ele><time>2026-03-22T13:52:05.124Z</time></trkpt><trkpt lat="45.6170174" lon="10.7904426"><ele>565.0</ele><time>2026-03-22T13:52:07.122Z</time></trkpt><trkpt lat="45.616945" lon="10.7903329"><ele>565.0</ele><time>2026-03-22T13:52:09.123Z</time></trkpt><trkpt lat="45.6169031" lon="10.7902421"><ele>565.0</ele><time>2026-03-22T13:52:11.122Z</time></trkpt><trkpt lat="45.616882" lon="10.7901117"><ele>565.0</ele><time>2026-03-22T13:52:13.123Z</time></trkpt><trkpt lat="45.616875" lon="10.7899802"><ele>561.0</ele><time>2026-03-22T13:52:15.123Z</time></trkpt><trkpt lat="45.6167929" lon="10.7899072"><ele>557.0</ele><time>2026-03-22T13:52:18.123Z</time></trkpt><trkpt lat="45.6167296" lon="10.78982"><ele>553.0</ele><time>2026-03-22T13:52:19.123Z</time></trkpt><trkpt lat="45.6165946" lon="10.7897437"><ele>549.0</ele><time>2026-03-22T13:52:21.123Z</time></trkpt><trkpt lat="45.6165327" lon="10.789707"><ele>545.0</ele><time>2026-03-22T13:52:22.123Z</time></trkpt><trkpt lat="45.6164693" lon="10.7896803"><ele>545.0</ele><time>2026-03-22T13:52:23.123Z</time></trkpt><trkpt lat="45.61641" lon="10.7896354"><ele>545.0</ele><time>2026-03-22T13:52:24.122Z</time></trkpt><trkpt lat="45.6163009" lon="10.7895455"><ele>545.0</ele><time>2026-03-22T13:52:26.123Z</time></trkpt><trkpt lat="45.6162435" lon="10.7894753"><ele>545.0</ele><time>2026-03-22T13:52:27.123Z</time></trkpt><trkpt lat="45.6161794" lon="10.7894203"><ele>545.0</ele><time>2026-03-22T13:52:28.123Z</time></trkpt><trkpt lat="45.6161251" lon="10.7893733"><ele>545.0</ele><time>2026-03-22T13:52:29.123Z</time></trkpt><trkpt lat="45.6160463" lon="10.7892735"><ele>541.5</ele><time>2026-03-22T13:52:31.123Z</time></trkpt><trkpt lat="45.6159487" lon="10.7891557"><ele>538.0</ele><time>2026-03-22T13:52:33.123Z</time></trkpt><trkpt lat="45.615858" lon="10.789022"><ele>534.5</ele><time>2026-03-22T13:52:35.122Z</time></trkpt><trkpt lat="45.6158337" lon="10.7889165"><ele>531.0</ele><time>2026-03-22T13:52:36.123Z</time></trkpt><trkpt lat="45.6157692" lon="10.7887566"><ele>531.0</ele><time>2026-03-22T13:52:38.123Z</time></trkpt><trkpt lat="45.615715" lon="10.7885808"><ele>531.0</ele><time>2026-03-22T13:52:40.123Z</time></trkpt><trkpt lat="45.6157016" lon="10.7884474"><ele>531.0</ele><time>2026-03-22T13:52:41.122Z</time></trkpt><trkpt lat="45.6156761" lon="10.7883618"><ele>531.0</ele><time>2026-03-22T13:52:42.123Z</time></trkpt><trkpt lat="45.6156232" lon="10.7882066"><ele>531.0</ele><time>2026-03-22T13:52:44.123Z</time></trkpt><trkpt lat="45.6155896" lon="10.7881051"><ele>534.0</ele><time>2026-03-22T13:52:46.123Z</time></trkpt><trkpt lat="45.6155314" lon="10.7880275"><ele>537.0</ele><time>2026-03-22T13:52:48.123Z</time></trkpt><trkpt lat="45.6154996" lon="10.7879198"><ele>540.0</ele><time>2026-03-22T13:52:51.123Z</time></trkpt><trkpt lat="45.6154893" lon="10.7877845"><ele>543.0</ele><time>2026-03-22T13:52:53.123Z</time></trkpt><trkpt lat="45.6154726" lon="10.7876019"><ele>546.0</ele><time>2026-03-22T13:52:55.123Z</time></trkpt><trkpt lat="45.6154665" lon="10.7874867"><ele>548.0</ele><time>2026-03-22T13:52:57.123Z</time></trkpt><trkpt lat="45.6154609" lon="10.7873582"><ele>550.0</ele><time>2026-03-22T13:52:59.123Z</time></trkpt><trkpt lat="45.6153897" lon="10.7872359"><ele>552.0</ele><time>2026-03-22T13:53:01.123Z</time></trkpt><trkpt lat="45.6154609" lon="10.7870513"><ele>554.0</ele><time>2026-03-22T13:53:03.122Z</time></trkpt><trkpt lat="45.6154298" lon="10.7871347"><ele>556.0</ele><time>2026-03-22T13:54:20.123Z</time></trkpt><trkpt lat="45.6154069" lon="10.7870452"><ele>556.0</ele><time>2026-03-22T13:54:27.123Z</time></trkpt><trkpt lat="45.6154058" lon="10.7869499"><ele>556.0</ele><time>2026-03-22T13:56:28.123Z</time></trkpt><trkpt lat="45.6154326" lon="10.7868525"><ele>556.0</ele><time>2026-03-22T13:58:23.123Z</time></trkpt><trkpt lat="45.6154825" lon="10.7869177"><ele>556.0</ele><time>2026-03-22T13:58:58.123Z</time></trkpt><trkpt lat="45.6154871" lon="10.7870216"><ele>556.0</ele><time>2026-03-22T13:59:00.123Z</time></trkpt><trkpt lat="45.6155073" lon="10.7871222"><ele>556.0</ele><time>2026-03-22T13:59:01.123Z</time></trkpt><trkpt lat="45.6155202" lon="10.7872106"><ele>556.0</ele><time>2026-03-22T13:59:02.125Z</time></trkpt><trkpt lat="45.6155157" lon="10.7873132"><ele>556.0</ele><time>2026-03-22T13:59:03.124Z</time></trkpt><trkpt lat="45.6155124" lon="10.787407"><ele>556.0</ele><time>2026-03-22T13:59:04.129Z</time></trkpt><trkpt lat="45.6155285" lon="10.7875067"><ele>556.0</ele><time>2026-03-22T13:59:05.123Z</time></trkpt><trkpt lat="45.6155442" lon="10.7876974"><ele>556.0</ele><time>2026-03-22T13:59:07.123Z</time></trkpt><trkpt lat="45.6155806" lon="10.7878521"><ele>556.0</ele><time>2026-03-22T13:59:08.123Z</time></trkpt><trkpt lat="45.6155823" lon="10.7879531"><ele>554.0</ele><time>2026-03-22T13:59:09.124Z</time></trkpt><trkpt lat="45.615632" lon="10.788037"><ele>552.0</ele><time>2026-03-22T13:59:10.123Z</time></trkpt><trkpt lat="45.6156712" lon="10.7881226"><ele>550.0</ele><time>2026-03-22T13:59:13.123Z</time></trkpt><trkpt lat="45.6157307" lon="10.7882454"><ele>548.0</ele><time>2026-03-22T13:59:15.123Z</time></trkpt><trkpt lat="45.6157819" lon="10.7884409"><ele>546.0</ele><time>2026-03-22T13:59:17.123Z</time></trkpt><trkpt lat="45.6158361" lon="10.7885701"><ele>543.0</ele><time>2026-03-22T13:59:19.123Z</time></trkpt><trkpt lat="45.6158752" lon="10.7886767"><ele>540.0</ele><time>2026-03-22T13:59:22.123Z</time></trkpt><trkpt lat="45.6159205" lon="10.7887962"><ele>537.0</ele><time>2026-03-22T13:59:24.123Z</time></trkpt><trkpt lat="45.6159511" lon="10.7888992"><ele>534.0</ele><time>2026-03-22T13:59:26.122Z</time></trkpt><trkpt lat="45.616033" lon="10.7890143"><ele>531.0</ele><time>2026-03-22T13:59:28.123Z</time></trkpt><trkpt lat="45.6161414" lon="10.7891629"><ele>533.8</ele><time>2026-03-22T13:59:30.123Z</time></trkpt><trkpt lat="45.6161887" lon="10.7892427"><ele>536.6</ele><time>2026-03-22T13:59:31.123Z</time></trkpt><trkpt lat="45.616313" lon="10.789357"><ele>539.4</ele><time>2026-03-22T13:59:33.123Z</time></trkpt><trkpt lat="45.6164056" lon="10.789429"><ele>542.2</ele><time>2026-03-22T13:59:35.123Z</time></trkpt><trkpt lat="45.6164784" lon="10.7895163"><ele>545.0</ele><time>2026-03-22T13:59:48.123Z</time></trkpt><trkpt lat="45.6165488" lon="10.7895782"><ele>545.0</ele><time>2026-03-22T13:59:50.124Z</time></trkpt><trkpt lat="45.6166147" lon="10.7896141"><ele>545.0</ele><time>2026-03-22T13:59:52.123Z</time></trkpt><trkpt lat="45.6166683" lon="10.7896662"><ele>545.0</ele><time>2026-03-22T13:59:54.124Z</time></trkpt><trkpt lat="45.6167162" lon="10.7897286"><ele>545.0</ele><time>2026-03-22T13:59:56.124Z</time></trkpt><trkpt lat="45.6167843" lon="10.7897959"><ele>545.0</ele><time>2026-03-22T13:59:59.123Z</time></trkpt><trkpt lat="45.6168764" lon="10.7898976"><ele>545.0</ele><time>2026-03-22T14:00:20.123Z</time></trkpt><trkpt lat="45.6168089" lon="10.7898817"><ele>545.0</ele><time>2026-03-22T14:00:26.124Z</time></trkpt><trkpt lat="45.6167276" lon="10.7899115"><ele>545.0</ele><time>2026-03-22T14:00:30.123Z</time></trkpt><trkpt lat="45.6166466" lon="10.7899417"><ele>545.0</ele><time>2026-03-22T14:00:33.122Z</time></trkpt><trkpt lat="45.6165659" lon="10.7899597"><ele>545.0</ele><time>2026-03-22T14:00:36.123Z</time></trkpt><trkpt lat="45.6164982" lon="10.7899861"><ele>545.0</ele><time>2026-03-22T14:00:40.123Z</time></trkpt><trkpt lat="45.6164432" lon="10.7900365"><ele>545.0</ele><time>2026-03-22T14:00:42.124Z</time></trkpt><trkpt lat="45.6163759" lon="10.7900427"><ele>545.0</ele><time>2026-03-22T14:00:44.123Z</time></trkpt><trkpt lat="45.6163072" lon="10.7900558"><ele>545.0</ele><time>2026-03-22T14:00:46.122Z</time></trkpt><trkpt lat="45.6162412" lon="10.7900609"><ele>545.0</ele><time>2026-03-22T14:00:49.123Z</time></trkpt><trkpt lat="45.6161695" lon="10.7900843"><ele>545.0</ele><time>2026-03-22T14:00:53.124Z</time></trkpt><trkpt lat="45.616101" lon="10.7900551"><ele>545.0</ele><time>2026-03-22T14:00:56.123Z</time></trkpt><trkpt lat="45.6160076" lon="10.7900252"><ele>545.0</ele><time>2026-03-22T14:00:59.124Z</time></trkpt><trkpt lat="45.6159422" lon="10.7900127"><ele>545.0</ele><time>2026-03-22T14:01:01.123Z</time></trkpt><trkpt lat="45.615852" lon="10.7899954"><ele>539.3333333333333</ele><time>2026-03-22T14:01:04.123Z</time></trkpt><trkpt lat="45.6157614" lon="10.7899664"><ele>533.6666666666666</ele><time>2026-03-22T14:01:07.123Z</time></trkpt><trkpt lat="45.6156892" lon="10.7899562"><ele>528.0</ele><time>2026-03-22T14:01:09.123Z</time></trkpt><trkpt lat="45.6156153" lon="10.789917"><ele>522.3333333333334</ele><time>2026-03-22T14:01:12.123Z</time></trkpt><trkpt lat="45.6155618" lon="10.78986"><ele>516.6666666666667</ele><time>2026-03-22T14:01:16.124Z</time></trkpt><trkpt lat="45.6154933" lon="10.7898427"><ele>511.0</ele><time>2026-03-22T14:01:19.124Z</time></trkpt><trkpt lat="45.6154123" lon="10.7898262"><ele>511.00000000000006</ele><time>2026-03-22T14:01:23.123Z</time></trkpt><trkpt lat="45.6153325" lon="10.7898136"><ele>511.0</ele><time>2026-03-22T14:01:26.124Z</time></trkpt><trkpt lat="45.6152715" lon="10.7897656"><ele>511.0</ele><time>2026-03-22T14:02:01.123Z</time></trkpt><trkpt lat="45.6151994" lon="10.7897773"><ele>511.0</ele><time>2026-03-22T14:02:09.124Z</time></trkpt><trkpt lat="45.6151317" lon="10.7897762"><ele>511.00000000000006</ele><time>2026-03-22T14:02:14.124Z</time></trkpt><trkpt lat="45.6150725" lon="10.7896926"><ele>511.0</ele><time>2026-03-22T14:02:52.123Z</time></trkpt><trkpt lat="45.6149951" lon="10.7896066"><ele>508.00000000000006</ele><time>2026-03-22T14:03:09.124Z</time></trkpt><trkpt lat="45.6149469" lon="10.7894922"><ele>505.0</ele><time>2026-03-22T14:03:11.124Z</time></trkpt><trkpt lat="45.6149138" lon="10.7893837"><ele>502.0</ele><time>2026-03-22T14:03:13.122Z</time></trkpt><trkpt lat="45.6148879" lon="10.7892623"><ele>499.0</ele><time>2026-03-22T14:03:15.123Z</time></trkpt><trkpt lat="45.6148573" lon="10.7891527"><ele>496.00000000000006</ele><time>2026-03-22T14:03:17.123Z</time></trkpt><trkpt lat="45.6148342" lon="10.7890423"><ele>493.0</ele><time>2026-03-22T14:03:19.124Z</time></trkpt><trkpt lat="45.6148063" lon="10.7889102"><ele>493.0</ele><time>2026-03-22T14:03:21.123Z</time></trkpt><trkpt lat="45.6148002" lon="10.7887809"><ele>493.0</ele><time>2026-03-22T14:03:23.123Z</time></trkpt><trkpt lat="45.6148015" lon="10.7886718"><ele>493.0</ele><time>2026-03-22T14:03:25.124Z</time></trkpt><trkpt lat="45.6148152" lon="10.7885776"><ele>493.0</ele><time>2026-03-22T14:03:34.122Z</time></trkpt><trkpt lat="45.6148381" lon="10.7886628"><ele>493.0</ele><time>2026-03-22T14:05:25.123Z</time></trkpt><trkpt lat="45.6148477" lon="10.7887655"><ele>493.0</ele><time>2026-03-22T14:05:32.124Z</time></trkpt><trkpt lat="45.6148579" lon="10.788857"><ele>493.0</ele><time>2026-03-22T14:05:37.123Z</time></trkpt><trkpt lat="45.6148682" lon="10.7889519"><ele>493.0</ele><time>2026-03-22T14:05:44.124Z</time></trkpt><trkpt lat="45.6148807" lon="10.7890454"><ele>493.0</ele><time>2026-03-22T14:05:52.123Z</time></trkpt><trkpt lat="45.6148986" lon="10.7891403"><ele>493.0</ele><time>2026-03-22T14:05:59.123Z</time></trkpt><trkpt lat="45.6149095" lon="10.7892322"><ele>493.0</ele><time>2026-03-22T14:06:04.123Z</time></trkpt><trkpt lat="45.6149368" lon="10.7893871"><ele>493.0</ele><time>2026-03-22T14:11:44.124Z</time></trkpt><trkpt lat="45.6149746" lon="10.7894698"><ele>493.0</ele><time>2026-03-22T14:11:55.123Z</time></trkpt><trkpt lat="45.614991" lon="10.7895581"><ele>493.0</ele><time>2026-03-22T14:12:03.124Z</time></trkpt><trkpt lat="45.6150227" lon="10.7896752"><ele>490.6666666666667</ele><time>2026-03-22T14:12:29.023Z</time></trkpt><trkpt lat="45.6150223" lon="10.7897781"><ele>488.33333333333337</ele><time>2026-03-22T14:12:31.122Z</time></trkpt><trkpt lat="45.6150365" lon="10.7898693"><ele>486.0</ele><time>2026-03-22T14:12:33.123Z</time></trkpt><trkpt lat="45.6150659" lon="10.7899957"><ele>483.66666666666663</ele><time>2026-03-22T14:12:36.127Z</time></trkpt><trkpt lat="45.6151032" lon="10.7900928"><ele>481.3333333333333</ele><time>2026-03-22T14:12:38.124Z</time></trkpt><trkpt lat="45.6151278" lon="10.7901921"><ele>479.0</ele><time>2026-03-22T14:12:41.124Z</time></trkpt><trkpt lat="45.6151681" lon="10.7902757"><ele>481.1428571428571</ele><time>2026-03-22T14:12:45.123Z</time></trkpt><trkpt lat="45.6152058" lon="10.7903597"><ele>483.28571428571433</ele><time>2026-03-22T14:12:49.124Z</time></trkpt><trkpt lat="45.6152414" lon="10.7904496"><ele>485.42857142857144</ele><time>2026-03-22T14:12:52.124Z</time></trkpt><trkpt lat="45.615276" lon="10.7905287"><ele>487.57142857142856</ele><time>2026-03-22T14:12:54.123Z</time></trkpt><trkpt lat="45.6153087" lon="10.7906186"><ele>489.71428571428567</ele><time>2026-03-22T14:12:56.123Z</time></trkpt><trkpt lat="45.6153474" lon="10.7907042"><ele>491.8571428571429</ele><time>2026-03-22T14:12:58.124Z</time></trkpt><trkpt lat="45.6153929" lon="10.790791"><ele>494.0</ele><time>2026-03-22T14:13:00.124Z</time></trkpt><trkpt lat="45.6154313" lon="10.7908638"><ele>493.99999999999994</ele><time>2026-03-22T14:13:01.124Z</time></trkpt><trkpt lat="45.6154709" lon="10.7909932"><ele>494.0</ele><time>2026-03-22T14:13:03.124Z</time></trkpt><trkpt lat="45.615493" lon="10.7911277"><ele>494.0</ele><time>2026-03-22T14:13:05.124Z</time></trkpt><trkpt lat="45.615514" lon="10.7912487"><ele>494.0</ele><time>2026-03-22T14:13:07.125Z</time></trkpt><trkpt lat="45.61555" lon="10.7913647"><ele>493.99999999999994</ele><time>2026-03-22T14:13:09.124Z</time></trkpt><trkpt lat="45.6155698" lon="10.7914611"><ele>494.0</ele><time>2026-03-22T14:13:11.124Z</time></trkpt><trkpt lat="45.6155971" lon="10.7915757"><ele>490.8333333333333</ele><time>2026-03-22T14:13:14.122Z</time></trkpt><trkpt lat="45.6156335" lon="10.7916692"><ele>487.66666666666663</ele><time>2026-03-22T14:13:17.124Z</time></trkpt><trkpt lat="45.6156449" lon="10.7918014"><ele>484.5</ele><time>2026-03-22T14:13:20.124Z</time></trkpt><trkpt lat="45.615632" lon="10.7918958"><ele>481.33333333333337</ele><time>2026-03-22T14:13:23.123Z</time></trkpt><trkpt lat="45.6156" lon="10.7919734"><ele>478.1666666666667</ele><time>2026-03-22T14:13:27.124Z</time></trkpt><trkpt lat="45.6155381" lon="10.7920667"><ele>475.0</ele><time>2026-03-22T14:13:47.124Z</time></trkpt><trkpt lat="45.6154662" lon="10.7921188"><ele>472.6666666666667</ele><time>2026-03-22T14:13:50.124Z</time></trkpt><trkpt lat="45.6154092" lon="10.7921641"><ele>470.33333333333337</ele><time>2026-03-22T14:13:52.124Z</time></trkpt><trkpt lat="45.6153412" lon="10.7922029"><ele>468.0</ele><time>2026-03-22T14:13:54.124Z</time></trkpt><trkpt lat="45.6152676" lon="10.792258"><ele>465.66666666666663</ele><time>2026-03-22T14:13:56.124Z</time></trkpt><trkpt lat="45.6151946" lon="10.7923108"><ele>463.3333333333333</ele><time>2026-03-22T14:13:58.124Z</time></trkpt><trkpt lat="45.6151162" lon="10.7923405"><ele>461.0</ele><time>2026-03-22T14:14:00.123Z</time></trkpt><trkpt lat="45.6150486" lon="10.7923949"><ele>457.16666666666663</ele><time>2026-03-22T14:14:03.124Z</time></trkpt><trkpt lat="45.6149867" lon="10.7923437"><ele>453.3333333333333</ele><time>2026-03-22T14:14:06.124Z</time></trkpt><trkpt lat="45.6149059" lon="10.7922716"><ele>449.5</ele><time>2026-03-22T14:14:09.123Z</time></trkpt><trkpt lat="45.6148131" lon="10.7922151"><ele>445.66666666666663</ele><time>2026-03-22T14:14:11.123Z</time></trkpt><trkpt lat="45.6147415" lon="10.7922144"><ele>441.8333333333333</ele><time>2026-03-22T14:14:12.124Z</time></trkpt><trkpt lat="45.6146758" lon="10.7921959"><ele>438.0</ele><time>2026-03-22T14:14:13.123Z</time></trkpt><trkpt lat="45.6146041" lon="10.7921506"><ele>438.0</ele><time>2026-03-22T14:14:15.124Z</time></trkpt><trkpt lat="45.6145066" lon="10.7920996"><ele>437.99999999999994</ele><time>2026-03-22T14:14:17.123Z</time></trkpt><trkpt lat="45.6144421" lon="10.7920544"><ele>437.99999999999994</ele><time>2026-03-22T14:14:18.124Z</time></trkpt><trkpt lat="45.6143264" lon="10.7919975"><ele>438.0</ele><time>2026-03-22T14:14:20.123Z</time></trkpt><trkpt lat="45.6142602" lon="10.7919329"><ele>438.0</ele><time>2026-03-22T14:14:22.124Z</time></trkpt><trkpt lat="45.6141556" lon="10.7918957"><ele>434.8333333333333</ele><time>2026-03-22T14:14:24.123Z</time></trkpt><trkpt lat="45.6140787" lon="10.7918584"><ele>431.66666666666663</ele><time>2026-03-22T14:14:26.124Z</time></trkpt><trkpt lat="45.6140138" lon="10.7918171"><ele>428.5</ele><time>2026-03-22T14:14:28.123Z</time></trkpt><trkpt lat="45.6139448" lon="10.7917832"><ele>425.3333333333333</ele><time>2026-03-22T14:14:30.124Z</time></trkpt><trkpt lat="45.6138747" lon="10.7917565"><ele>422.16666666666663</ele><time>2026-03-22T14:14:32.124Z</time></trkpt><trkpt lat="45.6138043" lon="10.7917236"><ele>419.0</ele><time>2026-03-22T14:14:34.124Z</time></trkpt><trkpt lat="45.613704" lon="10.7916997"><ele>412.75</ele><time>2026-03-22T14:14:36.123Z</time></trkpt><trkpt lat="45.6135969" lon="10.7916903"><ele>406.5</ele><time>2026-03-22T14:14:38.124Z</time></trkpt><trkpt lat="45.6134763" lon="10.7916759"><ele>400.25</ele><time>2026-03-22T14:14:40.124Z</time></trkpt><trkpt lat="45.6133569" lon="10.7916606"><ele>394.0</ele><time>2026-03-22T14:14:42.124Z</time></trkpt><trkpt lat="45.6132455" lon="10.7916803"><ele>394.0</ele><time>2026-03-22T14:14:44.124Z</time></trkpt><trkpt lat="45.6131388" lon="10.7917014"><ele>394.0</ele><time>2026-03-22T14:14:46.123Z</time></trkpt><trkpt lat="45.6130314" lon="10.7917152"><ele>394.0</ele><time>2026-03-22T14:14:48.123Z</time></trkpt><trkpt lat="45.6129204" lon="10.7917102"><ele>394.0</ele><time>2026-03-22T14:14:50.123Z</time></trkpt><trkpt lat="45.6128305" lon="10.7917483"><ele>394.0</ele><time>2026-03-22T14:14:52.124Z</time></trkpt><trkpt lat="45.6127708" lon="10.7918035"><ele>390.4</ele><time>2026-03-22T14:14:54.123Z</time></trkpt><trkpt lat="45.6127106" lon="10.7919019"><ele>386.79999999999995</ele><time>2026-03-22T14:14:56.123Z</time></trkpt><trkpt lat="45.6126386" lon="10.7920173"><ele>383.20000000000005</ele><time>2026-03-22T14:14:58.123Z</time></trkpt><trkpt lat="45.6125847" lon="10.7921326"><ele>379.6</ele><time>2026-03-22T14:15:00.124Z</time></trkpt><trkpt lat="45.6125709" lon="10.7922541"><ele>376.0</ele><time>2026-03-22T14:15:02.124Z</time></trkpt><trkpt lat="45.6125602" lon="10.7923754"><ele>376.0</ele><time>2026-03-22T14:15:05.123Z</time></trkpt><trkpt lat="45.6125617" lon="10.7924951"><ele>376.0</ele><time>2026-03-22T14:15:08.123Z</time></trkpt><trkpt lat="45.6125658" lon="10.7926049"><ele>376.0</ele><time>2026-03-22T14:15:10.124Z</time></trkpt><trkpt lat="45.612591" lon="10.7927263"><ele>376.0</ele><time>2026-03-22T14:15:12.123Z</time></trkpt><trkpt lat="45.6126354" lon="10.792858"><ele>376.0</ele><time>2026-03-22T14:15:14.123Z</time></trkpt><trkpt lat="45.6126733" lon="10.792936"><ele>376.0</ele><time>2026-03-22T14:15:15.123Z</time></trkpt><trkpt lat="45.6127131" lon="10.7930159"><ele>374.66666666666663</ele><time>2026-03-22T14:15:16.125Z</time></trkpt><trkpt lat="45.6127732" lon="10.7931051"><ele>373.3333333333333</ele><time>2026-03-22T14:15:17.125Z</time></trkpt><trkpt lat="45.6128185" lon="10.7931835"><ele>372.0</ele><time>2026-03-22T14:15:18.123Z</time></trkpt><trkpt lat="45.6128751" lon="10.7932575"><ele>370.6666666666667</ele><time>2026-03-22T14:15:19.124Z</time></trkpt><trkpt lat="45.6129556" lon="10.7933188"><ele>369.33333333333337</ele><time>2026-03-22T14:15:20.123Z</time></trkpt><trkpt lat="45.6130426" lon="10.7933885"><ele>368.0</ele><time>2026-03-22T14:15:21.124Z</time></trkpt><trkpt lat="45.6131181" lon="10.7934542"><ele>370.1666666666667</ele><time>2026-03-22T14:15:22.124Z</time></trkpt><trkpt lat="45.6131731" lon="10.7935316"><ele>372.33333333333337</ele><time>2026-03-22T14:15:23.123Z</time></trkpt><trkpt lat="45.6132299" lon="10.7936239"><ele>374.5</ele><time>2026-03-22T14:15:24.123Z</time></trkpt><trkpt lat="45.6132849" lon="10.7937255"><ele>376.6666666666667</ele><time>2026-03-22T14:15:25.123Z</time></trkpt><trkpt lat="45.613346" lon="10.7938312"><ele>378.8333333333333</ele><time>2026-03-22T14:15:26.123Z</time></trkpt><trkpt lat="45.6133959" lon="10.7939458"><ele>381.0</ele><time>2026-03-22T14:15:27.125Z</time></trkpt><trkpt lat="45.6134361" lon="10.7940319"><ele>381.0</ele><time>2026-03-22T14:15:28.125Z</time></trkpt><trkpt lat="45.6134664" lon="10.7941221"><ele>381.0</ele><time>2026-03-22T14:15:29.124Z</time></trkpt><trkpt lat="45.6134848" lon="10.794217"><ele>381.0</ele><time>2026-03-22T14:15:30.124Z</time></trkpt><trkpt lat="45.6134958" lon="10.7943198"><ele>381.0</ele><time>2026-03-22T14:15:31.123Z</time></trkpt><trkpt lat="45.6135171" lon="10.7944228"><ele>381.0</ele><time>2026-03-22T14:15:32.123Z</time></trkpt><trkpt lat="45.6135411" lon="10.7945126"><ele>381.0</ele><time>2026-03-22T14:15:33.124Z</time></trkpt><trkpt lat="45.6135639" lon="10.7945967"><ele>381.0</ele><time>2026-03-22T14:15:35.122Z</time></trkpt><trkpt lat="45.6135768" lon="10.7946849"><ele>381.5</ele><time>2026-03-22T14:16:05.123Z</time></trkpt><trkpt lat="45.6135963" lon="10.7947809"><ele>382.0</ele><time>2026-03-22T14:16:07.124Z</time></trkpt><trkpt lat="45.6136362" lon="10.7949231"><ele>382.5</ele><time>2026-03-22T14:16:09.123Z</time></trkpt><trkpt lat="45.6136697" lon="10.795008"><ele>383.0</ele><time>2026-03-22T14:16:10.124Z</time></trkpt><trkpt lat="45.6137088" lon="10.7951129"><ele>383.5</ele><time>2026-03-22T14:16:11.123Z</time></trkpt><trkpt lat="45.6137373" lon="10.7952099"><ele>384.0</ele><time>2026-03-22T14:16:12.123Z</time></trkpt><trkpt lat="45.6137592" lon="10.7953068"><ele>384.0</ele><time>2026-03-22T14:16:13.123Z</time></trkpt><trkpt lat="45.6137886" lon="10.7954773"><ele>384.0</ele><time>2026-03-22T14:16:15.124Z</time></trkpt><trkpt lat="45.6138235" lon="10.7956279"><ele>384.0</ele><time>2026-03-22T14:16:17.124Z</time></trkpt><trkpt lat="45.6138527" lon="10.7957608"><ele>384.0</ele><time>2026-03-22T14:16:19.124Z</time></trkpt><trkpt lat="45.613886" lon="10.7959139"><ele>384.0</ele><time>2026-03-22T14:16:21.123Z</time></trkpt><trkpt lat="45.613908" lon="10.7960581"><ele>383.3333333333333</ele><time>2026-03-22T14:16:23.124Z</time></trkpt><trkpt lat="45.6139408" lon="10.7961894"><ele>382.6666666666667</ele><time>2026-03-22T14:16:25.123Z</time></trkpt><trkpt lat="45.613989" lon="10.7963149"><ele>382.0</ele><time>2026-03-22T14:16:27.123Z</time></trkpt><trkpt lat="45.6139868" lon="10.7964437"><ele>381.33333333333337</ele><time>2026-03-22T14:16:30.124Z</time></trkpt><trkpt lat="45.6139116" lon="10.7964982"><ele>380.6666666666667</ele><time>2026-03-22T14:16:33.124Z</time></trkpt><trkpt lat="45.6138451" lon="10.7965004"><ele>380.0</ele><time>2026-03-22T14:16:34.123Z</time></trkpt><trkpt lat="45.6137864" lon="10.7964677"><ele>380.0</ele><time>2026-03-22T14:16:35.123Z</time></trkpt><trkpt lat="45.6137273" lon="10.796421"><ele>380.0</ele><time>2026-03-22T14:16:36.124Z</time></trkpt><trkpt lat="45.6136743" lon="10.7963561"><ele>380.0</ele><time>2026-03-22T14:16:37.124Z</time></trkpt><trkpt lat="45.6136432" lon="10.7962704"><ele>380.0</ele><time>2026-03-22T14:16:38.124Z</time></trkpt><trkpt lat="45.6135836" lon="10.7962214"><ele>380.0</ele><time>2026-03-22T14:16:39.123Z</time></trkpt><trkpt lat="45.6135217" lon="10.7961882"><ele>380.0</ele><time>2026-03-22T14:16:40.124Z</time></trkpt><trkpt lat="45.6134513" lon="10.7961604"><ele>380.0</ele><time>2026-03-22T14:16:41.123Z</time></trkpt><trkpt lat="45.6133875" lon="10.7961414"><ele>377.1666666666667</ele><time>2026-03-22T14:16:42.124Z</time></trkpt><trkpt lat="45.6133204" lon="10.7961308"><ele>374.33333333333337</ele><time>2026-03-22T14:16:43.123Z</time></trkpt><trkpt lat="45.6132545" lon="10.7961172"><ele>371.5</ele><time>2026-03-22T14:16:44.123Z</time></trkpt><trkpt lat="45.6131506" lon="10.7960724"><ele>368.6666666666667</ele><time>2026-03-22T14:16:46.125Z</time></trkpt><trkpt lat="45.6130853" lon="10.7960383"><ele>365.8333333333333</ele><time>2026-03-22T14:16:48.124Z</time></trkpt><trkpt lat="45.6130181" lon="10.7960325"><ele>363.0</ele><time>2026-03-22T14:16:50.124Z</time></trkpt><trkpt lat="45.6129292" lon="10.7960505"><ele>363.0</ele><time>2026-03-22T14:16:53.124Z</time></trkpt><trkpt lat="45.612878" lon="10.7961233"><ele>363.0</ele><time>2026-03-22T14:16:55.124Z</time></trkpt><trkpt lat="45.6128135" lon="10.796175"><ele>363.0</ele><time>2026-03-22T14:16:57.124Z</time></trkpt><trkpt lat="45.6127173" lon="10.7961187"><ele>363.0</ele><time>2026-03-22T14:16:59.123Z</time></trkpt><trkpt lat="45.6126328" lon="10.7960485"><ele>363.0</ele><time>2026-03-22T14:17:01.124Z</time></trkpt><trkpt lat="45.6125806" lon="10.7959777"><ele>363.0</ele><time>2026-03-22T14:17:03.123Z</time></trkpt><trkpt lat="45.6124995" lon="10.7959546"><ele>361.2</ele><time>2026-03-22T14:17:05.124Z</time></trkpt><trkpt lat="45.6123911" lon="10.7959052"><ele>359.4</ele><time>2026-03-22T14:17:07.124Z</time></trkpt><trkpt lat="45.6123328" lon="10.7958671"><ele>357.59999999999997</ele><time>2026-03-22T14:17:08.124Z</time></trkpt><trkpt lat="45.6122449" lon="10.7957737"><ele>355.79999999999995</ele><time>2026-03-22T14:17:10.124Z</time></trkpt><trkpt lat="45.6121577" lon="10.7956587"><ele>354.0</ele><time>2026-03-22T14:17:12.124Z</time></trkpt><trkpt lat="45.6120908" lon="10.7955564"><ele>354.0</ele><time>2026-03-22T14:17:14.123Z</time></trkpt><trkpt lat="45.6120294" lon="10.795477"><ele>354.0</ele><time>2026-03-22T14:17:17.124Z</time></trkpt><trkpt lat="45.611976" lon="10.7953986"><ele>354.0</ele><time>2026-03-22T14:17:24.124Z</time></trkpt><trkpt lat="45.6119396" lon="10.7952975"><ele>354.0</ele><time>2026-03-22T14:17:26.122Z</time></trkpt><trkpt lat="45.6119077" lon="10.7951898"><ele>354.0</ele><time>2026-03-22T14:17:28.124Z</time></trkpt><trkpt lat="45.6118548" lon="10.7951076"><ele>354.0</ele><time>2026-03-22T14:17:30.124Z</time></trkpt><trkpt lat="45.6117664" lon="10.7950282"><ele>352.0</ele><time>2026-03-22T14:17:32.124Z</time></trkpt><trkpt lat="45.6116872" lon="10.7949338"><ele>350.0</ele><time>2026-03-22T14:17:34.124Z</time></trkpt><trkpt lat="45.6116138" lon="10.7948307"><ele>348.0</ele><time>2026-03-22T14:17:36.123Z</time></trkpt><trkpt lat="45.6115204" lon="10.7947601"><ele>346.0</ele><time>2026-03-22T14:17:38.124Z</time></trkpt><trkpt lat="45.6114461" lon="10.7947227"><ele>344.0</ele><time>2026-03-22T14:17:40.124Z</time></trkpt><trkpt lat="45.6113993" lon="10.7946364"><ele>344.0</ele><time>2026-03-22T14:17:42.124Z</time></trkpt><trkpt lat="45.6113553" lon="10.7944855"><ele>344.0</ele><time>2026-03-22T14:17:44.123Z</time></trkpt><trkpt lat="45.6113241" lon="10.7943988"><ele>344.0</ele><time>2026-03-22T14:17:45.124Z</time></trkpt><trkpt lat="45.6112476" lon="10.7942693"><ele>344.0</ele><time>2026-03-22T14:17:47.125Z</time></trkpt><trkpt lat="45.6111624" lon="10.794174"><ele>344.0</ele><time>2026-03-22T14:17:49.124Z</time></trkpt><trkpt lat="45.6110815" lon="10.7940897"><ele>341.33333333333337</ele><time>2026-03-22T14:17:51.124Z</time></trkpt><trkpt lat="45.6110113" lon="10.7940524"><ele>338.6666666666667</ele><time>2026-03-22T14:17:53.123Z</time></trkpt><trkpt lat="45.6109433" lon="10.7940215"><ele>336.0</ele><time>2026-03-22T14:17:55.124Z</time></trkpt><trkpt lat="45.6108434" lon="10.7940442"><ele>333.3333333333333</ele><time>2026-03-22T14:17:57.124Z</time></trkpt><trkpt lat="45.610745" lon="10.7940853"><ele>330.66666666666663</ele><time>2026-03-22T14:17:59.124Z</time></trkpt><trkpt lat="45.6106557" lon="10.7941456"><ele>328.0</ele><time>2026-03-22T14:18:01.123Z</time></trkpt><trkpt lat="45.6105828" lon="10.7941975"><ele>328.0</ele><time>2026-03-22T14:18:03.124Z</time></trkpt><trkpt lat="45.610489" lon="10.794233"><ele>328.0</ele><time>2026-03-22T14:18:05.123Z</time></trkpt><trkpt lat="45.6104002" lon="10.7942557"><ele>328.0</ele><time>2026-03-22T14:18:07.123Z</time></trkpt><trkpt lat="45.6102877" lon="10.7942821"><ele>328.0</ele><time>2026-03-22T14:18:09.124Z</time></trkpt><trkpt lat="45.6101968" lon="10.7942858"><ele>328.0</ele><time>2026-03-22T14:18:11.124Z</time></trkpt><trkpt lat="45.6101167" lon="10.7942454"><ele>325.2</ele><time>2026-03-22T14:18:13.124Z</time></trkpt><trkpt lat="45.6100619" lon="10.794147"><ele>322.4</ele><time>2026-03-22T14:18:15.124Z</time></trkpt><trkpt lat="45.6099713" lon="10.7940926"><ele>319.59999999999997</ele><time>2026-03-22T14:18:17.123Z</time></trkpt><trkpt lat="45.6098846" lon="10.7940596"><ele>316.79999999999995</ele><time>2026-03-22T14:18:19.124Z</time></trkpt><trkpt lat="45.6097896" lon="10.7940521"><ele>314.0</ele><time>2026-03-22T14:18:21.124Z</time></trkpt><trkpt lat="45.6096668" lon="10.794048"><ele>314.0</ele><time>2026-03-22T14:18:23.124Z</time></trkpt><trkpt lat="45.609553" lon="10.7940757"><ele>314.0</ele><time>2026-03-22T14:18:25.124Z</time></trkpt><trkpt lat="45.6094525" lon="10.7940925"><ele>314.0</ele><time>2026-03-22T14:18:27.124Z</time></trkpt><trkpt lat="45.6093874" lon="10.7941168"><ele>314.0</ele><time>2026-03-22T14:18:28.123Z</time></trkpt><trkpt lat="45.6093228" lon="10.7941184"><ele>314.0</ele><time>2026-03-22T14:18:30.124Z</time></trkpt><trkpt lat="45.6092811" lon="10.7941901"><ele>314.0</ele><time>2026-03-22T14:18:33.123Z</time></trkpt><trkpt lat="45.6092938" lon="10.794316"><ele>311.5</ele><time>2026-03-22T14:18:35.124Z</time></trkpt><trkpt lat="45.6092867" lon="10.794415"><ele>309.0</ele><time>2026-03-22T14:18:36.125Z</time></trkpt><trkpt lat="45.6092791" lon="10.794522"><ele>306.5</ele><time>2026-03-22T14:18:37.124Z</time></trkpt><trkpt lat="45.6092674" lon="10.7946169"><ele>304.0</ele><time>2026-03-22T14:18:38.124Z</time></trkpt><trkpt lat="45.6092618" lon="10.7947131"><ele>301.5</ele><time>2026-03-22T14:18:39.123Z</time></trkpt><trkpt lat="45.6092416" lon="10.7948802"><ele>299.0</ele><time>2026-03-22T14:18:41.124Z</time></trkpt><trkpt lat="45.6091926" lon="10.7950224"><ele>299.0</ele><time>2026-03-22T14:18:43.124Z</time></trkpt><trkpt lat="45.6091138" lon="10.7950968"><ele>299.0</ele><time>2026-03-22T14:18:45.124Z</time></trkpt><trkpt lat="45.6090054" lon="10.7951322"><ele>299.0</ele><time>2026-03-22T14:18:47.123Z</time></trkpt><trkpt lat="45.6089082" lon="10.7951324"><ele>299.0</ele><time>2026-03-22T14:18:49.124Z</time></trkpt><trkpt lat="45.6088169" lon="10.7951079"><ele>299.0</ele><time>2026-03-22T14:18:51.124Z</time></trkpt><trkpt lat="45.6086814" lon="10.7950959"><ele>296.5</ele><time>2026-03-22T14:18:53.123Z</time></trkpt><trkpt lat="45.6086153" lon="10.7951072"><ele>294.0</ele><time>2026-03-22T14:18:54.124Z</time></trkpt><trkpt lat="45.6085328" lon="10.795192"><ele>291.5</ele><time>2026-03-22T14:18:56.123Z</time></trkpt><trkpt lat="45.608508" lon="10.795291"><ele>289.0</ele><time>2026-03-22T14:18:57.124Z</time></trkpt><trkpt lat="45.6084881" lon="10.7954144"><ele>286.5</ele><time>2026-03-22T14:18:58.124Z</time></trkpt><trkpt lat="45.6084733" lon="10.7955333"><ele>284.0</ele><time>2026-03-22T14:18:59.123Z</time></trkpt><trkpt lat="45.608461" lon="10.7956551"><ele>284.0</ele><time>2026-03-22T14:19:00.124Z</time></trkpt><trkpt lat="45.6084336" lon="10.7958339"><ele>284.0</ele><time>2026-03-22T14:19:02.123Z</time></trkpt><trkpt lat="45.6084156" lon="10.7959316"><ele>284.0</ele><time>2026-03-22T14:19:03.123Z</time></trkpt><trkpt lat="45.6083947" lon="10.7960233"><ele>284.0</ele><time>2026-03-22T14:19:04.124Z</time></trkpt><trkpt lat="45.6083829" lon="10.7961267"><ele>284.0</ele><time>2026-03-22T14:19:05.124Z</time></trkpt><trkpt lat="45.6083793" lon="10.7962322"><ele>284.0</ele><time>2026-03-22T14:19:06.124Z</time></trkpt><trkpt lat="45.6083871" lon="10.7963285"><ele>284.1666666666667</ele><time>2026-03-22T14:19:07.124Z</time></trkpt><trkpt lat="45.6084063" lon="10.796426"><ele>284.33333333333337</ele><time>2026-03-22T14:19:08.124Z</time></trkpt><trkpt lat="45.6084297" lon="10.7965358"><ele>284.5</ele><time>2026-03-22T14:19:09.123Z</time></trkpt><trkpt lat="45.6084606" lon="10.796651"><ele>284.6666666666667</ele><time>2026-03-22T14:19:10.124Z</time></trkpt><trkpt lat="45.608482" lon="10.7967655"><ele>284.8333333333333</ele><time>2026-03-22T14:19:11.123Z</time></trkpt><trkpt lat="45.6085063" lon="10.7968762"><ele>285.0</ele><time>2026-03-22T14:19:12.123Z</time></trkpt><trkpt lat="45.6085292" lon="10.7969776"><ele>283.8333333333333</ele><time>2026-03-22T14:19:13.124Z</time></trkpt><trkpt lat="45.6085481" lon="10.7970794"><ele>282.6666666666667</ele><time>2026-03-22T14:19:14.124Z</time></trkpt><trkpt lat="45.6085735" lon="10.797186"><ele>281.5</ele><time>2026-03-22T14:19:15.123Z</time></trkpt><trkpt lat="45.6085968" lon="10.7972977"><ele>280.33333333333337</ele><time>2026-03-22T14:19:16.124Z</time></trkpt><trkpt lat="45.6086134" lon="10.7974053"><ele>279.1666666666667</ele><time>2026-03-22T14:19:17.124Z</time></trkpt><trkpt lat="45.6086282" lon="10.7975199"><ele>278.0</ele><time>2026-03-22T14:19:18.124Z</time></trkpt><trkpt lat="45.6086339" lon="10.7976325"><ele>277.2</ele><time>2026-03-22T14:19:19.124Z</time></trkpt><trkpt lat="45.6086392" lon="10.7977404"><ele>276.4</ele><time>2026-03-22T14:19:20.124Z</time></trkpt><trkpt lat="45.6086239" lon="10.7979131"><ele>275.59999999999997</ele><time>2026-03-22T14:19:22.124Z</time></trkpt><trkpt lat="45.6085945" lon="10.7980166"><ele>274.8</ele><time>2026-03-22T14:19:23.124Z</time></trkpt><trkpt lat="45.6085527" lon="10.7981139"><ele>274.0</ele><time>2026-03-22T14:19:24.123Z</time></trkpt><trkpt lat="45.6084875" lon="10.7982246"><ele>274.0</ele><time>2026-03-22T14:19:25.124Z</time></trkpt><trkpt lat="45.6084343" lon="10.7983292"><ele>274.0</ele><time>2026-03-22T14:19:26.124Z</time></trkpt><trkpt lat="45.6083734" lon="10.7984413"><ele>274.0</ele><time>2026-03-22T14:19:27.123Z</time></trkpt><trkpt lat="45.6083226" lon="10.7985254"><ele>274.0</ele><time>2026-03-22T14:19:28.124Z</time></trkpt><trkpt lat="45.6082746" lon="10.7986121"><ele>274.0</ele><time>2026-03-22T14:19:29.123Z</time></trkpt><trkpt lat="45.6082372" lon="10.7986922"><ele>274.0</ele><time>2026-03-22T14:19:30.124Z</time></trkpt><trkpt lat="45.6081742" lon="10.7988062"><ele>274.0</ele><time>2026-03-22T14:19:32.123Z</time></trkpt><trkpt lat="45.6080793" lon="10.7987698"><ele>274.0</ele><time>2026-03-22T14:19:34.124Z</time></trkpt><trkpt lat="45.6080446" lon="10.7986848"><ele>274.0</ele><time>2026-03-22T14:19:35.124Z</time></trkpt><trkpt lat="45.6080057" lon="10.7985822"><ele>274.0</ele><time>2026-03-22T14:19:36.124Z</time></trkpt><trkpt lat="45.6079666" lon="10.7984627"><ele>274.0</ele><time>2026-03-22T14:19:37.124Z</time></trkpt><trkpt lat="45.6079309" lon="10.7983429"><ele>274.0</ele><time>2026-03-22T14:19:38.124Z</time></trkpt><trkpt lat="45.6078959" lon="10.7982277"><ele>274.0</ele><time>2026-03-22T14:19:39.124Z</time></trkpt><trkpt lat="45.6078624" lon="10.7981018"><ele>274.0</ele><time>2026-03-22T14:19:40.124Z</time></trkpt><trkpt lat="45.6078193" lon="10.7979611"><ele>274.0</ele><time>2026-03-22T14:19:41.124Z</time></trkpt><trkpt lat="45.6077672" lon="10.7977907"><ele>274.0</ele><time>2026-03-22T14:19:42.124Z</time></trkpt><trkpt lat="45.6077115" lon="10.7976042"><ele>273.5</ele><time>2026-03-22T14:19:43.124Z</time></trkpt><trkpt lat="45.6076529" lon="10.797401"><ele>273.0</ele><time>2026-03-22T14:19:44.123Z</time></trkpt><trkpt lat="45.6075997" lon="10.7972157"><ele>272.5</ele><time>2026-03-22T14:19:45.124Z</time></trkpt><trkpt lat="45.6075554" lon="10.7970472"><ele>272.0</ele><time>2026-03-22T14:19:46.124Z</time></trkpt><trkpt lat="45.607509" lon="10.7968888"><ele>271.5</ele><time>2026-03-22T14:19:47.124Z</time></trkpt><trkpt lat="45.6074698" lon="10.7967529"><ele>271.0</ele><time>2026-03-22T14:19:48.124Z</time></trkpt><trkpt lat="45.6074261" lon="10.7966011"><ele>270.5</ele><time>2026-03-22T14:19:49.124Z</time></trkpt><trkpt lat="45.6073728" lon="10.7964319"><ele>270.0</ele><time>2026-03-22T14:19:50.123Z</time></trkpt><trkpt lat="45.6073222" lon="10.7962661"><ele>270.0</ele><time>2026-03-22T14:19:51.124Z</time></trkpt><trkpt lat="45.6072764" lon="10.79611"><ele>270.0</ele><time>2026-03-22T14:19:52.123Z</time></trkpt><trkpt lat="45.6072398" lon="10.7959796"><ele>270.0</ele><time>2026-03-22T14:19:53.123Z</time></trkpt><trkpt lat="45.6072042" lon="10.7958603"><ele>270.0</ele><time>2026-03-22T14:19:54.124Z</time></trkpt><trkpt lat="45.6071734" lon="10.7957483"><ele>270.0</ele><time>2026-03-22T14:19:55.124Z</time></trkpt><trkpt lat="45.6071498" lon="10.7956592"><ele>269.3333333333333</ele><time>2026-03-22T14:19:56.123Z</time></trkpt><trkpt lat="45.6071319" lon="10.7955621"><ele>268.6666666666667</ele><time>2026-03-22T14:19:57.123Z</time></trkpt><trkpt lat="45.60712" lon="10.7954521"><ele>268.0</ele><time>2026-03-22T14:19:58.123Z</time></trkpt><trkpt lat="45.6070972" lon="10.7953183"><ele>267.33333333333337</ele><time>2026-03-22T14:19:59.124Z</time></trkpt><trkpt lat="45.6070781" lon="10.7952044"><ele>266.6666666666667</ele><time>2026-03-22T14:20:00.124Z</time></trkpt><trkpt lat="45.6070732" lon="10.795092"><ele>266.0</ele><time>2026-03-22T14:20:01.123Z</time></trkpt><trkpt lat="45.6070663" lon="10.7949862"><ele>266.0</ele><time>2026-03-22T14:20:02.123Z</time></trkpt><trkpt lat="45.6070607" lon="10.7948231"><ele>266.0</ele><time>2026-03-22T14:20:04.124Z</time></trkpt><trkpt lat="45.6069987" lon="10.7947228"><ele>266.0</ele><time>2026-03-22T14:20:06.124Z</time></trkpt><trkpt lat="45.606884" lon="10.7946974"><ele>266.0</ele><time>2026-03-22T14:20:08.124Z</time></trkpt><trkpt lat="45.6068143" lon="10.7947242"><ele>266.0</ele><time>2026-03-22T14:20:09.136Z</time></trkpt><trkpt lat="45.6067333" lon="10.7947419"><ele>265.33333333333337</ele><time>2026-03-22T14:20:10.129Z</time></trkpt><trkpt lat="45.6066375" lon="10.7947779"><ele>264.6666666666667</ele><time>2026-03-22T14:20:11.126Z</time></trkpt><trkpt lat="45.6065607" lon="10.7948144"><ele>264.0</ele><time>2026-03-22T14:20:12.124Z</time></trkpt><trkpt lat="45.6064948" lon="10.7948535"><ele>263.3333333333333</ele><time>2026-03-22T14:20:13.123Z</time></trkpt><trkpt lat="45.6064198" lon="10.7948768"><ele>262.66666666666663</ele><time>2026-03-22T14:20:14.124Z</time></trkpt><trkpt lat="45.6063229" lon="10.794797"><ele>262.0</ele><time>2026-03-22T14:20:16.123Z</time></trkpt><trkpt lat="45.6062738" lon="10.7947177"><ele>262.0</ele><time>2026-03-22T14:20:17.124Z</time></trkpt><trkpt lat="45.60624" lon="10.7946195"><ele>262.0</ele><time>2026-03-22T14:20:18.128Z</time></trkpt><trkpt lat="45.6061987" lon="10.7945142"><ele>262.0</ele><time>2026-03-22T14:20:19.123Z</time></trkpt><trkpt lat="45.6061566" lon="10.7944395"><ele>262.0</ele><time>2026-03-22T14:20:20.124Z</time></trkpt><trkpt lat="45.6061186" lon="10.7943598"><ele>262.0</ele><time>2026-03-22T14:20:21.124Z</time></trkpt><trkpt lat="45.6060719" lon="10.7942119"><ele>262.0</ele><time>2026-03-22T14:20:23.123Z</time></trkpt><trkpt lat="45.6060313" lon="10.7941034"><ele>261.66666666666663</ele><time>2026-03-22T14:20:25.124Z</time></trkpt><trkpt lat="45.6059771" lon="10.794031"><ele>261.3333333333333</ele><time>2026-03-22T14:20:27.123Z</time></trkpt><trkpt lat="45.6058717" lon="10.7940307"><ele>261.0</ele><time>2026-03-22T14:20:30.124Z</time></trkpt><trkpt lat="45.6057804" lon="10.7940444"><ele>260.6666666666667</ele><time>2026-03-22T14:20:32.124Z</time></trkpt><trkpt lat="45.6056994" lon="10.7940463"><ele>260.33333333333337</ele><time>2026-03-22T14:20:34.123Z</time></trkpt><trkpt lat="45.6056136" lon="10.7940654"><ele>260.0</ele><time>2026-03-22T14:20:36.124Z</time></trkpt><trkpt lat="45.6055439" lon="10.7940882"><ele>260.0</ele><time>2026-03-22T14:20:38.124Z</time></trkpt><trkpt lat="45.6054778" lon="10.7941163"><ele>260.0</ele><time>2026-03-22T14:20:40.124Z</time></trkpt><trkpt lat="45.6054215" lon="10.7941747"><ele>260.0</ele><time>2026-03-22T14:20:42.123Z</time></trkpt><trkpt lat="45.6053619" lon="10.7942795"><ele>260.0</ele><time>2026-03-22T14:20:44.124Z</time></trkpt><trkpt lat="45.6052874" lon="10.7943754"><ele>260.0</ele><time>2026-03-22T14:20:46.124Z</time></trkpt><trkpt lat="45.6052229" lon="10.7943904"><ele>260.0</ele><time>2026-03-22T14:20:47.124Z</time></trkpt><trkpt lat="45.6051071" lon="10.7944372"><ele>259.33333333333337</ele><time>2026-03-22T14:20:49.123Z</time></trkpt><trkpt lat="45.6050412" lon="10.794481"><ele>258.6666666666667</ele><time>2026-03-22T14:20:50.125Z</time></trkpt><trkpt lat="45.6049689" lon="10.7945208"><ele>258.0</ele><time>2026-03-22T14:20:51.124Z</time></trkpt><trkpt lat="45.6048643" lon="10.7945451"><ele>257.3333333333333</ele><time>2026-03-22T14:20:52.124Z</time></trkpt><trkpt lat="45.6047867" lon="10.7945642"><ele>256.66666666666663</ele><time>2026-03-22T14:20:53.124Z</time></trkpt><trkpt lat="45.6047171" lon="10.7945856"><ele>256.0</ele><time>2026-03-22T14:20:54.124Z</time></trkpt><trkpt lat="45.6046355" lon="10.7946105"><ele>256.0</ele><time>2026-03-22T14:20:55.124Z</time></trkpt><trkpt lat="45.6045455" lon="10.7946399"><ele>256.0</ele><time>2026-03-22T14:20:56.124Z</time></trkpt><trkpt lat="45.6044261" lon="10.7946574"><ele>256.0</ele><time>2026-03-22T14:20:57.124Z</time></trkpt><trkpt lat="45.6043149" lon="10.7946831"><ele>256.0</ele><time>2026-03-22T14:20:58.124Z</time></trkpt><trkpt lat="45.6041963" lon="10.7947186"><ele>256.0</ele><time>2026-03-22T14:20:59.124Z</time></trkpt><trkpt lat="45.6040767" lon="10.7947509"><ele>255.4</ele><time>2026-03-22T14:21:00.124Z</time></trkpt><trkpt lat="45.6039867" lon="10.7947913"><ele>254.8</ele><time>2026-03-22T14:21:01.124Z</time></trkpt><trkpt lat="45.603891" lon="10.7948185"><ele>254.20000000000002</ele><time>2026-03-22T14:21:02.124Z</time></trkpt><trkpt lat="45.603796" lon="10.7948467"><ele>253.60000000000002</ele><time>2026-03-22T14:21:03.124Z</time></trkpt><trkpt lat="45.6037053" lon="10.7948792"><ele>253.0</ele><time>2026-03-22T14:21:04.123Z</time></trkpt><trkpt lat="45.6036133" lon="10.7949027"><ele>252.66666666666666</ele><time>2026-03-22T14:21:05.122Z</time></trkpt><trkpt lat="45.6035239" lon="10.794929"><ele>252.33333333333331</ele><time>2026-03-22T14:21:06.124Z</time></trkpt><trkpt lat="45.6034514" lon="10.7949497"><ele>252.0</ele><time>2026-03-22T14:21:07.125Z</time></trkpt><trkpt lat="45.6033778" lon="10.7949775"><ele>251.66666666666669</ele><time>2026-03-22T14:21:09.125Z</time></trkpt><trkpt lat="45.603358" lon="10.7950938"><ele>251.33333333333334</ele><time>2026-03-22T14:21:17.123Z</time></trkpt><trkpt lat="45.6033265" lon="10.7951762"><ele>251.0</ele><time>2026-03-22T14:21:36.124Z</time></trkpt><trkpt lat="45.6032543" lon="10.7950849"><ele>251.00000000000003</ele><time>2026-03-22T14:23:47.147Z</time></trkpt><trkpt lat="45.6032013" lon="10.7951394"><ele>251.0</ele><time>2026-03-22T14:24:03.124Z</time></trkpt><trkpt lat="45.6032452" lon="10.7952041"><ele>251.0</ele><time>2026-03-22T14:27:51.124Z</time></trkpt><trkpt lat="45.6031051" lon="10.7951248"><ele>251.0</ele><time>2026-03-22T14:27:55.124Z</time></trkpt><trkpt lat="45.6030295" lon="10.7951366"><ele>251.00000000000003</ele><time>2026-03-22T14:27:56.124Z</time></trkpt><trkpt lat="45.6029515" lon="10.7951504"><ele>251.0</ele><time>2026-03-22T14:27:57.124Z</time></trkpt><trkpt lat="45.6028614" lon="10.7951661"><ele>251.0</ele><time>2026-03-22T14:27:58.124Z</time></trkpt><trkpt lat="45.6027678" lon="10.7951804"><ele>251.0</ele><time>2026-03-22T14:27:59.123Z</time></trkpt><trkpt lat="45.6026538" lon="10.7951878"><ele>251.0</ele><time>2026-03-22T14:28:00.124Z</time></trkpt><trkpt lat="45.6025248" lon="10.7951871"><ele>251.0</ele><time>2026-03-22T14:28:01.124Z</time></trkpt><trkpt lat="45.6023701" lon="10.7951832"><ele>251.0</ele><time>2026-03-22T14:28:02.124Z</time></trkpt><trkpt lat="45.602215" lon="10.7951759"><ele>251.0</ele><time>2026-03-22T14:28:03.124Z</time></trkpt><trkpt lat="45.6020773" lon="10.7951752"><ele>251.0</ele><time>2026-03-22T14:28:04.124Z</time></trkpt><trkpt lat="45.6019541" lon="10.7951814"><ele>251.0</ele><time>2026-03-22T14:28:05.124Z</time></trkpt><trkpt lat="45.601835" lon="10.7951845"><ele>250.8</ele><time>2026-03-22T14:28:06.124Z</time></trkpt><trkpt lat="45.6017416" lon="10.7951835"><ele>250.60000000000002</ele><time>2026-03-22T14:28:07.124Z</time></trkpt><trkpt lat="45.601645" lon="10.7951816"><ele>250.4</ele><time>2026-03-22T14:28:08.124Z</time></trkpt><trkpt lat="45.6015384" lon="10.7951649"><ele>250.2</ele><time>2026-03-22T14:28:09.125Z</time></trkpt><trkpt lat="45.6014219" lon="10.7951184"><ele>250.0</ele><time>2026-03-22T14:28:10.123Z</time></trkpt><trkpt lat="45.6013014" lon="10.7950462"><ele>249.8</ele><time>2026-03-22T14:28:11.124Z</time></trkpt><trkpt lat="45.6011949" lon="10.7949583"><ele>249.6</ele><time>2026-03-22T14:28:12.124Z</time></trkpt><trkpt lat="45.6010999" lon="10.794867"><ele>249.39999999999998</ele><time>2026-03-22T14:28:13.124Z</time></trkpt><trkpt lat="45.6010125" lon="10.7947691"><ele>249.2</ele><time>2026-03-22T14:28:14.124Z</time></trkpt><trkpt lat="45.6009372" lon="10.7946799"><ele>249.0</ele><time>2026-03-22T14:28:15.124Z</time></trkpt><trkpt lat="45.6008717" lon="10.794599"><ele>249.0</ele><time>2026-03-22T14:28:16.124Z</time></trkpt><trkpt lat="45.6008056" lon="10.7945274"><ele>248.99999999999997</ele><time>2026-03-22T14:28:17.124Z</time></trkpt><trkpt lat="45.6007419" lon="10.79449"><ele>248.99999999999997</ele><time>2026-03-22T14:28:18.124Z</time></trkpt><trkpt lat="45.6006066" lon="10.7945244"><ele>249.0</ele><time>2026-03-22T14:28:20.124Z</time></trkpt><trkpt lat="45.6005139" lon="10.7945585"><ele>249.0</ele><time>2026-03-22T14:28:21.123Z</time></trkpt><trkpt lat="45.6004236" lon="10.7945925"><ele>249.0</ele><time>2026-03-22T14:28:22.124Z</time></trkpt><trkpt lat="45.6003361" lon="10.79462"><ele>249.0</ele><time>2026-03-22T14:28:23.124Z</time></trkpt><trkpt lat="45.6002623" lon="10.7946354"><ele>249.0</ele><time>2026-03-22T14:28:24.124Z</time></trkpt><trkpt lat="45.6001427" lon="10.794646"><ele>249.0</ele><time>2026-03-22T14:28:26.124Z</time></trkpt><trkpt lat="45.6000797" lon="10.7946548"><ele>249.0</ele><time>2026-03-22T14:28:27.124Z</time></trkpt><trkpt lat="45.6000091" lon="10.7946713"><ele>249.0</ele><time>2026-03-22T14:28:28.122Z</time></trkpt><trkpt lat="45.5999139" lon="10.7946929"><ele>249.0</ele><time>2026-03-22T14:28:30.124Z</time></trkpt><trkpt lat="45.5998249" lon="10.7946939"><ele>249.0</ele><time>2026-03-22T14:28:40.124Z</time></trkpt><trkpt lat="45.5997544" lon="10.794704"><ele>249.0</ele><time>2026-03-22T14:28:41.124Z</time></trkpt><trkpt lat="45.5996677" lon="10.7947299"><ele>249.0</ele><time>2026-03-22T14:28:42.124Z</time></trkpt><trkpt lat="45.5995777" lon="10.7947673"><ele>249.0</ele><time>2026-03-22T14:28:43.124Z</time></trkpt><trkpt lat="45.5994779" lon="10.7947801"><ele>249.0</ele><time>2026-03-22T14:28:44.124Z</time></trkpt><trkpt lat="45.5993651" lon="10.7947761"><ele>249.2</ele><time>2026-03-22T14:28:45.124Z</time></trkpt><trkpt lat="45.5992536" lon="10.7947664"><ele>249.39999999999998</ele><time>2026-03-22T14:28:46.124Z</time></trkpt><trkpt lat="45.5991515" lon="10.7948053"><ele>249.6</ele><time>2026-03-22T14:28:47.124Z</time></trkpt><trkpt lat="45.5990608" lon="10.7948408"><ele>249.8</ele><time>2026-03-22T14:28:48.123Z</time></trkpt><trkpt lat="45.5989891" lon="10.794879"><ele>250.0</ele><time>2026-03-22T14:28:49.123Z</time></trkpt><trkpt lat="45.5989313" lon="10.7949201"><ele>250.0</ele><time>2026-03-22T14:28:50.124Z</time></trkpt><trkpt lat="45.5988414" lon="10.7949633"><ele>250.0</ele><time>2026-03-22T14:28:52.124Z</time></trkpt><trkpt lat="45.5987284" lon="10.7950078"><ele>250.0</ele><time>2026-03-22T14:28:54.123Z</time></trkpt><trkpt lat="45.5986592" lon="10.7950328"><ele>250.0</ele><time>2026-03-22T14:28:55.124Z</time></trkpt><trkpt lat="45.5985778" lon="10.7950618"><ele>250.0</ele><time>2026-03-22T14:28:56.124Z</time></trkpt><trkpt lat="45.5984714" lon="10.7950908"><ele>251.0</ele><time>2026-03-22T14:28:57.123Z</time></trkpt><trkpt lat="45.5983658" lon="10.7951246"><ele>252.0</ele><time>2026-03-22T14:28:58.124Z</time></trkpt><trkpt lat="45.5982755" lon="10.7951787"><ele>253.0</ele><time>2026-03-22T14:28:59.124Z</time></trkpt><trkpt lat="45.5981866" lon="10.7952697"><ele>254.0</ele><time>2026-03-22T14:29:00.123Z</time></trkpt><trkpt lat="45.5981021" lon="10.7953545"><ele>255.0</ele><time>2026-03-22T14:29:01.124Z</time></trkpt><trkpt lat="45.5980192" lon="10.7954112"><ele>255.8</ele><time>2026-03-22T14:29:02.124Z</time></trkpt><trkpt lat="45.5979214" lon="10.7954082"><ele>256.6</ele><time>2026-03-22T14:29:03.123Z</time></trkpt><trkpt lat="45.5978186" lon="10.7953999"><ele>257.4</ele><time>2026-03-22T14:29:04.124Z</time></trkpt><trkpt lat="45.5977185" lon="10.7954065"><ele>258.2</ele><time>2026-03-22T14:29:05.124Z</time></trkpt><trkpt lat="45.5975984" lon="10.7954461"><ele>259.0</ele><time>2026-03-22T14:29:06.124Z</time></trkpt><trkpt lat="45.5974888" lon="10.7954949"><ele>262.0</ele><time>2026-03-22T14:29:07.124Z</time></trkpt><trkpt lat="45.5974012" lon="10.7955676"><ele>265.0</ele><time>2026-03-22T14:29:08.124Z</time></trkpt><trkpt lat="45.5973299" lon="10.7956636"><ele>268.0</ele><time>2026-03-22T14:29:09.124Z</time></trkpt><trkpt lat="45.5972684" lon="10.7957757"><ele>271.0</ele><time>2026-03-22T14:29:10.124Z</time></trkpt><trkpt lat="45.5971999" lon="10.7959244"><ele>274.0</ele><time>2026-03-22T14:29:11.124Z</time></trkpt><trkpt lat="45.5971299" lon="10.7960797"><ele>275.25</ele><time>2026-03-22T14:29:12.124Z</time></trkpt><trkpt lat="45.5970699" lon="10.7962232"><ele>276.5</ele><time>2026-03-22T14:29:13.123Z</time></trkpt><trkpt lat="45.5970126" lon="10.7963501"><ele>277.75</ele><time>2026-03-22T14:29:14.124Z</time></trkpt><trkpt lat="45.5969589" lon="10.7964908"><ele>279.0</ele><time>2026-03-22T14:29:15.124Z</time></trkpt><trkpt lat="45.5969151" lon="10.796643"><ele>279.0</ele><time>2026-03-22T14:29:16.123Z</time></trkpt><trkpt lat="45.596883" lon="10.7967852"><ele>279.0</ele><time>2026-03-22T14:29:17.124Z</time></trkpt><trkpt lat="45.5968625" lon="10.7969098"><ele>279.0</ele><time>2026-03-22T14:29:18.124Z</time></trkpt><trkpt lat="45.5968545" lon="10.7970238"><ele>279.0</ele><time>2026-03-22T14:29:19.124Z</time></trkpt><trkpt lat="45.5968639" lon="10.7971509"><ele>279.0</ele><time>2026-03-22T14:29:20.124Z</time></trkpt><trkpt lat="45.5968708" lon="10.797299"><ele>280.59999999999997</ele><time>2026-03-22T14:29:21.124Z</time></trkpt><trkpt lat="45.5968952" lon="10.7974558"><ele>282.2</ele><time>2026-03-22T14:29:22.124Z</time></trkpt><trkpt lat="45.5969301" lon="10.7976029"><ele>283.79999999999995</ele><time>2026-03-22T14:29:23.124Z</time></trkpt><trkpt lat="45.5969299" lon="10.7977332"><ele>285.4</ele><time>2026-03-22T14:29:24.124Z</time></trkpt><trkpt lat="45.5969223" lon="10.7978971"><ele>287.0</ele><time>2026-03-22T14:29:25.124Z</time></trkpt><trkpt lat="45.596908" lon="10.7980548"><ele>287.4</ele><time>2026-03-22T14:29:26.124Z</time></trkpt><trkpt lat="45.5968845" lon="10.7982131"><ele>287.79999999999995</ele><time>2026-03-22T14:29:27.124Z</time></trkpt><trkpt lat="45.5968459" lon="10.7983602"><ele>288.2</ele><time>2026-03-22T14:29:28.124Z</time></trkpt><trkpt lat="45.596802" lon="10.7985129"><ele>288.59999999999997</ele><time>2026-03-22T14:29:29.124Z</time></trkpt><trkpt lat="45.5967533" lon="10.7986377"><ele>289.0</ele><time>2026-03-22T14:29:30.123Z</time></trkpt><trkpt lat="45.5967222" lon="10.7987424"><ele>289.5</ele><time>2026-03-22T14:29:31.124Z</time></trkpt><trkpt lat="45.5966815" lon="10.7988718"><ele>290.0</ele><time>2026-03-22T14:29:32.124Z</time></trkpt><trkpt lat="45.5966465" lon="10.7989909"><ele>290.5</ele><time>2026-03-22T14:29:33.123Z</time></trkpt><trkpt lat="45.5966048" lon="10.7990971"><ele>291.0</ele><time>2026-03-22T14:29:34.123Z</time></trkpt><trkpt lat="45.5965592" lon="10.7991892"><ele>291.5</ele><time>2026-03-22T14:29:35.124Z</time></trkpt><trkpt lat="45.5965057" lon="10.799272"><ele>292.0</ele><time>2026-03-22T14:29:36.124Z</time></trkpt><trkpt lat="45.5964688" lon="10.7993972"><ele>293.25</ele><time>2026-03-22T14:29:37.124Z</time></trkpt><trkpt lat="45.5963949" lon="10.7995501"><ele>294.5</ele><time>2026-03-22T14:29:38.124Z</time></trkpt><trkpt lat="45.5963345" lon="10.7996894"><ele>295.75</ele><time>2026-03-22T14:29:39.124Z</time></trkpt><trkpt lat="45.5962532" lon="10.7997838"><ele>297.0</ele><time>2026-03-22T14:29:40.123Z</time></trkpt><trkpt lat="45.5961635" lon="10.7998713"><ele>299.25</ele><time>2026-03-22T14:29:41.124Z</time></trkpt><trkpt lat="45.5960286" lon="10.7999625"><ele>301.5</ele><time>2026-03-22T14:29:42.124Z</time></trkpt><trkpt lat="45.5959325" lon="10.8000454"><ele>303.75</ele><time>2026-03-22T14:29:43.124Z</time></trkpt><trkpt lat="45.5958172" lon="10.8001216"><ele>306.0</ele><time>2026-03-22T14:29:44.124Z</time></trkpt><trkpt lat="45.5957224" lon="10.8001717"><ele>306.40000000000003</ele><time>2026-03-22T14:29:45.123Z</time></trkpt><trkpt lat="45.5956363" lon="10.8002222"><ele>306.8</ele><time>2026-03-22T14:29:46.123Z</time></trkpt><trkpt lat="45.5955699" lon="10.8002614"><ele>307.20000000000005</ele><time>2026-03-22T14:29:47.124Z</time></trkpt><trkpt lat="45.5954778" lon="10.8003146"><ele>307.6</ele><time>2026-03-22T14:29:48.124Z</time></trkpt><trkpt lat="45.5953747" lon="10.8004264"><ele>308.0</ele><time>2026-03-22T14:29:50.124Z</time></trkpt><trkpt lat="45.5953013" lon="10.8005151"><ele>307.2</ele><time>2026-03-22T14:29:51.124Z</time></trkpt><trkpt lat="45.5952797" lon="10.8006211"><ele>306.4</ele><time>2026-03-22T14:29:52.124Z</time></trkpt><trkpt lat="45.5952631" lon="10.8007309"><ele>305.59999999999997</ele><time>2026-03-22T14:29:53.123Z</time></trkpt><trkpt lat="45.5952891" lon="10.8009056"><ele>304.8</ele><time>2026-03-22T14:29:54.124Z</time></trkpt><trkpt lat="45.5953141" lon="10.8010333"><ele>304.0</ele><time>2026-03-22T14:29:55.122Z</time></trkpt><trkpt lat="45.5953407" lon="10.8011511"><ele>304.0</ele><time>2026-03-22T14:29:56.125Z</time></trkpt><trkpt lat="45.5953618" lon="10.8012545"><ele>304.0</ele><time>2026-03-22T14:29:57.124Z</time></trkpt><trkpt lat="45.5953805" lon="10.8013562"><ele>304.0</ele><time>2026-03-22T14:29:58.124Z</time></trkpt><trkpt lat="45.5953994" lon="10.8014596"><ele>304.0</ele><time>2026-03-22T14:29:59.124Z</time></trkpt><trkpt lat="45.5954053" lon="10.8016313"><ele>304.0</ele><time>2026-03-22T14:30:01.124Z</time></trkpt><trkpt lat="45.5953694" lon="10.8017163"><ele>304.0</ele><time>2026-03-22T14:30:02.124Z</time></trkpt><trkpt lat="45.5953535" lon="10.8018078"><ele>304.5</ele><time>2026-03-22T14:30:03.124Z</time></trkpt><trkpt lat="45.5953449" lon="10.8018978"><ele>305.0</ele><time>2026-03-22T14:30:04.123Z</time></trkpt><trkpt lat="45.5953539" lon="10.8020149"><ele>305.5</ele><time>2026-03-22T14:30:05.124Z</time></trkpt><trkpt lat="45.5953777" lon="10.8021009"><ele>306.0</ele><time>2026-03-22T14:30:06.124Z</time></trkpt><trkpt lat="45.5954196" lon="10.8021694"><ele>306.5</ele><time>2026-03-22T14:30:07.124Z</time></trkpt><trkpt lat="45.5955167" lon="10.8022048"><ele>307.0</ele><time>2026-03-22T14:30:09.124Z</time></trkpt><trkpt lat="45.5956826" lon="10.8021226"><ele>307.0</ele><time>2026-03-22T14:30:11.124Z</time></trkpt><trkpt lat="45.595774" lon="10.8020961"><ele>307.0</ele><time>2026-03-22T14:30:12.124Z</time></trkpt><trkpt lat="45.5958567" lon="10.8020835"><ele>307.0</ele><time>2026-03-22T14:30:13.124Z</time></trkpt><trkpt lat="45.5959311" lon="10.8020911"><ele>307.0</ele><time>2026-03-22T14:30:14.124Z</time></trkpt><trkpt lat="45.5960049" lon="10.8021252"><ele>307.0</ele><time>2026-03-22T14:30:15.124Z</time></trkpt><trkpt lat="45.59607" lon="10.802171"><ele>307.0</ele><time>2026-03-22T14:30:16.124Z</time></trkpt><trkpt lat="45.5961272" lon="10.8022275"><ele>306.4</ele><time>2026-03-22T14:30:17.124Z</time></trkpt><trkpt lat="45.5961851" lon="10.8023294"><ele>305.79999999999995</ele><time>2026-03-22T14:30:18.124Z</time></trkpt><trkpt lat="45.5962473" lon="10.8024462"><ele>305.2</ele><time>2026-03-22T14:30:19.124Z</time></trkpt><trkpt lat="45.5963064" lon="10.8025589"><ele>304.59999999999997</ele><time>2026-03-22T14:30:20.124Z</time></trkpt><trkpt lat="45.5963308" lon="10.802674"><ele>304.0</ele><time>2026-03-22T14:30:21.124Z</time></trkpt><trkpt lat="45.5963665" lon="10.8027982"><ele>303.59999999999997</ele><time>2026-03-22T14:30:22.124Z</time></trkpt><trkpt lat="45.596399" lon="10.8029403"><ele>303.2</ele><time>2026-03-22T14:30:23.123Z</time></trkpt><trkpt lat="45.5964275" lon="10.8030788"><ele>302.79999999999995</ele><time>2026-03-22T14:30:24.124Z</time></trkpt><trkpt lat="45.5964545" lon="10.8032187"><ele>302.4</ele><time>2026-03-22T14:30:25.124Z</time></trkpt><trkpt lat="45.596484" lon="10.8033552"><ele>302.0</ele><time>2026-03-22T14:30:26.124Z</time></trkpt><trkpt lat="45.5965228" lon="10.8034944"><ele>301.83333333333337</ele><time>2026-03-22T14:30:27.123Z</time></trkpt><trkpt lat="45.5965566" lon="10.8036279"><ele>301.6666666666667</ele><time>2026-03-22T14:30:28.125Z</time></trkpt><trkpt lat="45.5965789" lon="10.803761"><ele>301.5</ele><time>2026-03-22T14:30:29.124Z</time></trkpt><trkpt lat="45.5965894" lon="10.8038859"><ele>301.3333333333333</ele><time>2026-03-22T14:30:30.124Z</time></trkpt><trkpt lat="45.5966094" lon="10.8039983"><ele>301.16666666666663</ele><time>2026-03-22T14:30:31.124Z</time></trkpt><trkpt lat="45.5966401" lon="10.8041055"><ele>301.0</ele><time>2026-03-22T14:30:32.123Z</time></trkpt><trkpt lat="45.5966649" lon="10.8042182"><ele>300.0</ele><time>2026-03-22T14:30:33.124Z</time></trkpt><trkpt lat="45.5966799" lon="10.8043336"><ele>299.0</ele><time>2026-03-22T14:30:34.124Z</time></trkpt><trkpt lat="45.5966956" lon="10.8044447"><ele>298.0</ele><time>2026-03-22T14:30:35.124Z</time></trkpt><trkpt lat="45.5966997" lon="10.8045471"><ele>297.0</ele><time>2026-03-22T14:30:36.124Z</time></trkpt><trkpt lat="45.5967035" lon="10.8046453"><ele>296.0</ele><time>2026-03-22T14:30:37.124Z</time></trkpt><trkpt lat="45.5967167" lon="10.8047353"><ele>295.0</ele><time>2026-03-22T14:30:38.123Z</time></trkpt><trkpt lat="45.5967397" lon="10.8048631"><ele>295.0</ele><time>2026-03-22T14:30:40.124Z</time></trkpt><trkpt lat="45.5967357" lon="10.8049637"><ele>295.0</ele><time>2026-03-22T14:30:42.124Z</time></trkpt><trkpt lat="45.5966686" lon="10.8051116"><ele>295.0</ele><time>2026-03-22T14:30:44.124Z</time></trkpt><trkpt lat="45.5966161" lon="10.8051677"><ele>295.0</ele><time>2026-03-22T14:30:45.124Z</time></trkpt><trkpt lat="45.5965302" lon="10.8052334"><ele>295.0</ele><time>2026-03-22T14:30:46.124Z</time></trkpt><trkpt lat="45.5964674" lon="10.8052695"><ele>295.0</ele><time>2026-03-22T14:30:47.124Z</time></trkpt><trkpt lat="45.5963872" lon="10.8052746"><ele>295.8</ele><time>2026-03-22T14:30:48.124Z</time></trkpt><trkpt lat="45.5962738" lon="10.8052458"><ele>296.6</ele><time>2026-03-22T14:30:50.124Z</time></trkpt><trkpt lat="45.5961722" lon="10.8052235"><ele>297.4</ele><time>2026-03-22T14:30:52.124Z</time></trkpt><trkpt lat="45.5960935" lon="10.8051931"><ele>298.2</ele><time>2026-03-22T14:30:53.124Z</time></trkpt><trkpt lat="45.596002" lon="10.8050728"><ele>299.0</ele><time>2026-03-22T14:30:55.124Z</time></trkpt><trkpt lat="45.5959594" lon="10.8049837"><ele>296.8</ele><time>2026-03-22T14:30:56.124Z</time></trkpt><trkpt lat="45.5959147" lon="10.804862"><ele>294.59999999999997</ele><time>2026-03-22T14:30:57.124Z</time></trkpt><trkpt lat="45.5958612" lon="10.8047323"><ele>292.4</ele><time>2026-03-22T14:30:58.124Z</time></trkpt><trkpt lat="45.5958129" lon="10.8046081"><ele>290.2</ele><time>2026-03-22T14:30:59.124Z</time></trkpt><trkpt lat="45.5957447" lon="10.8044946"><ele>288.0</ele><time>2026-03-22T14:31:00.123Z</time></trkpt><trkpt lat="45.5956562" lon="10.8044305"><ele>288.0</ele><time>2026-03-22T14:31:01.125Z</time></trkpt><trkpt lat="45.5955788" lon="10.8043473"><ele>288.0</ele><time>2026-03-22T14:31:02.124Z</time></trkpt><trkpt lat="45.5954962" lon="10.8042603"><ele>288.0</ele><time>2026-03-22T14:31:03.123Z</time></trkpt><trkpt lat="45.5954257" lon="10.8041774"><ele>288.0</ele><time>2026-03-22T14:31:04.124Z</time></trkpt><trkpt lat="45.5953568" lon="10.8040879"><ele>288.0</ele><time>2026-03-22T14:31:05.125Z</time></trkpt><trkpt lat="45.5952926" lon="10.8040087"><ele>285.0</ele><time>2026-03-22T14:31:06.124Z</time></trkpt><trkpt lat="45.5952182" lon="10.8039622"><ele>282.0</ele><time>2026-03-22T14:31:07.124Z</time></trkpt><trkpt lat="45.5951368" lon="10.8039064"><ele>279.0</ele><time>2026-03-22T14:31:08.124Z</time></trkpt><trkpt lat="45.5950579" lon="10.8038221"><ele>276.0</ele><time>2026-03-22T14:31:09.123Z</time></trkpt><trkpt lat="45.5949855" lon="10.8036914"><ele>273.0</ele><time>2026-03-22T14:31:10.124Z</time></trkpt><trkpt lat="45.594911" lon="10.8036147"><ele>273.0</ele><time>2026-03-22T14:31:11.124Z</time></trkpt><trkpt lat="45.5948441" lon="10.8035568"><ele>273.0</ele><time>2026-03-22T14:31:12.124Z</time></trkpt><trkpt lat="45.5947805" lon="10.8034892"><ele>273.0</ele><time>2026-03-22T14:31:13.123Z</time></trkpt><trkpt lat="45.5947083" lon="10.8034245"><ele>273.0</ele><time>2026-03-22T14:31:14.125Z</time></trkpt><trkpt lat="45.5946308" lon="10.803347"><ele>273.0</ele><time>2026-03-22T14:31:15.124Z</time></trkpt><trkpt lat="45.59454" lon="10.8032722"><ele>273.0</ele><time>2026-03-22T14:31:16.125Z</time></trkpt><trkpt lat="45.5944517" lon="10.8031188"><ele>272.3333333333333</ele><time>2026-03-22T14:31:17.124Z</time></trkpt><trkpt lat="45.5943865" lon="10.803014"><ele>271.6666666666667</ele><time>2026-03-22T14:31:18.124Z</time></trkpt><trkpt lat="45.59433" lon="10.8029113"><ele>271.0</ele><time>2026-03-22T14:31:19.125Z</time></trkpt><trkpt lat="45.5942981" lon="10.8028118"><ele>270.33333333333337</ele><time>2026-03-22T14:31:20.124Z</time></trkpt><trkpt lat="45.5942808" lon="10.8027065"><ele>269.6666666666667</ele><time>2026-03-22T14:31:21.125Z</time></trkpt><trkpt lat="45.5942647" lon="10.8026138"><ele>269.0</ele><time>2026-03-22T14:31:22.124Z</time></trkpt><trkpt lat="45.5942434" lon="10.8025287"><ele>269.0</ele><time>2026-03-22T14:31:23.124Z</time></trkpt><trkpt lat="45.5941869" lon="10.8024437"><ele>269.0</ele><time>2026-03-22T14:31:26.124Z</time></trkpt><trkpt lat="45.5941032" lon="10.8025238"><ele>269.0</ele><time>2026-03-22T14:31:30.124Z</time></trkpt><trkpt lat="45.5940355" lon="10.8026513"><ele>269.0</ele><time>2026-03-22T14:31:32.124Z</time></trkpt><trkpt lat="45.5939572" lon="10.8027475"><ele>269.0</ele><time>2026-03-22T14:31:34.124Z</time></trkpt><trkpt lat="45.5938947" lon="10.8028112"><ele>268.0</ele><time>2026-03-22T14:31:35.124Z</time></trkpt><trkpt lat="45.5938388" lon="10.802876"><ele>267.0</ele><time>2026-03-22T14:31:36.124Z</time></trkpt><trkpt lat="45.5937933" lon="10.8029598"><ele>266.0</ele><time>2026-03-22T14:31:37.124Z</time></trkpt><trkpt lat="45.5936919" lon="10.8031348"><ele>265.0</ele><time>2026-03-22T14:31:39.124Z</time></trkpt><trkpt lat="45.5936399" lon="10.8032507"><ele>264.0</ele><time>2026-03-22T14:31:40.124Z</time></trkpt><trkpt lat="45.5935995" lon="10.8033543"><ele>261.4</ele><time>2026-03-22T14:31:41.124Z</time></trkpt><trkpt lat="45.5935572" lon="10.8034515"><ele>258.79999999999995</ele><time>2026-03-22T14:31:42.124Z</time></trkpt><trkpt lat="45.5935122" lon="10.803559"><ele>256.20000000000005</ele><time>2026-03-22T14:31:43.124Z</time></trkpt><trkpt lat="45.5934298" lon="10.8036762"><ele>253.60000000000002</ele><time>2026-03-22T14:31:44.124Z</time></trkpt><trkpt lat="45.5933701" lon="10.803776"><ele>251.0</ele><time>2026-03-22T14:31:45.124Z</time></trkpt><trkpt lat="45.5933073" lon="10.8038736"><ele>251.00000000000003</ele><time>2026-03-22T14:31:46.124Z</time></trkpt><trkpt lat="45.5932463" lon="10.8039631"><ele>251.0</ele><time>2026-03-22T14:31:47.123Z</time></trkpt><trkpt lat="45.5932006" lon="10.8040525"><ele>251.0</ele><time>2026-03-22T14:31:48.124Z</time></trkpt><trkpt lat="45.5931542" lon="10.8041361"><ele>251.0</ele><time>2026-03-22T14:31:49.124Z</time></trkpt><trkpt lat="45.5930959" lon="10.804214"><ele>251.00000000000003</ele><time>2026-03-22T14:31:50.124Z</time></trkpt><trkpt lat="45.5930427" lon="10.8042984"><ele>251.0</ele><time>2026-03-22T14:31:51.123Z</time></trkpt><trkpt lat="45.5929888" lon="10.8043824"><ele>250.50000000000003</ele><time>2026-03-22T14:31:52.124Z</time></trkpt><trkpt lat="45.5929375" lon="10.804463"><ele>250.0</ele><time>2026-03-22T14:31:53.124Z</time></trkpt><trkpt lat="45.5928654" lon="10.8045135"><ele>249.5</ele><time>2026-03-22T14:31:54.124Z</time></trkpt><trkpt lat="45.5927703" lon="10.804539"><ele>249.0</ele><time>2026-03-22T14:31:55.124Z</time></trkpt><trkpt lat="45.5926811" lon="10.8045555"><ele>248.50000000000003</ele><time>2026-03-22T14:31:56.124Z</time></trkpt><trkpt lat="45.5925908" lon="10.8045745"><ele>248.0</ele><time>2026-03-22T14:31:57.124Z</time></trkpt><trkpt lat="45.5924835" lon="10.8045826"><ele>246.00000000000003</ele><time>2026-03-22T14:31:58.124Z</time></trkpt><trkpt lat="45.5923947" lon="10.804587"><ele>244.0</ele><time>2026-03-22T14:31:59.124Z</time></trkpt><trkpt lat="45.5923084" lon="10.8046072"><ele>242.0</ele><time>2026-03-22T14:32:00.124Z</time></trkpt><trkpt lat="45.5922361" lon="10.8046421"><ele>240.0</ele><time>2026-03-22T14:32:01.124Z</time></trkpt><trkpt lat="45.5921582" lon="10.8046848"><ele>238.00000000000003</ele><time>2026-03-22T14:32:02.123Z</time></trkpt><trkpt lat="45.5920859" lon="10.8047178"><ele>236.0</ele><time>2026-03-22T14:32:03.124Z</time></trkpt><trkpt lat="45.592011" lon="10.8047504"><ele>234.33333333333334</ele><time>2026-03-22T14:32:04.124Z</time></trkpt><trkpt lat="45.5919406" lon="10.804775"><ele>232.66666666666669</ele><time>2026-03-22T14:32:05.123Z</time></trkpt><trkpt lat="45.5918684" lon="10.8047947"><ele>231.0</ele><time>2026-03-22T14:32:06.124Z</time></trkpt><trkpt lat="45.5917942" lon="10.8048058"><ele>229.33333333333331</ele><time>2026-03-22T14:32:07.123Z</time></trkpt><trkpt lat="45.5917236" lon="10.8048128"><ele>227.66666666666666</ele><time>2026-03-22T14:32:08.124Z</time></trkpt><trkpt lat="45.5915961" lon="10.8048179"><ele>226.0</ele><time>2026-03-22T14:32:10.124Z</time></trkpt><trkpt lat="45.5915091" lon="10.8048364"><ele>226.0</ele><time>2026-03-22T14:32:11.124Z</time></trkpt><trkpt lat="45.5914089" lon="10.8048881"><ele>226.0</ele><time>2026-03-22T14:32:12.124Z</time></trkpt><trkpt lat="45.5913125" lon="10.8049637"><ele>226.0</ele><time>2026-03-22T14:32:13.124Z</time></trkpt><trkpt lat="45.5911973" lon="10.8050602"><ele>226.0</ele><time>2026-03-22T14:32:14.123Z</time></trkpt><trkpt lat="45.5910801" lon="10.8051459"><ele>224.5</ele><time>2026-03-22T14:32:15.123Z</time></trkpt><trkpt lat="45.5909549" lon="10.8052345"><ele>223.0</ele><time>2026-03-22T14:32:16.124Z</time></trkpt><trkpt lat="45.5908368" lon="10.8053209"><ele>221.5</ele><time>2026-03-22T14:32:17.124Z</time></trkpt><trkpt lat="45.5907231" lon="10.8053912"><ele>220.0</ele><time>2026-03-22T14:32:18.124Z</time></trkpt><trkpt lat="45.5906171" lon="10.805454"><ele>220.0</ele><time>2026-03-22T14:32:19.123Z</time></trkpt><trkpt lat="45.5905149" lon="10.8055167"><ele>220.0</ele><time>2026-03-22T14:32:20.123Z</time></trkpt><trkpt lat="45.5904242" lon="10.8055757"><ele>220.0</ele><time>2026-03-22T14:32:21.124Z</time></trkpt><trkpt lat="45.5903354" lon="10.8056204"><ele>220.0</ele><time>2026-03-22T14:32:22.123Z</time></trkpt><trkpt lat="45.5902459" lon="10.8056744"><ele>220.0</ele><time>2026-03-22T14:32:23.124Z</time></trkpt><trkpt lat="45.5901687" lon="10.8057221"><ele>218.8</ele><time>2026-03-22T14:32:24.124Z</time></trkpt><trkpt lat="45.5900911" lon="10.8057574"><ele>217.6</ele><time>2026-03-22T14:32:25.124Z</time></trkpt><trkpt lat="45.5899752" lon="10.8058039"><ele>216.39999999999998</ele><time>2026-03-22T14:32:27.124Z</time></trkpt><trkpt lat="45.5898799" lon="10.8058786"><ele>215.2</ele><time>2026-03-22T14:32:29.124Z</time></trkpt><trkpt lat="45.5898082" lon="10.8060413"><ele>214.0</ele><time>2026-03-22T14:32:31.124Z</time></trkpt><trkpt lat="45.5897982" lon="10.8061892"><ele>214.0</ele><time>2026-03-22T14:32:32.124Z</time></trkpt><trkpt lat="45.5897861" lon="10.8063639"><ele>214.0</ele><time>2026-03-22T14:32:33.124Z</time></trkpt><trkpt lat="45.5897708" lon="10.8065594"><ele>214.0</ele><time>2026-03-22T14:32:34.124Z</time></trkpt><trkpt lat="45.5897611" lon="10.8067462"><ele>214.0</ele><time>2026-03-22T14:32:35.124Z</time></trkpt><trkpt lat="45.589754" lon="10.8069204"><ele>214.0</ele><time>2026-03-22T14:32:36.124Z</time></trkpt><trkpt lat="45.5897472" lon="10.8070762"><ele>213.99999999999997</ele><time>2026-03-22T14:32:37.124Z</time></trkpt><trkpt lat="45.589753" lon="10.8072163"><ele>213.99999999999997</ele><time>2026-03-22T14:32:38.124Z</time></trkpt><trkpt lat="45.5897909" lon="10.8073544"><ele>214.0</ele><time>2026-03-22T14:32:39.124Z</time></trkpt><trkpt lat="45.589855" lon="10.8074965"><ele>214.0</ele><time>2026-03-22T14:32:40.124Z</time></trkpt><trkpt lat="45.5899565" lon="10.8076565"><ele>214.0</ele><time>2026-03-22T14:32:41.124Z</time></trkpt><trkpt lat="45.5900562" lon="10.8078499"><ele>214.0</ele><time>2026-03-22T14:32:42.124Z</time></trkpt><trkpt lat="45.5901618" lon="10.8080594"><ele>214.0</ele><time>2026-03-22T14:32:43.124Z</time></trkpt><trkpt lat="45.5902664" lon="10.8082548"><ele>215.25</ele><time>2026-03-22T14:32:44.124Z</time></trkpt><trkpt lat="45.5903562" lon="10.8084379"><ele>216.5</ele><time>2026-03-22T14:32:45.124Z</time></trkpt><trkpt lat="45.5904414" lon="10.8086053"><ele>217.75</ele><time>2026-03-22T14:32:46.124Z</time></trkpt><trkpt lat="45.5905124" lon="10.8087592"><ele>219.0</ele><time>2026-03-22T14:32:47.125Z</time></trkpt><trkpt lat="45.5905624" lon="10.8089013"><ele>219.0</ele><time>2026-03-22T14:32:48.124Z</time></trkpt><trkpt lat="45.5906185" lon="10.809008"><ele>219.0</ele><time>2026-03-22T14:32:49.124Z</time></trkpt><trkpt lat="45.5906775" lon="10.8091049"><ele>219.0</ele><time>2026-03-22T14:32:50.123Z</time></trkpt><trkpt lat="45.590739" lon="10.8091724"><ele>219.0</ele><time>2026-03-22T14:32:51.124Z</time></trkpt><trkpt lat="45.5907891" lon="10.8092413"><ele>219.0</ele><time>2026-03-22T14:32:52.124Z</time></trkpt><trkpt lat="45.5908285" lon="10.8093178"><ele>219.0</ele><time>2026-03-22T14:32:53.124Z</time></trkpt><trkpt lat="45.5908633" lon="10.8094383"><ele>218.0</ele><time>2026-03-22T14:32:54.125Z</time></trkpt><trkpt lat="45.5909035" lon="10.8095949"><ele>217.0</ele><time>2026-03-22T14:32:55.124Z</time></trkpt><trkpt lat="45.5909569" lon="10.8097677"><ele>216.0</ele><time>2026-03-22T14:32:56.124Z</time></trkpt><trkpt lat="45.5909899" lon="10.8099306"><ele>215.0</ele><time>2026-03-22T14:32:57.124Z</time></trkpt><trkpt lat="45.5910045" lon="10.8101109"><ele>215.0</ele><time>2026-03-22T14:32:58.124Z</time></trkpt><trkpt lat="45.5910067" lon="10.8102823"><ele>215.0</ele><time>2026-03-22T14:32:59.125Z</time></trkpt><trkpt lat="45.5910207" lon="10.8104571"><ele>215.0</ele><time>2026-03-22T14:33:00.124Z</time></trkpt><trkpt lat="45.5910516" lon="10.8106494"><ele>215.0</ele><time>2026-03-22T14:33:01.123Z</time></trkpt><trkpt lat="45.5910728" lon="10.8108349"><ele>215.2</ele><time>2026-03-22T14:33:02.124Z</time></trkpt><trkpt lat="45.59108" lon="10.8110011"><ele>215.4</ele><time>2026-03-22T14:33:03.124Z</time></trkpt><trkpt lat="45.5910846" lon="10.8111478"><ele>215.60000000000002</ele><time>2026-03-22T14:33:04.124Z</time></trkpt><trkpt lat="45.5910912" lon="10.8112836"><ele>215.8</ele><time>2026-03-22T14:33:05.124Z</time></trkpt><trkpt lat="45.5911016" lon="10.8113975"><ele>216.0</ele><time>2026-03-22T14:33:06.124Z</time></trkpt><trkpt lat="45.5910964" lon="10.8115047"><ele>216.0</ele><time>2026-03-22T14:33:07.124Z</time></trkpt><trkpt lat="45.59107" lon="10.8115878"><ele>216.0</ele><time>2026-03-22T14:33:08.124Z</time></trkpt><trkpt lat="45.5909515" lon="10.8117797"><ele>216.0</ele><time>2026-03-22T14:33:10.123Z</time></trkpt><trkpt lat="45.5908446" lon="10.8118844"><ele>216.0</ele><time>2026-03-22T14:33:11.124Z</time></trkpt><trkpt lat="45.5907239" lon="10.8119758"><ele>216.25</ele><time>2026-03-22T14:33:12.124Z</time></trkpt><trkpt lat="45.5905896" lon="10.8120702"><ele>216.5</ele><time>2026-03-22T14:33:13.124Z</time></trkpt><trkpt lat="45.5904723" lon="10.8121526"><ele>216.75</ele><time>2026-03-22T14:33:14.124Z</time></trkpt><trkpt lat="45.5903687" lon="10.8122469"><ele>217.0</ele><time>2026-03-22T14:33:15.124Z</time></trkpt><trkpt lat="45.5902853" lon="10.8123466"><ele>216.0</ele><time>2026-03-22T14:33:16.123Z</time></trkpt><trkpt lat="45.5901976" lon="10.8124669"><ele>215.0</ele><time>2026-03-22T14:33:17.124Z</time></trkpt><trkpt lat="45.5901078" lon="10.8125971"><ele>214.0</ele><time>2026-03-22T14:33:18.124Z</time></trkpt><trkpt lat="45.5900359" lon="10.8127195"><ele>213.0</ele><time>2026-03-22T14:33:19.124Z</time></trkpt><trkpt lat="45.5899636" lon="10.8128233"><ele>212.83333333333334</ele><time>2026-03-22T14:33:20.124Z</time></trkpt><trkpt lat="45.5899063" lon="10.8129174"><ele>212.66666666666669</ele><time>2026-03-22T14:33:21.124Z</time></trkpt><trkpt lat="45.5898535" lon="10.8130055"><ele>212.5</ele><time>2026-03-22T14:33:22.124Z</time></trkpt><trkpt lat="45.5898043" lon="10.8130849"><ele>212.33333333333334</ele><time>2026-03-22T14:33:23.124Z</time></trkpt><trkpt lat="45.5897601" lon="10.813162"><ele>212.16666666666669</ele><time>2026-03-22T14:33:24.124Z</time></trkpt><trkpt lat="45.5897217" lon="10.8132446"><ele>212.0</ele><time>2026-03-22T14:33:25.124Z</time></trkpt><trkpt lat="45.5896871" lon="10.8133298"><ele>212.00000000000003</ele><time>2026-03-22T14:33:26.124Z</time></trkpt><trkpt lat="45.5896432" lon="10.8134412"><ele>212.0</ele><time>2026-03-22T14:33:28.124Z</time></trkpt><trkpt lat="45.5895919" lon="10.8135109"><ele>212.0</ele><time>2026-03-22T14:33:30.124Z</time></trkpt><trkpt lat="45.5894968" lon="10.8135118"><ele>212.0</ele><time>2026-03-22T14:33:32.123Z</time></trkpt><trkpt lat="45.5894352" lon="10.8134877"><ele>212.00000000000003</ele><time>2026-03-22T14:33:33.124Z</time></trkpt><trkpt lat="45.5893467" lon="10.8134528"><ele>212.0</ele><time>2026-03-22T14:33:34.125Z</time></trkpt><trkpt lat="45.5892462" lon="10.8134121"><ele>211.75</ele><time>2026-03-22T14:33:35.124Z</time></trkpt><trkpt lat="45.5891313" lon="10.8133464"><ele>211.5</ele><time>2026-03-22T14:33:36.124Z</time></trkpt><trkpt lat="45.5889801" lon="10.8132653"><ele>211.25</ele><time>2026-03-22T14:33:37.124Z</time></trkpt><trkpt lat="45.5888449" lon="10.8131887"><ele>211.0</ele><time>2026-03-22T14:33:38.124Z</time></trkpt><trkpt lat="45.5887294" lon="10.8131193"><ele>210.60000000000002</ele><time>2026-03-22T14:33:39.125Z</time></trkpt><trkpt lat="45.5886192" lon="10.81306"><ele>210.2</ele><time>2026-03-22T14:33:40.124Z</time></trkpt><trkpt lat="45.588525" lon="10.8130053"><ele>209.8</ele><time>2026-03-22T14:33:41.124Z</time></trkpt><trkpt lat="45.588445" lon="10.8129676"><ele>209.39999999999998</ele><time>2026-03-22T14:33:42.125Z</time></trkpt><trkpt lat="45.5883648" lon="10.8129646"><ele>209.0</ele><time>2026-03-22T14:33:43.124Z</time></trkpt><trkpt lat="45.5882804" lon="10.8130692"><ele>209.0</ele><time>2026-03-22T14:33:45.124Z</time></trkpt><trkpt lat="45.5882775" lon="10.8131682"><ele>209.0</ele><time>2026-03-22T14:33:46.124Z</time></trkpt><trkpt lat="45.5882939" lon="10.8132853"><ele>209.0</ele><time>2026-03-22T14:33:47.124Z</time></trkpt><trkpt lat="45.5883327" lon="10.813411"><ele>209.0</ele><time>2026-03-22T14:33:48.124Z</time></trkpt><trkpt lat="45.5883887" lon="10.8135269"><ele>209.0</ele><time>2026-03-22T14:33:49.124Z</time></trkpt><trkpt lat="45.5884655" lon="10.8136403"><ele>209.0</ele><time>2026-03-22T14:33:50.124Z</time></trkpt><trkpt lat="45.5885644" lon="10.8137524"><ele>209.0</ele><time>2026-03-22T14:33:51.125Z</time></trkpt><trkpt lat="45.5886743" lon="10.8138646"><ele>209.0</ele><time>2026-03-22T14:33:52.124Z</time></trkpt><trkpt lat="45.5887971" lon="10.8140018"><ele>209.0</ele><time>2026-03-22T14:33:53.124Z</time></trkpt><trkpt lat="45.5889198" lon="10.8141507"><ele>206.66666666666669</ele><time>2026-03-22T14:33:54.123Z</time></trkpt><trkpt lat="45.5890466" lon="10.8143451"><ele>204.33333333333331</ele><time>2026-03-22T14:33:55.124Z</time></trkpt><trkpt lat="45.5891883" lon="10.8145555"><ele>202.0</ele><time>2026-03-22T14:33:56.124Z</time></trkpt><trkpt lat="45.5893276" lon="10.8147669"><ele>202.0</ele><time>2026-03-22T14:33:57.124Z</time></trkpt><trkpt lat="45.5894554" lon="10.8149671"><ele>202.0</ele><time>2026-03-22T14:33:58.124Z</time></trkpt><trkpt lat="45.5895656" lon="10.8151458"><ele>202.0</ele><time>2026-03-22T14:33:59.124Z</time></trkpt><trkpt lat="45.5896671" lon="10.815316"><ele>204.0</ele><time>2026-03-22T14:34:00.124Z</time></trkpt><trkpt lat="45.589762" lon="10.8154713"><ele>206.0</ele><time>2026-03-22T14:34:01.124Z</time></trkpt><trkpt lat="45.5898491" lon="10.815609"><ele>208.0</ele><time>2026-03-22T14:34:02.124Z</time></trkpt><trkpt lat="45.5899357" lon="10.8157423"><ele>210.0</ele><time>2026-03-22T14:34:03.124Z</time></trkpt><trkpt lat="45.5900329" lon="10.8158744"><ele>209.75</ele><time>2026-03-22T14:34:04.125Z</time></trkpt><trkpt lat="45.5901192" lon="10.8160056"><ele>209.5</ele><time>2026-03-22T14:34:05.124Z</time></trkpt><trkpt lat="45.5901955" lon="10.8161208"><ele>209.25</ele><time>2026-03-22T14:34:06.124Z</time></trkpt><trkpt lat="45.5902722" lon="10.8162389"><ele>209.0</ele><time>2026-03-22T14:34:07.124Z</time></trkpt><trkpt lat="45.5903402" lon="10.8163454"><ele>210.6</ele><time>2026-03-22T14:34:08.124Z</time></trkpt><trkpt lat="45.5904019" lon="10.8164418"><ele>212.2</ele><time>2026-03-22T14:34:09.125Z</time></trkpt><trkpt lat="45.5904607" lon="10.8165461"><ele>213.79999999999998</ele><time>2026-03-22T14:34:10.123Z</time></trkpt><trkpt lat="45.5905304" lon="10.8166646"><ele>215.39999999999998</ele><time>2026-03-22T14:34:11.124Z</time></trkpt><trkpt lat="45.590597" lon="10.8167764"><ele>217.0</ele><time>2026-03-22T14:34:12.124Z</time></trkpt><trkpt lat="45.590668" lon="10.8169033"><ele>217.0</ele><time>2026-03-22T14:34:13.123Z</time></trkpt><trkpt lat="45.5907407" lon="10.8170351"><ele>217.0</ele><time>2026-03-22T14:34:14.122Z</time></trkpt><trkpt lat="45.5908143" lon="10.8172023"><ele>217.0</ele><time>2026-03-22T14:34:15.124Z</time></trkpt><trkpt lat="45.5908904" lon="10.8173929"><ele>217.0</ele><time>2026-03-22T14:34:16.124Z</time></trkpt><trkpt lat="45.5909557" lon="10.8175728"><ele>216.5</ele><time>2026-03-22T14:34:17.125Z</time></trkpt><trkpt lat="45.5910073" lon="10.8177334"><ele>216.0</ele><time>2026-03-22T14:34:18.124Z</time></trkpt><trkpt lat="45.5910648" lon="10.8179091"><ele>215.5</ele><time>2026-03-22T14:34:19.125Z</time></trkpt><trkpt lat="45.5911278" lon="10.8180875"><ele>215.0</ele><time>2026-03-22T14:34:20.124Z</time></trkpt><trkpt lat="45.5911905" lon="10.8182766"><ele>217.0</ele><time>2026-03-22T14:34:21.124Z</time></trkpt><trkpt lat="45.5912541" lon="10.8184843"><ele>219.0</ele><time>2026-03-22T14:34:22.124Z</time></trkpt><trkpt lat="45.5913256" lon="10.8186828"><ele>221.0</ele><time>2026-03-22T14:34:23.124Z</time></trkpt><trkpt lat="45.5913935" lon="10.8188809"><ele>221.0</ele><time>2026-03-22T14:34:24.124Z</time></trkpt><trkpt lat="45.591475" lon="10.8190867"><ele>221.0</ele><time>2026-03-22T14:34:25.124Z</time></trkpt><trkpt lat="45.591567" lon="10.8192931"><ele>221.0</ele><time>2026-03-22T14:34:26.125Z</time></trkpt><trkpt lat="45.591667" lon="10.8195166"><ele>221.33333333333334</ele><time>2026-03-22T14:34:27.124Z</time></trkpt><trkpt lat="45.5917667" lon="10.8197191"><ele>221.66666666666669</ele><time>2026-03-22T14:34:28.124Z</time></trkpt><trkpt lat="45.5918642" lon="10.8199067"><ele>222.0</ele><time>2026-03-22T14:34:29.124Z</time></trkpt><trkpt lat="45.5919544" lon="10.8200759"><ele>224.66666666666669</ele><time>2026-03-22T14:34:30.124Z</time></trkpt><trkpt lat="45.5920558" lon="10.8202436"><ele>227.33333333333334</ele><time>2026-03-22T14:34:31.124Z</time></trkpt><trkpt lat="45.5921703" lon="10.8204174"><ele>230.0</ele><time>2026-03-22T14:34:32.124Z</time></trkpt><trkpt lat="45.5922794" lon="10.8205872"><ele>230.0</ele><time>2026-03-22T14:34:33.124Z</time></trkpt><trkpt lat="45.5923758" lon="10.8207388"><ele>230.0</ele><time>2026-03-22T14:34:34.124Z</time></trkpt><trkpt lat="45.5924656" lon="10.8208718"><ele>230.0</ele><time>2026-03-22T14:34:35.124Z</time></trkpt><trkpt lat="45.5925469" lon="10.8210059"><ele>230.0</ele><time>2026-03-22T14:34:36.124Z</time></trkpt><trkpt lat="45.5926059" lon="10.8211223"><ele>231.0</ele><time>2026-03-22T14:34:37.124Z</time></trkpt><trkpt lat="45.5926656" lon="10.8212496"><ele>232.0</ele><time>2026-03-22T14:34:38.125Z</time></trkpt><trkpt lat="45.5927282" lon="10.821399"><ele>233.0</ele><time>2026-03-22T14:34:39.124Z</time></trkpt><trkpt lat="45.5927774" lon="10.8215332"><ele>234.0</ele><time>2026-03-22T14:34:40.124Z</time></trkpt><trkpt lat="45.5928282" lon="10.8216588"><ele>235.0</ele><time>2026-03-22T14:34:41.124Z</time></trkpt><trkpt lat="45.5928754" lon="10.8217517"><ele>236.4</ele><time>2026-03-22T14:34:42.124Z</time></trkpt><trkpt lat="45.5929619" lon="10.8218878"><ele>237.8</ele><time>2026-03-22T14:34:44.124Z</time></trkpt><trkpt lat="45.5930414" lon="10.8219449"><ele>239.2</ele><time>2026-03-22T14:34:45.125Z</time></trkpt><trkpt lat="45.5931194" lon="10.8219991"><ele>240.6</ele><time>2026-03-22T14:34:46.124Z</time></trkpt><trkpt lat="45.5931867" lon="10.8220386"><ele>242.0</ele><time>2026-03-22T14:34:47.124Z</time></trkpt><trkpt lat="45.5932881" lon="10.8221042"><ele>242.00000000000003</ele><time>2026-03-22T14:34:49.124Z</time></trkpt><trkpt lat="45.5932366" lon="10.8221663"><ele>242.0</ele><time>2026-03-22T14:34:53.124Z</time></trkpt><trkpt lat="45.5931272" lon="10.8221425"><ele>242.0</ele><time>2026-03-22T14:34:55.124Z</time></trkpt><trkpt lat="45.5930589" lon="10.8221391"><ele>242.0</ele><time>2026-03-22T14:34:56.123Z</time></trkpt><trkpt lat="45.5929838" lon="10.8221434"><ele>242.00000000000003</ele><time>2026-03-22T14:34:57.124Z</time></trkpt><trkpt lat="45.5928949" lon="10.8221574"><ele>242.0</ele><time>2026-03-22T14:34:58.125Z</time></trkpt><trkpt lat="45.5927946" lon="10.8221918"><ele>242.00000000000003</ele><time>2026-03-22T14:34:59.124Z</time></trkpt><trkpt lat="45.5927046" lon="10.8222107"><ele>242.0</ele><time>2026-03-22T14:35:00.124Z</time></trkpt><trkpt lat="45.5926206" lon="10.8222355"><ele>242.0</ele><time>2026-03-22T14:35:01.124Z</time></trkpt><trkpt lat="45.5925344" lon="10.8222548"><ele>242.0</ele><time>2026-03-22T14:35:03.124Z</time></trkpt><trkpt lat="45.5925068" lon="10.822385"><ele>242.00000000000003</ele><time>2026-03-22T14:35:06.124Z</time></trkpt><trkpt lat="45.592496" lon="10.8224738"><ele>242.0</ele><time>2026-03-22T14:35:07.124Z</time></trkpt><trkpt lat="45.5924828" lon="10.8225917"><ele>244.16666666666669</ele><time>2026-03-22T14:35:08.125Z</time></trkpt><trkpt lat="45.5924665" lon="10.8227191"><ele>246.33333333333334</ele><time>2026-03-22T14:35:09.124Z</time></trkpt><trkpt lat="45.5924593" lon="10.8228285"><ele>248.5</ele><time>2026-03-22T14:35:10.124Z</time></trkpt><trkpt lat="45.5925165" lon="10.8229759"><ele>250.66666666666669</ele><time>2026-03-22T14:35:12.124Z</time></trkpt><trkpt lat="45.5925813" lon="10.8230246"><ele>252.83333333333334</ele><time>2026-03-22T14:35:13.124Z</time></trkpt><trkpt lat="45.5926374" lon="10.8230957"><ele>255.0</ele><time>2026-03-22T14:35:14.124Z</time></trkpt><trkpt lat="45.5927019" lon="10.8231393"><ele>255.0</ele><time>2026-03-22T14:35:15.124Z</time></trkpt><trkpt lat="45.5928189" lon="10.8231819"><ele>255.0</ele><time>2026-03-22T14:35:17.124Z</time></trkpt><trkpt lat="45.5928938" lon="10.8231938"><ele>255.0</ele><time>2026-03-22T14:35:18.124Z</time></trkpt><trkpt lat="45.5929669" lon="10.8231929"><ele>255.0</ele><time>2026-03-22T14:35:19.124Z</time></trkpt><trkpt lat="45.5930385" lon="10.823202"><ele>255.0</ele><time>2026-03-22T14:35:20.124Z</time></trkpt><trkpt lat="45.5931156" lon="10.8232536"><ele>255.0</ele><time>2026-03-22T14:35:21.124Z</time></trkpt><trkpt lat="45.5932001" lon="10.8233221"><ele>254.75</ele><time>2026-03-22T14:35:22.124Z</time></trkpt><trkpt lat="45.5932986" lon="10.8233872"><ele>254.5</ele><time>2026-03-22T14:35:23.124Z</time></trkpt><trkpt lat="45.5934157" lon="10.823465"><ele>254.25</ele><time>2026-03-22T14:35:24.124Z</time></trkpt><trkpt lat="45.5935357" lon="10.8235441"><ele>254.0</ele><time>2026-03-22T14:35:25.124Z</time></trkpt><trkpt lat="45.5936412" lon="10.8236215"><ele>256.59999999999997</ele><time>2026-03-22T14:35:26.124Z</time></trkpt><trkpt lat="45.5937386" lon="10.8236882"><ele>259.2</ele><time>2026-03-22T14:35:27.122Z</time></trkpt><trkpt lat="45.5938035" lon="10.8237458"><ele>261.79999999999995</ele><time>2026-03-22T14:35:28.124Z</time></trkpt><trkpt lat="45.5938707" lon="10.8238212"><ele>264.4</ele><time>2026-03-22T14:35:29.124Z</time></trkpt><trkpt lat="45.5939213" lon="10.8238892"><ele>267.0</ele><time>2026-03-22T14:35:30.124Z</time></trkpt><trkpt lat="45.5940051" lon="10.8239988"><ele>267.0</ele><time>2026-03-22T14:35:32.124Z</time></trkpt><trkpt lat="45.594073" lon="10.8240679"><ele>267.0</ele><time>2026-03-22T14:35:34.124Z</time></trkpt><trkpt lat="45.5941586" lon="10.8241467"><ele>267.0</ele><time>2026-03-22T14:35:36.124Z</time></trkpt><trkpt lat="45.5942283" lon="10.8241916"><ele>267.0</ele><time>2026-03-22T14:35:38.125Z</time></trkpt><trkpt lat="45.5942905" lon="10.824231"><ele>267.0</ele><time>2026-03-22T14:35:40.125Z</time></trkpt><trkpt lat="45.5943626" lon="10.8242556"><ele>267.0</ele><time>2026-03-22T14:35:42.124Z</time></trkpt><trkpt lat="45.5944501" lon="10.8242586"><ele>268.2</ele><time>2026-03-22T14:35:44.124Z</time></trkpt><trkpt lat="45.5945589" lon="10.8242675"><ele>269.4</ele><time>2026-03-22T14:35:46.124Z</time></trkpt><trkpt lat="45.5946223" lon="10.8242468"><ele>270.6</ele><time>2026-03-22T14:35:47.124Z</time></trkpt><trkpt lat="45.5946973" lon="10.8242209"><ele>271.8</ele><time>2026-03-22T14:35:48.124Z</time></trkpt><trkpt lat="45.5947659" lon="10.8242016"><ele>273.0</ele><time>2026-03-22T14:35:49.123Z</time></trkpt><trkpt lat="45.5948936" lon="10.8241497"><ele>273.0</ele><time>2026-03-22T14:35:51.124Z</time></trkpt><trkpt lat="45.5949582" lon="10.8240845"><ele>273.0</ele><time>2026-03-22T14:35:52.124Z</time></trkpt><trkpt lat="45.5950382" lon="10.8239572"><ele>273.0</ele><time>2026-03-22T14:35:54.124Z</time></trkpt><trkpt lat="45.5950913" lon="10.8238674"><ele>273.0</ele><time>2026-03-22T14:35:55.124Z</time></trkpt><trkpt lat="45.5951776" lon="10.8237575"><ele>273.0</ele><time>2026-03-22T14:35:57.125Z</time></trkpt><trkpt lat="45.5952727" lon="10.8236214"><ele>273.0</ele><time>2026-03-22T14:35:59.124Z</time></trkpt><trkpt lat="45.5953136" lon="10.8235394"><ele>273.0</ele><time>2026-03-22T14:36:00.125Z</time></trkpt><trkpt lat="45.5953596" lon="10.8234478"><ele>273.0</ele><time>2026-03-22T14:36:01.124Z</time></trkpt><trkpt lat="45.5954036" lon="10.8233606"><ele>273.0</ele><time>2026-03-22T14:36:02.124Z</time></trkpt><trkpt lat="45.5954573" lon="10.8232826"><ele>273.0</ele><time>2026-03-22T14:36:03.124Z</time></trkpt><trkpt lat="45.5955109" lon="10.8231809"><ele>273.0</ele><time>2026-03-22T14:36:04.124Z</time></trkpt><trkpt lat="45.5955698" lon="10.8230997"><ele>273.6666666666667</ele><time>2026-03-22T14:36:05.125Z</time></trkpt><trkpt lat="45.5956143" lon="10.8230283"><ele>274.3333333333333</ele><time>2026-03-22T14:36:06.124Z</time></trkpt><trkpt lat="45.5956709" lon="10.8229585"><ele>275.0</ele><time>2026-03-22T14:36:07.124Z</time></trkpt><trkpt lat="45.5957344" lon="10.8228865"><ele>275.66666666666663</ele><time>2026-03-22T14:36:08.125Z</time></trkpt><trkpt lat="45.595802" lon="10.8228334"><ele>276.3333333333333</ele><time>2026-03-22T14:36:09.123Z</time></trkpt><trkpt lat="45.5958752" lon="10.8227661"><ele>277.0</ele><time>2026-03-22T14:36:10.124Z</time></trkpt><trkpt lat="45.5959548" lon="10.8227014"><ele>276.3333333333333</ele><time>2026-03-22T14:36:11.124Z</time></trkpt><trkpt lat="45.5960399" lon="10.8226439"><ele>275.66666666666663</ele><time>2026-03-22T14:36:12.124Z</time></trkpt><trkpt lat="45.5961199" lon="10.8225974"><ele>275.0</ele><time>2026-03-22T14:36:13.125Z</time></trkpt><trkpt lat="45.5961808" lon="10.8225611"><ele>274.3333333333333</ele><time>2026-03-22T14:36:14.125Z</time></trkpt><trkpt lat="45.5962518" lon="10.8225167"><ele>273.6666666666667</ele><time>2026-03-22T14:36:15.124Z</time></trkpt><trkpt lat="45.5963099" lon="10.8224795"><ele>273.0</ele><time>2026-03-22T14:36:16.124Z</time></trkpt><trkpt lat="45.5964073" lon="10.8223829"><ele>273.0</ele><time>2026-03-22T14:36:18.124Z</time></trkpt><trkpt lat="45.596525" lon="10.8222863"><ele>273.0</ele><time>2026-03-22T14:36:20.124Z</time></trkpt><trkpt lat="45.5965888" lon="10.822248"><ele>273.0</ele><time>2026-03-22T14:36:21.123Z</time></trkpt><trkpt lat="45.596641" lon="10.8221949"><ele>273.0</ele><time>2026-03-22T14:36:22.124Z</time></trkpt><trkpt lat="45.5967173" lon="10.8221239"><ele>273.0</ele><time>2026-03-22T14:36:24.123Z</time></trkpt><trkpt lat="45.5967598" lon="10.8220226"><ele>273.0</ele><time>2026-03-22T14:36:27.124Z</time></trkpt><trkpt lat="45.596817" lon="10.8218877"><ele>273.0</ele><time>2026-03-22T14:36:29.124Z</time></trkpt><trkpt lat="45.5968657" lon="10.8218254"><ele>273.0</ele><time>2026-03-22T14:36:30.124Z</time></trkpt><trkpt lat="45.5969368" lon="10.8217776"><ele>273.0</ele><time>2026-03-22T14:36:31.124Z</time></trkpt><trkpt lat="45.5970312" lon="10.8217087"><ele>273.0</ele><time>2026-03-22T14:36:32.124Z</time></trkpt><trkpt lat="45.5971216" lon="10.8216434"><ele>273.0</ele><time>2026-03-22T14:36:33.124Z</time></trkpt><trkpt lat="45.5971984" lon="10.821573"><ele>273.0</ele><time>2026-03-22T14:36:34.124Z</time></trkpt><trkpt lat="45.5972791" lon="10.8214721"><ele>272.5</ele><time>2026-03-22T14:36:35.124Z</time></trkpt><trkpt lat="45.5973744" lon="10.8213345"><ele>272.0</ele><time>2026-03-22T14:36:36.124Z</time></trkpt><trkpt lat="45.5974679" lon="10.8211831"><ele>271.5</ele><time>2026-03-22T14:36:37.124Z</time></trkpt><trkpt lat="45.5975569" lon="10.8210485"><ele>271.0</ele><time>2026-03-22T14:36:38.124Z</time></trkpt><trkpt lat="45.5976396" lon="10.8209284"><ele>271.0</ele><time>2026-03-22T14:36:39.123Z</time></trkpt><trkpt lat="45.5977534" lon="10.8208038"><ele>271.0</ele><time>2026-03-22T14:36:40.125Z</time></trkpt><trkpt lat="45.5978528" lon="10.8206976"><ele>271.0</ele><time>2026-03-22T14:36:41.124Z</time></trkpt><trkpt lat="45.5979603" lon="10.8205741"><ele>271.0</ele><time>2026-03-22T14:36:42.124Z</time></trkpt><trkpt lat="45.5980752" lon="10.8204508"><ele>270.5</ele><time>2026-03-22T14:36:43.124Z</time></trkpt><trkpt lat="45.598182" lon="10.8203307"><ele>270.0</ele><time>2026-03-22T14:36:44.124Z</time></trkpt><trkpt lat="45.5982848" lon="10.8201975"><ele>269.5</ele><time>2026-03-22T14:36:45.124Z</time></trkpt><trkpt lat="45.5983691" lon="10.8200898"><ele>269.0</ele><time>2026-03-22T14:36:46.125Z</time></trkpt><trkpt lat="45.5984356" lon="10.8200044"><ele>269.0</ele><time>2026-03-22T14:36:47.124Z</time></trkpt><trkpt lat="45.598515" lon="10.8199205"><ele>269.0</ele><time>2026-03-22T14:36:48.124Z</time></trkpt><trkpt lat="45.5986185" lon="10.8198401"><ele>269.0</ele><time>2026-03-22T14:36:49.124Z</time></trkpt><trkpt lat="45.5987283" lon="10.8197626"><ele>269.0</ele><time>2026-03-22T14:36:50.125Z</time></trkpt><trkpt lat="45.5988453" lon="10.8196868"><ele>268.75</ele><time>2026-03-22T14:36:51.124Z</time></trkpt><trkpt lat="45.5989581" lon="10.8195961"><ele>268.5</ele><time>2026-03-22T14:36:52.124Z</time></trkpt><trkpt lat="45.5990974" lon="10.8194932"><ele>268.25</ele><time>2026-03-22T14:36:53.123Z</time></trkpt><trkpt lat="45.5991756" lon="10.8193948"><ele>268.0</ele><time>2026-03-22T14:36:54.124Z</time></trkpt><trkpt lat="45.5992674" lon="10.8193167"><ele>268.25</ele><time>2026-03-22T14:36:55.124Z</time></trkpt><trkpt lat="45.5993619" lon="10.8192548"><ele>268.5</ele><time>2026-03-22T14:36:56.125Z</time></trkpt><trkpt lat="45.5994895" lon="10.8192095"><ele>268.75</ele><time>2026-03-22T14:36:57.124Z</time></trkpt><trkpt lat="45.5996267" lon="10.8191904"><ele>269.0</ele><time>2026-03-22T14:36:58.124Z</time></trkpt><trkpt lat="45.5997617" lon="10.8191549"><ele>269.0</ele><time>2026-03-22T14:36:59.124Z</time></trkpt><trkpt lat="45.5999152" lon="10.8191332"><ele>269.0</ele><time>2026-03-22T14:37:00.124Z</time></trkpt><trkpt lat="45.6000597" lon="10.819109"><ele>269.0</ele><time>2026-03-22T14:37:01.123Z</time></trkpt><trkpt lat="45.6001949" lon="10.8190805"><ele>269.0</ele><time>2026-03-22T14:37:02.124Z</time></trkpt><trkpt lat="45.6003161" lon="10.8190489"><ele>268.8</ele><time>2026-03-22T14:37:03.123Z</time></trkpt><trkpt lat="45.6004243" lon="10.819013"><ele>268.59999999999997</ele><time>2026-03-22T14:37:04.124Z</time></trkpt><trkpt lat="45.6005115" lon="10.81898"><ele>268.4</ele><time>2026-03-22T14:37:05.124Z</time></trkpt><trkpt lat="45.6006022" lon="10.8189485"><ele>268.2</ele><time>2026-03-22T14:37:06.125Z</time></trkpt><trkpt lat="45.6006874" lon="10.8189188"><ele>268.0</ele><time>2026-03-22T14:37:07.123Z</time></trkpt><trkpt lat="45.6007704" lon="10.8188935"><ele>268.0</ele><time>2026-03-22T14:37:08.123Z</time></trkpt><trkpt lat="45.6008555" lon="10.8188583"><ele>268.0</ele><time>2026-03-22T14:37:09.124Z</time></trkpt><trkpt lat="45.6009417" lon="10.8188097"><ele>268.0</ele><time>2026-03-22T14:37:10.124Z</time></trkpt><trkpt lat="45.6010246" lon="10.8187503"><ele>268.0</ele><time>2026-03-22T14:37:11.124Z</time></trkpt><trkpt lat="45.6011123" lon="10.8186803"><ele>268.0</ele><time>2026-03-22T14:37:12.124Z</time></trkpt><trkpt lat="45.6012037" lon="10.8185499"><ele>267.75</ele><time>2026-03-22T14:37:13.124Z</time></trkpt><trkpt lat="45.6013152" lon="10.8184316"><ele>267.5</ele><time>2026-03-22T14:37:14.124Z</time></trkpt><trkpt lat="45.6014282" lon="10.8183213"><ele>267.25</ele><time>2026-03-22T14:37:15.124Z</time></trkpt><trkpt lat="45.6015319" lon="10.8182149"><ele>267.0</ele><time>2026-03-22T14:37:16.124Z</time></trkpt><trkpt lat="45.6016329" lon="10.818092"><ele>267.0</ele><time>2026-03-22T14:37:17.124Z</time></trkpt><trkpt lat="45.6017291" lon="10.8179723"><ele>267.0</ele><time>2026-03-22T14:37:18.124Z</time></trkpt><trkpt lat="45.6018147" lon="10.8178613"><ele>267.0</ele><time>2026-03-22T14:37:19.124Z</time></trkpt><trkpt lat="45.6018898" lon="10.8177624"><ele>267.0</ele><time>2026-03-22T14:37:20.125Z</time></trkpt><trkpt lat="45.6019527" lon="10.8176585"><ele>267.0</ele><time>2026-03-22T14:37:21.124Z</time></trkpt><trkpt lat="45.6020158" lon="10.8175349"><ele>267.0</ele><time>2026-03-22T14:37:22.125Z</time></trkpt><trkpt lat="45.6020765" lon="10.8174049"><ele>267.0</ele><time>2026-03-22T14:37:23.125Z</time></trkpt><trkpt lat="45.6021281" lon="10.8172829"><ele>267.0</ele><time>2026-03-22T14:37:24.123Z</time></trkpt><trkpt lat="45.6021713" lon="10.8171793"><ele>267.0</ele><time>2026-03-22T14:37:25.124Z</time></trkpt><trkpt lat="45.6022002" lon="10.8170612"><ele>267.0</ele><time>2026-03-22T14:37:26.123Z</time></trkpt><trkpt lat="45.6022027" lon="10.8169267"><ele>267.3333333333333</ele><time>2026-03-22T14:37:27.124Z</time></trkpt><trkpt lat="45.6021996" lon="10.8168083"><ele>267.6666666666667</ele><time>2026-03-22T14:37:28.125Z</time></trkpt><trkpt lat="45.6021852" lon="10.8167016"><ele>268.0</ele><time>2026-03-22T14:37:29.124Z</time></trkpt><trkpt lat="45.6021654" lon="10.8165976"><ele>268.33333333333337</ele><time>2026-03-22T14:37:30.125Z</time></trkpt><trkpt lat="45.6022072" lon="10.8164275"><ele>268.6666666666667</ele><time>2026-03-22T14:37:32.124Z</time></trkpt><trkpt lat="45.6022339" lon="10.8163426"><ele>269.0</ele><time>2026-03-22T14:37:33.123Z</time></trkpt><trkpt lat="45.6023164" lon="10.8162274"><ele>269.0</ele><time>2026-03-22T14:37:35.124Z</time></trkpt><trkpt lat="45.6023964" lon="10.8161655"><ele>269.0</ele><time>2026-03-22T14:37:36.126Z</time></trkpt><trkpt lat="45.6024807" lon="10.8161401"><ele>269.0</ele><time>2026-03-22T14:37:37.124Z</time></trkpt><trkpt lat="45.6025777" lon="10.8160876"><ele>269.0</ele><time>2026-03-22T14:37:38.124Z</time></trkpt><trkpt lat="45.6026664" lon="10.8160547"><ele>269.0</ele><time>2026-03-22T14:37:39.124Z</time></trkpt><trkpt lat="45.6027308" lon="10.8160264"><ele>269.0</ele><time>2026-03-22T14:37:40.124Z</time></trkpt><trkpt lat="45.6028272" lon="10.8159727"><ele>268.6666666666667</ele><time>2026-03-22T14:37:42.124Z</time></trkpt><trkpt lat="45.6028957" lon="10.815884"><ele>268.33333333333337</ele><time>2026-03-22T14:37:44.124Z</time></trkpt><trkpt lat="45.6029382" lon="10.8158036"><ele>268.0</ele><time>2026-03-22T14:37:45.123Z</time></trkpt><trkpt lat="45.6029791" lon="10.8157145"><ele>267.6666666666667</ele><time>2026-03-22T14:37:46.124Z</time></trkpt><trkpt lat="45.6030126" lon="10.8156374"><ele>267.3333333333333</ele><time>2026-03-22T14:37:47.124Z</time></trkpt><trkpt lat="45.6030495" lon="10.815536"><ele>267.0</ele><time>2026-03-22T14:37:49.125Z</time></trkpt><trkpt lat="45.6031377" lon="10.8154645"><ele>267.0</ele><time>2026-03-22T14:37:53.124Z</time></trkpt><trkpt lat="45.6032107" lon="10.8154631"><ele>267.0</ele><time>2026-03-22T14:37:54.124Z</time></trkpt><trkpt lat="45.603304" lon="10.8154856"><ele>267.0</ele><time>2026-03-22T14:37:55.125Z</time></trkpt><trkpt lat="45.6034026" lon="10.8155213"><ele>267.0</ele><time>2026-03-22T14:37:56.124Z</time></trkpt><trkpt lat="45.603517" lon="10.815572"><ele>267.0</ele><time>2026-03-22T14:37:57.124Z</time></trkpt><trkpt lat="45.6036329" lon="10.8156222"><ele>267.0</ele><time>2026-03-22T14:37:58.125Z</time></trkpt><trkpt lat="45.6037561" lon="10.8156689"><ele>267.0</ele><time>2026-03-22T14:37:59.125Z</time></trkpt><trkpt lat="45.6038841" lon="10.815722"><ele>267.0</ele><time>2026-03-22T14:38:00.124Z</time></trkpt><trkpt lat="45.6040027" lon="10.8157654"><ele>267.0</ele><time>2026-03-22T14:38:01.124Z</time></trkpt><trkpt lat="45.6041101" lon="10.8158035"><ele>267.0</ele><time>2026-03-22T14:38:02.124Z</time></trkpt><trkpt lat="45.6042077" lon="10.8158302"><ele>267.0</ele><time>2026-03-22T14:38:03.125Z</time></trkpt><trkpt lat="45.6042977" lon="10.8158394"><ele>267.0</ele><time>2026-03-22T14:38:04.124Z</time></trkpt><trkpt lat="45.6043757" lon="10.8158558"><ele>267.0</ele><time>2026-03-22T14:38:05.123Z</time></trkpt><trkpt lat="45.6044433" lon="10.815871"><ele>267.0</ele><time>2026-03-22T14:38:06.124Z</time></trkpt><trkpt lat="45.6045482" lon="10.8158948"><ele>267.0</ele><time>2026-03-22T14:38:08.124Z</time></trkpt><trkpt lat="45.6046158" lon="10.8159143"><ele>267.6</ele><time>2026-03-22T14:38:10.124Z</time></trkpt><trkpt lat="45.6046553" lon="10.8158289"><ele>268.2</ele><time>2026-03-22T14:38:13.124Z</time></trkpt><trkpt lat="45.6046535" lon="10.8156383"><ele>268.8</ele><time>2026-03-22T14:38:15.124Z</time></trkpt><trkpt lat="45.6046596" lon="10.8155034"><ele>269.4</ele><time>2026-03-22T14:38:16.124Z</time></trkpt><trkpt lat="45.604673" lon="10.8153544"><ele>270.0</ele><time>2026-03-22T14:38:17.124Z</time></trkpt><trkpt lat="45.6047009" lon="10.8151814"><ele>269.6666666666667</ele><time>2026-03-22T14:38:18.124Z</time></trkpt><trkpt lat="45.604738" lon="10.8149815"><ele>269.33333333333337</ele><time>2026-03-22T14:38:19.124Z</time></trkpt><trkpt lat="45.6047841" lon="10.8147703"><ele>269.0</ele><time>2026-03-22T14:38:20.124Z</time></trkpt><trkpt lat="45.6048266" lon="10.8145617"><ele>269.0</ele><time>2026-03-22T14:38:21.123Z</time></trkpt><trkpt lat="45.6048821" lon="10.8143411"><ele>269.0</ele><time>2026-03-22T14:38:22.124Z</time></trkpt><trkpt lat="45.6049225" lon="10.8141417"><ele>269.0</ele><time>2026-03-22T14:38:23.124Z</time></trkpt><trkpt lat="45.6049772" lon="10.813929"><ele>268.6666666666667</ele><time>2026-03-22T14:38:24.125Z</time></trkpt><trkpt lat="45.6050354" lon="10.8137129"><ele>268.3333333333333</ele><time>2026-03-22T14:38:25.123Z</time></trkpt><trkpt lat="45.6050874" lon="10.8135215"><ele>268.0</ele><time>2026-03-22T14:38:26.124Z</time></trkpt><trkpt lat="45.6051627" lon="10.8133024"><ele>268.0</ele><time>2026-03-22T14:38:27.125Z</time></trkpt><trkpt lat="45.6052248" lon="10.8131035"><ele>268.0</ele><time>2026-03-22T14:38:28.123Z</time></trkpt><trkpt lat="45.6052855" lon="10.8129405"><ele>268.0</ele><time>2026-03-22T14:38:29.124Z</time></trkpt><trkpt lat="45.605334" lon="10.8128094"><ele>268.0</ele><time>2026-03-22T14:38:30.125Z</time></trkpt><trkpt lat="45.605381" lon="10.8127093"><ele>268.4</ele><time>2026-03-22T14:38:31.124Z</time></trkpt><trkpt lat="45.605455" lon="10.8126225"><ele>268.8</ele><time>2026-03-22T14:38:33.124Z</time></trkpt><trkpt lat="45.6055314" lon="10.8125006"><ele>269.2</ele><time>2026-03-22T14:38:35.124Z</time></trkpt><trkpt lat="45.6055741" lon="10.8123379"><ele>269.6</ele><time>2026-03-22T14:38:37.124Z</time></trkpt><trkpt lat="45.6055964" lon="10.8122246"><ele>270.0</ele><time>2026-03-22T14:38:38.123Z</time></trkpt><trkpt lat="45.6056188" lon="10.8120696"><ele>270.0</ele><time>2026-03-22T14:38:39.123Z</time></trkpt><trkpt lat="45.6056475" lon="10.8119416"><ele>270.0</ele><time>2026-03-22T14:38:40.124Z</time></trkpt><trkpt lat="45.6056855" lon="10.8118178"><ele>270.0</ele><time>2026-03-22T14:38:41.124Z</time></trkpt><trkpt lat="45.6057441" lon="10.8116886"><ele>270.0</ele><time>2026-03-22T14:38:42.124Z</time></trkpt><trkpt lat="45.6058301" lon="10.8115481"><ele>270.0</ele><time>2026-03-22T14:38:43.125Z</time></trkpt><trkpt lat="45.6059203" lon="10.8114059"><ele>269.75</ele><time>2026-03-22T14:38:44.124Z</time></trkpt><trkpt lat="45.6060094" lon="10.8112678"><ele>269.5</ele><time>2026-03-22T14:38:45.124Z</time></trkpt><trkpt lat="45.6060886" lon="10.8111456"><ele>269.25</ele><time>2026-03-22T14:38:46.124Z</time></trkpt><trkpt lat="45.6061658" lon="10.8110232"><ele>269.0</ele><time>2026-03-22T14:38:47.124Z</time></trkpt><trkpt lat="45.6062406" lon="10.8108823"><ele>268.83333333333337</ele><time>2026-03-22T14:38:48.124Z</time></trkpt><trkpt lat="45.606304" lon="10.810758"><ele>268.6666666666667</ele><time>2026-03-22T14:38:49.124Z</time></trkpt><trkpt lat="45.6063631" lon="10.8106447"><ele>268.5</ele><time>2026-03-22T14:38:50.125Z</time></trkpt><trkpt lat="45.6064157" lon="10.810543"><ele>268.3333333333333</ele><time>2026-03-22T14:38:51.124Z</time></trkpt><trkpt lat="45.6064562" lon="10.8104554"><ele>268.16666666666663</ele><time>2026-03-22T14:38:52.124Z</time></trkpt><trkpt lat="45.6064913" lon="10.8103767"><ele>268.0</ele><time>2026-03-22T14:38:53.124Z</time></trkpt><trkpt lat="45.6065251" lon="10.8102931"><ele>268.0</ele><time>2026-03-22T14:38:54.125Z</time></trkpt><trkpt lat="45.6065746" lon="10.8102159"><ele>268.0</ele><time>2026-03-22T14:38:55.124Z</time></trkpt><trkpt lat="45.6066393" lon="10.8101577"><ele>268.0</ele><time>2026-03-22T14:38:56.124Z</time></trkpt><trkpt lat="45.6067185" lon="10.8101131"><ele>268.0</ele><time>2026-03-22T14:38:57.124Z</time></trkpt><trkpt lat="45.6067833" lon="10.8100768"><ele>268.0</ele><time>2026-03-22T14:38:58.124Z</time></trkpt><trkpt lat="45.6068566" lon="10.8100305"><ele>268.0</ele><time>2026-03-22T14:38:59.124Z</time></trkpt><trkpt lat="45.6069212" lon="10.809981"><ele>267.8</ele><time>2026-03-22T14:39:00.124Z</time></trkpt><trkpt lat="45.6069843" lon="10.8099336"><ele>267.6</ele><time>2026-03-22T14:39:01.124Z</time></trkpt><trkpt lat="45.6070755" lon="10.8098092"><ele>267.4</ele><time>2026-03-22T14:39:03.124Z</time></trkpt><trkpt lat="45.6071237" lon="10.8097283"><ele>267.2</ele><time>2026-03-22T14:39:04.124Z</time></trkpt><trkpt lat="45.607202" lon="10.8095883"><ele>267.0</ele><time>2026-03-22T14:39:06.125Z</time></trkpt><trkpt lat="45.607252" lon="10.8094748"><ele>268.0</ele><time>2026-03-22T14:39:07.124Z</time></trkpt><trkpt lat="45.6073095" lon="10.8093709"><ele>269.0</ele><time>2026-03-22T14:39:08.124Z</time></trkpt><trkpt lat="45.6073843" lon="10.8092635"><ele>270.0</ele><time>2026-03-22T14:39:09.125Z</time></trkpt><trkpt lat="45.6074711" lon="10.8092057"><ele>271.0</ele><time>2026-03-22T14:39:10.125Z</time></trkpt><trkpt lat="45.6075894" lon="10.8091521"><ele>272.0</ele><time>2026-03-22T14:39:11.124Z</time></trkpt><trkpt lat="45.6077277" lon="10.8091108"><ele>273.33333333333337</ele><time>2026-03-22T14:39:12.124Z</time></trkpt><trkpt lat="45.6078905" lon="10.8090979"><ele>274.6666666666667</ele><time>2026-03-22T14:39:13.124Z</time></trkpt><trkpt lat="45.6080691" lon="10.8090713"><ele>276.0</ele><time>2026-03-22T14:39:14.122Z</time></trkpt><trkpt lat="45.6082305" lon="10.8090463"><ele>276.0</ele><time>2026-03-22T14:39:15.123Z</time></trkpt><trkpt lat="45.6083699" lon="10.8090292"><ele>276.0</ele><time>2026-03-22T14:39:16.124Z</time></trkpt><trkpt lat="45.6084924" lon="10.8090153"><ele>276.0</ele><time>2026-03-22T14:39:17.124Z</time></trkpt><trkpt lat="45.6085931" lon="10.8090144"><ele>276.0</ele><time>2026-03-22T14:39:18.124Z</time></trkpt><trkpt lat="45.6086761" lon="10.80902"><ele>276.0</ele><time>2026-03-22T14:39:19.123Z</time></trkpt><trkpt lat="45.60878" lon="10.8089918"><ele>276.8333333333333</ele><time>2026-03-22T14:39:21.124Z</time></trkpt><trkpt lat="45.6088633" lon="10.8090086"><ele>277.6666666666667</ele><time>2026-03-22T14:39:28.124Z</time></trkpt><trkpt lat="45.6089365" lon="10.809105"><ele>278.5</ele><time>2026-03-22T14:39:30.123Z</time></trkpt><trkpt lat="45.6089773" lon="10.8091928"><ele>279.33333333333337</ele><time>2026-03-22T14:39:31.124Z</time></trkpt><trkpt lat="45.6090214" lon="10.8092837"><ele>280.1666666666667</ele><time>2026-03-22T14:39:32.124Z</time></trkpt><trkpt lat="45.6090786" lon="10.809396"><ele>281.0</ele><time>2026-03-22T14:39:33.124Z</time></trkpt><trkpt lat="45.6091411" lon="10.8095228"><ele>281.0</ele><time>2026-03-22T14:39:34.124Z</time></trkpt><trkpt lat="45.609212" lon="10.8096663"><ele>281.0</ele><time>2026-03-22T14:39:35.124Z</time></trkpt><trkpt lat="45.6092861" lon="10.8098152"><ele>281.0</ele><time>2026-03-22T14:39:36.123Z</time></trkpt><trkpt lat="45.6093639" lon="10.8099762"><ele>281.0</ele><time>2026-03-22T14:39:37.125Z</time></trkpt><trkpt lat="45.6094477" lon="10.8101558"><ele>282.33333333333337</ele><time>2026-03-22T14:39:38.124Z</time></trkpt><trkpt lat="45.609533" lon="10.8103326"><ele>283.6666666666667</ele><time>2026-03-22T14:39:39.124Z</time></trkpt><trkpt lat="45.6096242" lon="10.8105218"><ele>285.0</ele><time>2026-03-22T14:39:40.125Z</time></trkpt><trkpt lat="45.6097245" lon="10.8107159"><ele>285.0</ele><time>2026-03-22T14:39:41.123Z</time></trkpt><trkpt lat="45.6098265" lon="10.8109028"><ele>285.0</ele><time>2026-03-22T14:39:42.124Z</time></trkpt><trkpt lat="45.6099164" lon="10.81105"><ele>285.0</ele><time>2026-03-22T14:39:43.124Z</time></trkpt><trkpt lat="45.6100052" lon="10.8111752"><ele>285.0</ele><time>2026-03-22T14:39:44.124Z</time></trkpt><trkpt lat="45.6100888" lon="10.8113157"><ele>285.75</ele><time>2026-03-22T14:39:45.124Z</time></trkpt><trkpt lat="45.6101844" lon="10.8114615"><ele>286.5</ele><time>2026-03-22T14:39:46.124Z</time></trkpt><trkpt lat="45.6102835" lon="10.8116257"><ele>287.25</ele><time>2026-03-22T14:39:47.124Z</time></trkpt><trkpt lat="45.6103717" lon="10.8118007"><ele>288.0</ele><time>2026-03-22T14:39:48.123Z</time></trkpt><trkpt lat="45.6104386" lon="10.8119724"><ele>288.25</ele><time>2026-03-22T14:39:49.124Z</time></trkpt><trkpt lat="45.6104759" lon="10.8121512"><ele>288.5</ele><time>2026-03-22T14:39:50.125Z</time></trkpt><trkpt lat="45.6104946" lon="10.8123613"><ele>288.75</ele><time>2026-03-22T14:39:51.123Z</time></trkpt><trkpt lat="45.6105114" lon="10.8125842"><ele>289.0</ele><time>2026-03-22T14:39:52.123Z</time></trkpt><trkpt lat="45.6105274" lon="10.8128203"><ele>289.0</ele><time>2026-03-22T14:39:53.124Z</time></trkpt><trkpt lat="45.6105414" lon="10.8130672"><ele>289.0</ele><time>2026-03-22T14:39:54.124Z</time></trkpt><trkpt lat="45.6105422" lon="10.8133132"><ele>289.0</ele><time>2026-03-22T14:39:55.123Z</time></trkpt><trkpt lat="45.6105406" lon="10.8135549"><ele>289.25</ele><time>2026-03-22T14:39:56.124Z</time></trkpt><trkpt lat="45.6105421" lon="10.8137609"><ele>289.5</ele><time>2026-03-22T14:39:57.124Z</time></trkpt><trkpt lat="45.6105373" lon="10.8139602"><ele>289.75</ele><time>2026-03-22T14:39:58.123Z</time></trkpt><trkpt lat="45.6105351" lon="10.8141336"><ele>290.0</ele><time>2026-03-22T14:39:59.124Z</time></trkpt><trkpt lat="45.6105396" lon="10.8142971"><ele>290.4</ele><time>2026-03-22T14:40:00.124Z</time></trkpt><trkpt lat="45.6105303" lon="10.8144511"><ele>290.8</ele><time>2026-03-22T14:40:01.124Z</time></trkpt><trkpt lat="45.6105192" lon="10.814599"><ele>291.2</ele><time>2026-03-22T14:40:02.124Z</time></trkpt><trkpt lat="45.6104993" lon="10.8147291"><ele>291.6</ele><time>2026-03-22T14:40:03.125Z</time></trkpt><trkpt lat="45.6104821" lon="10.8148531"><ele>292.0</ele><time>2026-03-22T14:40:04.124Z</time></trkpt><trkpt lat="45.6104337" lon="10.814947"><ele>292.0</ele><time>2026-03-22T14:40:05.123Z</time></trkpt><trkpt lat="45.6103826" lon="10.8150331"><ele>292.0</ele><time>2026-03-22T14:40:06.124Z</time></trkpt><trkpt lat="45.6103378" lon="10.8151178"><ele>292.0</ele><time>2026-03-22T14:40:07.123Z</time></trkpt><trkpt lat="45.6102977" lon="10.8151954"><ele>292.0</ele><time>2026-03-22T14:40:08.124Z</time></trkpt><trkpt lat="45.6102608" lon="10.8152834"><ele>292.0</ele><time>2026-03-22T14:40:09.124Z</time></trkpt><trkpt lat="45.6102301" lon="10.8154503"><ele>292.0</ele><time>2026-03-22T14:40:11.123Z</time></trkpt><trkpt lat="45.6102371" lon="10.8155487"><ele>292.3333333333333</ele><time>2026-03-22T14:40:12.124Z</time></trkpt><trkpt lat="45.6102312" lon="10.8156831"><ele>292.66666666666663</ele><time>2026-03-22T14:40:14.124Z</time></trkpt><trkpt lat="45.6102428" lon="10.8158046"><ele>293.0</ele><time>2026-03-22T14:40:17.125Z</time></trkpt><trkpt lat="45.6102702" lon="10.815921"><ele>293.3333333333333</ele><time>2026-03-22T14:40:19.124Z</time></trkpt><trkpt lat="45.610339" lon="10.8160397"><ele>293.6666666666667</ele><time>2026-03-22T14:40:21.124Z</time></trkpt><trkpt lat="45.6103815" lon="10.8161128"><ele>294.0</ele><time>2026-03-22T14:40:22.125Z</time></trkpt><trkpt lat="45.6104175" lon="10.8161896"><ele>294.0</ele><time>2026-03-22T14:40:23.124Z</time></trkpt><trkpt lat="45.6104684" lon="10.8163432"><ele>294.0</ele><time>2026-03-22T14:40:25.124Z</time></trkpt><trkpt lat="45.6105225" lon="10.8164933"><ele>294.0</ele><time>2026-03-22T14:40:27.124Z</time></trkpt><trkpt lat="45.6106154" lon="10.8165934"><ele>294.0</ele><time>2026-03-22T14:40:29.124Z</time></trkpt><trkpt lat="45.6107336" lon="10.8166516"><ele>294.0</ele><time>2026-03-22T14:40:31.124Z</time></trkpt><trkpt lat="45.610833" lon="10.8167097"><ele>294.0</ele><time>2026-03-22T14:40:33.124Z</time></trkpt><trkpt lat="45.6108915" lon="10.8167543"><ele>294.0</ele><time>2026-03-22T14:40:36.124Z</time></trkpt><trkpt lat="45.6109476" lon="10.8168088"><ele>294.0</ele><time>2026-03-22T14:40:38.124Z</time></trkpt><trkpt lat="45.6110105" lon="10.8168802"><ele>294.0</ele><time>2026-03-22T14:40:40.125Z</time></trkpt><trkpt lat="45.6110482" lon="10.8169554"><ele>294.0</ele><time>2026-03-22T14:40:43.124Z</time></trkpt><trkpt lat="45.611092" lon="10.8170417"><ele>295.0</ele><time>2026-03-22T14:40:48.124Z</time></trkpt><trkpt lat="45.6111443" lon="10.8171508"><ele>296.0</ele><time>2026-03-22T14:40:50.124Z</time></trkpt><trkpt lat="45.6111971" lon="10.8172481"><ele>297.0</ele><time>2026-03-22T14:40:52.125Z</time></trkpt><trkpt lat="45.6112628" lon="10.8173354"><ele>298.0</ele><time>2026-03-22T14:40:54.124Z</time></trkpt><trkpt lat="45.6113363" lon="10.8174216"><ele>299.0</ele><time>2026-03-22T14:40:56.124Z</time></trkpt><trkpt lat="45.6114104" lon="10.8175434"><ele>300.59999999999997</ele><time>2026-03-22T14:40:58.125Z</time></trkpt><trkpt lat="45.6114643" lon="10.8176535"><ele>302.2</ele><time>2026-03-22T14:41:00.124Z</time></trkpt><trkpt lat="45.6115245" lon="10.8177886"><ele>303.79999999999995</ele><time>2026-03-22T14:41:02.124Z</time></trkpt><trkpt lat="45.6115803" lon="10.8179244"><ele>305.4</ele><time>2026-03-22T14:41:04.124Z</time></trkpt><trkpt lat="45.6116288" lon="10.8180622"><ele>307.0</ele><time>2026-03-22T14:41:06.124Z</time></trkpt><trkpt lat="45.6117127" lon="10.8182257"><ele>307.0</ele><time>2026-03-22T14:41:08.124Z</time></trkpt><trkpt lat="45.6117642" lon="10.818279"><ele>307.0</ele><time>2026-03-22T14:41:09.124Z</time></trkpt><trkpt lat="45.6118244" lon="10.8183281"><ele>307.0</ele><time>2026-03-22T14:41:10.125Z</time></trkpt><trkpt lat="45.6119" lon="10.8183903"><ele>307.0</ele><time>2026-03-22T14:41:11.124Z</time></trkpt><trkpt lat="45.6119744" lon="10.8184511"><ele>307.0</ele><time>2026-03-22T14:41:12.125Z</time></trkpt><trkpt lat="45.6120677" lon="10.818542"><ele>307.0</ele><time>2026-03-22T14:41:13.125Z</time></trkpt><trkpt lat="45.6121717" lon="10.8186774"><ele>308.25</ele><time>2026-03-22T14:41:14.125Z</time></trkpt><trkpt lat="45.6122649" lon="10.8188192"><ele>309.5</ele><time>2026-03-22T14:41:15.123Z</time></trkpt><trkpt lat="45.612361" lon="10.8189384"><ele>310.75</ele><time>2026-03-22T14:41:16.125Z</time></trkpt><trkpt lat="45.6124401" lon="10.8190691"><ele>312.0</ele><time>2026-03-22T14:41:17.124Z</time></trkpt><trkpt lat="45.6125277" lon="10.8191847"><ele>312.0</ele><time>2026-03-22T14:41:18.124Z</time></trkpt><trkpt lat="45.612614" lon="10.8192649"><ele>312.0</ele><time>2026-03-22T14:41:19.125Z</time></trkpt><trkpt lat="45.6127216" lon="10.8193433"><ele>312.0</ele><time>2026-03-22T14:41:20.125Z</time></trkpt><trkpt lat="45.6128467" lon="10.8194343"><ele>312.0</ele><time>2026-03-22T14:41:21.125Z</time></trkpt><trkpt lat="45.6129689" lon="10.8195135"><ele>313.75</ele><time>2026-03-22T14:41:22.124Z</time></trkpt><trkpt lat="45.6130845" lon="10.8195881"><ele>315.5</ele><time>2026-03-22T14:41:23.124Z</time></trkpt><trkpt lat="45.6131974" lon="10.8196377"><ele>317.25</ele><time>2026-03-22T14:41:24.125Z</time></trkpt><trkpt lat="45.6133295" lon="10.8196482"><ele>319.0</ele><time>2026-03-22T14:41:25.125Z</time></trkpt><trkpt lat="45.6134706" lon="10.8196521"><ele>319.0</ele><time>2026-03-22T14:41:26.124Z</time></trkpt><trkpt lat="45.6135961" lon="10.8196325"><ele>319.0</ele><time>2026-03-22T14:41:27.122Z</time></trkpt><trkpt lat="45.6137245" lon="10.8196041"><ele>319.0</ele><time>2026-03-22T14:41:28.123Z</time></trkpt><trkpt lat="45.6138742" lon="10.8195732"><ele>319.0</ele><time>2026-03-22T14:41:29.124Z</time></trkpt><trkpt lat="45.6140256" lon="10.8195227"><ele>319.75</ele><time>2026-03-22T14:41:30.125Z</time></trkpt><trkpt lat="45.6141563" lon="10.8194684"><ele>320.5</ele><time>2026-03-22T14:41:31.124Z</time></trkpt><trkpt lat="45.6142965" lon="10.8194133"><ele>321.25</ele><time>2026-03-22T14:41:32.124Z</time></trkpt><trkpt lat="45.6144141" lon="10.8193652"><ele>322.0</ele><time>2026-03-22T14:41:33.124Z</time></trkpt><trkpt lat="45.6145153" lon="10.8193044"><ele>323.5</ele><time>2026-03-22T14:41:34.125Z</time></trkpt><trkpt lat="45.6146195" lon="10.8192239"><ele>325.0</ele><time>2026-03-22T14:41:35.125Z</time></trkpt><trkpt lat="45.6147184" lon="10.8191085"><ele>326.5</ele><time>2026-03-22T14:41:36.124Z</time></trkpt><trkpt lat="45.6147955" lon="10.8189961"><ele>328.0</ele><time>2026-03-22T14:41:37.124Z</time></trkpt><trkpt lat="45.6148738" lon="10.8189174"><ele>328.0</ele><time>2026-03-22T14:41:38.124Z</time></trkpt><trkpt lat="45.6149494" lon="10.8188718"><ele>328.0</ele><time>2026-03-22T14:41:39.125Z</time></trkpt><trkpt lat="45.615036" lon="10.8188688"><ele>328.0</ele><time>2026-03-22T14:41:40.125Z</time></trkpt><trkpt lat="45.615122" lon="10.8188982"><ele>328.0</ele><time>2026-03-22T14:41:41.124Z</time></trkpt><trkpt lat="45.6152084" lon="10.8189449"><ele>328.0</ele><time>2026-03-22T14:41:42.124Z</time></trkpt><trkpt lat="45.6153112" lon="10.818983"><ele>329.75</ele><time>2026-03-22T14:41:43.124Z</time></trkpt><trkpt lat="45.6154231" lon="10.8190094"><ele>331.5</ele><time>2026-03-22T14:41:44.124Z</time></trkpt><trkpt lat="45.6155745" lon="10.8190193"><ele>333.25</ele><time>2026-03-22T14:41:45.124Z</time></trkpt><trkpt lat="45.6157181" lon="10.8190484"><ele>335.0</ele><time>2026-03-22T14:41:46.125Z</time></trkpt><trkpt lat="45.6158799" lon="10.8190589"><ele>335.0</ele><time>2026-03-22T14:41:47.125Z</time></trkpt><trkpt lat="45.6160281" lon="10.8190706"><ele>335.0</ele><time>2026-03-22T14:41:48.125Z</time></trkpt><trkpt lat="45.6161603" lon="10.8190815"><ele>335.0</ele><time>2026-03-22T14:41:49.124Z</time></trkpt><trkpt lat="45.616274" lon="10.8190762"><ele>335.0</ele><time>2026-03-22T14:41:50.126Z</time></trkpt><trkpt lat="45.6163747" lon="10.8190547"><ele>337.33333333333337</ele><time>2026-03-22T14:41:51.124Z</time></trkpt><trkpt lat="45.6164577" lon="10.8190299"><ele>339.6666666666667</ele><time>2026-03-22T14:41:52.125Z</time></trkpt><trkpt lat="45.6165275" lon="10.8190129"><ele>342.0</ele><time>2026-03-22T14:41:53.124Z</time></trkpt><trkpt lat="45.6166088" lon="10.8190021"><ele>344.3333333333333</ele><time>2026-03-22T14:41:55.125Z</time></trkpt><trkpt lat="45.6166965" lon="10.8190607"><ele>346.66666666666663</ele><time>2026-03-22T14:41:58.124Z</time></trkpt><trkpt lat="45.6167655" lon="10.8191877"><ele>349.0</ele><time>2026-03-22T14:42:00.124Z</time></trkpt><trkpt lat="45.616798" lon="10.8192689"><ele>348.4</ele><time>2026-03-22T14:42:01.125Z</time></trkpt><trkpt lat="45.6168453" lon="10.819363"><ele>347.79999999999995</ele><time>2026-03-22T14:42:02.124Z</time></trkpt><trkpt lat="45.6168933" lon="10.8194793"><ele>347.20000000000005</ele><time>2026-03-22T14:42:03.124Z</time></trkpt><trkpt lat="45.6169445" lon="10.819602"><ele>346.6</ele><time>2026-03-22T14:42:04.124Z</time></trkpt><trkpt lat="45.6169998" lon="10.8197239"><ele>346.0</ele><time>2026-03-22T14:42:05.124Z</time></trkpt><trkpt lat="45.6170483" lon="10.8198533"><ele>350.25</ele><time>2026-03-22T14:42:06.124Z</time></trkpt><trkpt lat="45.617094" lon="10.8199992"><ele>354.5</ele><time>2026-03-22T14:42:07.123Z</time></trkpt><trkpt lat="45.6171446" lon="10.8201601"><ele>358.75</ele><time>2026-03-22T14:42:08.124Z</time></trkpt><trkpt lat="45.6171882" lon="10.8203229"><ele>363.0</ele><time>2026-03-22T14:42:09.123Z</time></trkpt><trkpt lat="45.6172327" lon="10.8204897"><ele>363.0</ele><time>2026-03-22T14:42:10.125Z</time></trkpt><trkpt lat="45.6172779" lon="10.8206616"><ele>363.0</ele><time>2026-03-22T14:42:11.125Z</time></trkpt><trkpt lat="45.6173175" lon="10.8208448"><ele>363.0</ele><time>2026-03-22T14:42:12.124Z</time></trkpt><trkpt lat="45.6173514" lon="10.8210298"><ele>363.0</ele><time>2026-03-22T14:42:13.125Z</time></trkpt><trkpt lat="45.617383" lon="10.8212168"><ele>362.75</ele><time>2026-03-22T14:42:14.124Z</time></trkpt><trkpt lat="45.6174199" lon="10.8214147"><ele>362.5</ele><time>2026-03-22T14:42:15.124Z</time></trkpt><trkpt lat="45.6174544" lon="10.821604"><ele>362.25</ele><time>2026-03-22T14:42:16.125Z</time></trkpt><trkpt lat="45.6174971" lon="10.8218058"><ele>362.0</ele><time>2026-03-22T14:42:17.124Z</time></trkpt><trkpt lat="45.6175505" lon="10.8219792"><ele>362.0</ele><time>2026-03-22T14:42:18.124Z</time></trkpt><trkpt lat="45.6176197" lon="10.8221443"><ele>362.0</ele><time>2026-03-22T14:42:19.125Z</time></trkpt><trkpt lat="45.6176959" lon="10.8223174"><ele>362.0</ele><time>2026-03-22T14:42:20.125Z</time></trkpt><trkpt lat="45.6177767" lon="10.8224922"><ele>362.0</ele><time>2026-03-22T14:42:21.124Z</time></trkpt><trkpt lat="45.6178538" lon="10.822672"><ele>368.0</ele><time>2026-03-22T14:42:22.124Z</time></trkpt><trkpt lat="45.6179325" lon="10.8228745"><ele>374.0</ele><time>2026-03-22T14:42:23.124Z</time></trkpt><trkpt lat="45.6179653" lon="10.8231207"><ele>380.0</ele><time>2026-03-22T14:42:24.123Z</time></trkpt><trkpt lat="45.6180055" lon="10.8233558"><ele>380.75</ele><time>2026-03-22T14:42:25.124Z</time></trkpt><trkpt lat="45.6180367" lon="10.8235735"><ele>381.5</ele><time>2026-03-22T14:42:26.124Z</time></trkpt><trkpt lat="45.6180641" lon="10.8237726"><ele>382.25</ele><time>2026-03-22T14:42:27.125Z</time></trkpt><trkpt lat="45.6180851" lon="10.8239229"><ele>383.0</ele><time>2026-03-22T14:42:28.124Z</time></trkpt><trkpt lat="45.6181287" lon="10.8240807"><ele>383.0</ele><time>2026-03-22T14:42:29.124Z</time></trkpt><trkpt lat="45.6181982" lon="10.824183"><ele>383.0</ele><time>2026-03-22T14:42:30.124Z</time></trkpt><trkpt lat="45.6183007" lon="10.824246"><ele>383.0</ele><time>2026-03-22T14:42:31.125Z</time></trkpt><trkpt lat="45.6184141" lon="10.8242643"><ele>383.0</ele><time>2026-03-22T14:42:32.124Z</time></trkpt><trkpt lat="45.6185079" lon="10.824191"><ele>383.0</ele><time>2026-03-22T14:42:33.125Z</time></trkpt><trkpt lat="45.6185894" lon="10.824071"><ele>383.0</ele><time>2026-03-22T14:42:34.125Z</time></trkpt><trkpt lat="45.6186326" lon="10.8238999"><ele>383.0</ele><time>2026-03-22T14:42:35.125Z</time></trkpt><trkpt lat="45.6186434" lon="10.8236921"><ele>383.0</ele><time>2026-03-22T14:42:36.124Z</time></trkpt><trkpt lat="45.6186269" lon="10.8234676"><ele>383.0</ele><time>2026-03-22T14:42:37.124Z</time></trkpt><trkpt lat="45.618615" lon="10.8232249"><ele>383.33333333333337</ele><time>2026-03-22T14:42:38.125Z</time></trkpt><trkpt lat="45.6186002" lon="10.8229323"><ele>383.6666666666667</ele><time>2026-03-22T14:42:39.123Z</time></trkpt><trkpt lat="45.6185802" lon="10.8226216"><ele>384.0</ele><time>2026-03-22T14:42:40.124Z</time></trkpt><trkpt lat="45.6185707" lon="10.8222854"><ele>384.0</ele><time>2026-03-22T14:42:41.124Z</time></trkpt><trkpt lat="45.6185578" lon="10.8219304"><ele>384.0</ele><time>2026-03-22T14:42:42.125Z</time></trkpt><trkpt lat="45.618551" lon="10.8215673"><ele>385.66666666666663</ele><time>2026-03-22T14:42:43.125Z</time></trkpt><trkpt lat="45.6185502" lon="10.8212341"><ele>387.3333333333333</ele><time>2026-03-22T14:42:44.125Z</time></trkpt><trkpt lat="45.6185446" lon="10.8209447"><ele>389.0</ele><time>2026-03-22T14:42:45.123Z</time></trkpt><trkpt lat="45.6185482" lon="10.8206812"><ele>390.0</ele><time>2026-03-22T14:42:46.125Z</time></trkpt><trkpt lat="45.6185433" lon="10.8204519"><ele>391.0</ele><time>2026-03-22T14:42:47.124Z</time></trkpt><trkpt lat="45.6185444" lon="10.8202537"><ele>392.0</ele><time>2026-03-22T14:42:48.125Z</time></trkpt><trkpt lat="45.6185486" lon="10.8200702"><ele>393.0</ele><time>2026-03-22T14:42:49.125Z</time></trkpt><trkpt lat="45.6185719" lon="10.8199098"><ele>393.0</ele><time>2026-03-22T14:42:50.124Z</time></trkpt><trkpt lat="45.6186335" lon="10.8197688"><ele>393.0</ele><time>2026-03-22T14:42:51.125Z</time></trkpt><trkpt lat="45.6187363" lon="10.8196843"><ele>393.0</ele><time>2026-03-22T14:42:52.124Z</time></trkpt><trkpt lat="45.6188559" lon="10.8196768"><ele>393.0</ele><time>2026-03-22T14:42:53.123Z</time></trkpt><trkpt lat="45.6189563" lon="10.8197422"><ele>398.25</ele><time>2026-03-22T14:42:54.124Z</time></trkpt><trkpt lat="45.6190279" lon="10.8198701"><ele>403.5</ele><time>2026-03-22T14:42:55.125Z</time></trkpt><trkpt lat="45.6190702" lon="10.8200465"><ele>408.75</ele><time>2026-03-22T14:42:56.125Z</time></trkpt><trkpt lat="45.6190914" lon="10.8202582"><ele>414.0</ele><time>2026-03-22T14:42:57.124Z</time></trkpt><trkpt lat="45.6191148" lon="10.8204865"><ele>414.33333333333337</ele><time>2026-03-22T14:42:58.125Z</time></trkpt><trkpt lat="45.6191435" lon="10.8207207"><ele>414.6666666666667</ele><time>2026-03-22T14:42:59.124Z</time></trkpt><trkpt lat="45.6191755" lon="10.8209699"><ele>415.0</ele><time>2026-03-22T14:43:00.125Z</time></trkpt><trkpt lat="45.6191923" lon="10.8212034"><ele>415.0</ele><time>2026-03-22T14:43:01.125Z</time></trkpt><trkpt lat="45.6192121" lon="10.8214186"><ele>415.0</ele><time>2026-03-22T14:43:02.125Z</time></trkpt><trkpt lat="45.6192518" lon="10.821605"><ele>415.0</ele><time>2026-03-22T14:43:03.124Z</time></trkpt><trkpt lat="45.619321" lon="10.8217786"><ele>415.0</ele><time>2026-03-22T14:43:04.124Z</time></trkpt><trkpt lat="45.6194217" lon="10.82193"><ele>417.4</ele><time>2026-03-22T14:43:05.124Z</time></trkpt><trkpt lat="45.6195083" lon="10.8220536"><ele>419.8</ele><time>2026-03-22T14:43:06.124Z</time></trkpt><trkpt lat="45.6195715" lon="10.8221654"><ele>422.20000000000005</ele><time>2026-03-22T14:43:07.123Z</time></trkpt><trkpt lat="45.6196049" lon="10.8222468"><ele>424.6</ele><time>2026-03-22T14:43:08.123Z</time></trkpt><trkpt lat="45.6196812" lon="10.8223145"><ele>427.0</ele><time>2026-03-22T14:43:18.124Z</time></trkpt><trkpt lat="45.6197668" lon="10.8223679"><ele>427.00000000000006</ele><time>2026-03-22T14:43:20.125Z</time></trkpt><trkpt lat="45.6198136" lon="10.8222963"><ele>427.0</ele><time>2026-03-22T14:43:22.125Z</time></trkpt><trkpt lat="45.6197691" lon="10.8222038"><ele>427.0</ele><time>2026-03-22T14:43:24.124Z</time></trkpt><trkpt lat="45.6196983" lon="10.8220736"><ele>427.0</ele><time>2026-03-22T14:43:26.122Z</time></trkpt><trkpt lat="45.6196828" lon="10.821973"><ele>427.00000000000006</ele><time>2026-03-22T14:43:27.124Z</time></trkpt><trkpt lat="45.619674" lon="10.8218556"><ele>427.0</ele><time>2026-03-22T14:43:28.124Z</time></trkpt><trkpt lat="45.6196646" lon="10.8217089"><ele>428.1666666666667</ele><time>2026-03-22T14:43:29.125Z</time></trkpt><trkpt lat="45.6196501" lon="10.8215522"><ele>429.33333333333337</ele><time>2026-03-22T14:43:30.124Z</time></trkpt><trkpt lat="45.6196517" lon="10.8214517"><ele>430.5</ele><time>2026-03-22T14:43:31.124Z</time></trkpt><trkpt lat="45.6196906" lon="10.8213413"><ele>431.66666666666663</ele><time>2026-03-22T14:43:32.125Z</time></trkpt><trkpt lat="45.6197618" lon="10.8212668"><ele>432.8333333333333</ele><time>2026-03-22T14:43:33.124Z</time></trkpt><trkpt lat="45.6198401" lon="10.8211932"><ele>434.0</ele><time>2026-03-22T14:43:34.125Z</time></trkpt><trkpt lat="45.6199068" lon="10.8211384"><ele>433.99999999999994</ele><time>2026-03-22T14:43:35.124Z</time></trkpt><trkpt lat="45.6199792" lon="10.8210689"><ele>434.0</ele><time>2026-03-22T14:43:36.125Z</time></trkpt><trkpt lat="45.6200334" lon="10.8209744"><ele>434.0</ele><time>2026-03-22T14:43:37.125Z</time></trkpt><trkpt lat="45.6200843" lon="10.8208869"><ele>434.0</ele><time>2026-03-22T14:43:38.124Z</time></trkpt><trkpt lat="45.6201388" lon="10.8208407"><ele>433.99999999999994</ele><time>2026-03-22T14:43:39.123Z</time></trkpt><trkpt lat="45.620217" lon="10.8208219"><ele>434.0</ele><time>2026-03-22T14:43:40.124Z</time></trkpt><trkpt lat="45.6202818" lon="10.8208213"><ele>436.2</ele><time>2026-03-22T14:43:41.125Z</time></trkpt><trkpt lat="45.6203618" lon="10.8208163"><ele>438.4</ele><time>2026-03-22T14:43:42.125Z</time></trkpt><trkpt lat="45.6204432" lon="10.8208127"><ele>440.6</ele><time>2026-03-22T14:43:43.124Z</time></trkpt><trkpt lat="45.6205518" lon="10.8208099"><ele>442.8</ele><time>2026-03-22T14:43:44.124Z</time></trkpt><trkpt lat="45.620684" lon="10.8208328"><ele>445.0</ele><time>2026-03-22T14:43:45.125Z</time></trkpt><trkpt lat="45.6208235" lon="10.8208348"><ele>445.0</ele><time>2026-03-22T14:43:46.125Z</time></trkpt><trkpt lat="45.6209797" lon="10.8208338"><ele>445.0</ele><time>2026-03-22T14:43:47.125Z</time></trkpt><trkpt lat="45.621144" lon="10.8208322"><ele>445.0</ele><time>2026-03-22T14:43:48.125Z</time></trkpt><trkpt lat="45.6213079" lon="10.8208304"><ele>447.6666666666667</ele><time>2026-03-22T14:43:49.125Z</time></trkpt><trkpt lat="45.6214654" lon="10.8208041"><ele>450.33333333333337</ele><time>2026-03-22T14:43:50.125Z</time></trkpt><trkpt lat="45.6216234" lon="10.8207761"><ele>453.0</ele><time>2026-03-22T14:43:51.124Z</time></trkpt><trkpt lat="45.6217503" lon="10.8207242"><ele>453.0</ele><time>2026-03-22T14:43:52.125Z</time></trkpt><trkpt lat="45.621861" lon="10.8206466"><ele>453.0</ele><time>2026-03-22T14:43:53.124Z</time></trkpt><trkpt lat="45.6219552" lon="10.8205573"><ele>453.0</ele><time>2026-03-22T14:43:54.126Z</time></trkpt><trkpt lat="45.6220656" lon="10.8204363"><ele>453.0</ele><time>2026-03-22T14:43:55.125Z</time></trkpt><trkpt lat="45.6221609" lon="10.8203166"><ele>452.59999999999997</ele><time>2026-03-22T14:43:56.124Z</time></trkpt><trkpt lat="45.6222611" lon="10.8202093"><ele>452.19999999999993</ele><time>2026-03-22T14:43:57.125Z</time></trkpt><trkpt lat="45.6223489" lon="10.8201171"><ele>451.8</ele><time>2026-03-22T14:43:58.124Z</time></trkpt><trkpt lat="45.6224224" lon="10.8200208"><ele>451.4</ele><time>2026-03-22T14:43:59.124Z</time></trkpt><trkpt lat="45.6224881" lon="10.8199142"><ele>451.0</ele><time>2026-03-22T14:44:00.125Z</time></trkpt><trkpt lat="45.6225544" lon="10.8198484"><ele>451.0</ele><time>2026-03-22T14:44:01.125Z</time></trkpt><trkpt lat="45.6226376" lon="10.8198116"><ele>451.0</ele><time>2026-03-22T14:44:02.124Z</time></trkpt><trkpt lat="45.6227336" lon="10.8197628"><ele>451.0</ele><time>2026-03-22T14:44:03.124Z</time></trkpt><trkpt lat="45.6228237" lon="10.8197261"><ele>451.0</ele><time>2026-03-22T14:44:04.124Z</time></trkpt><trkpt lat="45.6229022" lon="10.8196605"><ele>451.0</ele><time>2026-03-22T14:44:05.125Z</time></trkpt><trkpt lat="45.6229481" lon="10.819558"><ele>455.00000000000006</ele><time>2026-03-22T14:44:06.124Z</time></trkpt><trkpt lat="45.6229898" lon="10.8194563"><ele>459.0</ele><time>2026-03-22T14:44:07.125Z</time></trkpt><trkpt lat="45.6230096" lon="10.8193683"><ele>463.0</ele><time>2026-03-22T14:44:08.124Z</time></trkpt><trkpt lat="45.6230197" lon="10.8192579"><ele>467.0</ele><time>2026-03-22T14:44:10.125Z</time></trkpt><trkpt lat="45.6230198" lon="10.8191411"><ele>471.00000000000006</ele><time>2026-03-22T14:44:13.124Z</time></trkpt><trkpt lat="45.6230322" lon="10.8190431"><ele>475.0</ele><time>2026-03-22T14:44:15.124Z</time></trkpt><trkpt lat="45.6230602" lon="10.8189413"><ele>475.0</ele><time>2026-03-22T14:44:17.124Z</time></trkpt><trkpt lat="45.6230976" lon="10.8188235"><ele>475.0</ele><time>2026-03-22T14:44:19.125Z</time></trkpt><trkpt lat="45.6231566" lon="10.8187259"><ele>475.0</ele><time>2026-03-22T14:44:21.124Z</time></trkpt><trkpt lat="45.6232353" lon="10.8186653"><ele>475.0</ele><time>2026-03-22T14:44:23.124Z</time></trkpt><trkpt lat="45.6233345" lon="10.8186347"><ele>475.0</ele><time>2026-03-22T14:44:25.124Z</time></trkpt><trkpt lat="45.6234217" lon="10.8186413"><ele>475.0</ele><time>2026-03-22T14:44:27.124Z</time></trkpt><trkpt lat="45.6235152" lon="10.8186416"><ele>475.0</ele><time>2026-03-22T14:44:29.128Z</time></trkpt><trkpt lat="45.6235762" lon="10.8187208"><ele>475.0</ele><time>2026-03-22T14:44:33.124Z</time></trkpt><trkpt lat="45.6235561" lon="10.8188533"><ele>475.0</ele><time>2026-03-22T14:44:35.124Z</time></trkpt><trkpt lat="45.6235314" lon="10.8190285"><ele>475.0</ele><time>2026-03-22T14:44:37.125Z</time></trkpt><trkpt lat="45.6235239" lon="10.8191389"><ele>475.0</ele><time>2026-03-22T14:44:38.124Z</time></trkpt><trkpt lat="45.623528" lon="10.819268"><ele>475.0</ele><time>2026-03-22T14:44:39.124Z</time></trkpt><trkpt lat="45.6235321" lon="10.8194336"><ele>475.0</ele><time>2026-03-22T14:44:40.125Z</time></trkpt><trkpt lat="45.6235358" lon="10.8196157"><ele>475.0</ele><time>2026-03-22T14:44:41.125Z</time></trkpt><trkpt lat="45.62354" lon="10.8198158"><ele>476.25</ele><time>2026-03-22T14:44:42.124Z</time></trkpt><trkpt lat="45.6235304" lon="10.8200252"><ele>477.5</ele><time>2026-03-22T14:44:43.124Z</time></trkpt><trkpt lat="45.6235049" lon="10.8202024"><ele>478.75</ele><time>2026-03-22T14:44:44.124Z</time></trkpt><trkpt lat="45.6234719" lon="10.8203617"><ele>480.0</ele><time>2026-03-22T14:44:45.123Z</time></trkpt><trkpt lat="45.62344" lon="10.8204987"><ele>480.8</ele><time>2026-03-22T14:44:46.124Z</time></trkpt><trkpt lat="45.623412" lon="10.8206377"><ele>481.6</ele><time>2026-03-22T14:44:47.124Z</time></trkpt><trkpt lat="45.6234061" lon="10.8207765"><ele>482.4</ele><time>2026-03-22T14:44:48.124Z</time></trkpt><trkpt lat="45.6234228" lon="10.8209232"><ele>483.2</ele><time>2026-03-22T14:44:49.124Z</time></trkpt><trkpt lat="45.6234697" lon="10.8210897"><ele>484.0</ele><time>2026-03-22T14:44:50.125Z</time></trkpt><trkpt lat="45.6235292" lon="10.8212776"><ele>484.0</ele><time>2026-03-22T14:44:51.125Z</time></trkpt><trkpt lat="45.6235838" lon="10.8214428"><ele>484.0</ele><time>2026-03-22T14:44:52.125Z</time></trkpt><trkpt lat="45.6236348" lon="10.8215987"><ele>484.0</ele><time>2026-03-22T14:44:53.125Z</time></trkpt><trkpt lat="45.6236877" lon="10.8217387"><ele>484.0</ele><time>2026-03-22T14:44:54.124Z</time></trkpt><trkpt lat="45.6237328" lon="10.821853"><ele>487.00000000000006</ele><time>2026-03-22T14:44:55.124Z</time></trkpt><trkpt lat="45.6237759" lon="10.8219627"><ele>490.0</ele><time>2026-03-22T14:44:56.125Z</time></trkpt><trkpt lat="45.6238163" lon="10.8220639"><ele>493.0</ele><time>2026-03-22T14:44:57.124Z</time></trkpt><trkpt lat="45.6238619" lon="10.8221397"><ele>496.0</ele><time>2026-03-22T14:44:58.124Z</time></trkpt><trkpt lat="45.6239061" lon="10.8222123"><ele>499.00000000000006</ele><time>2026-03-22T14:44:59.126Z</time></trkpt><trkpt lat="45.6239556" lon="10.8222706"><ele>502.0</ele><time>2026-03-22T14:45:01.124Z</time></trkpt><trkpt lat="45.6239805" lon="10.8221438"><ele>502.00000000000006</ele><time>2026-03-22T14:45:04.125Z</time></trkpt><trkpt lat="45.6239975" lon="10.8220048"><ele>502.0</ele><time>2026-03-22T14:45:06.125Z</time></trkpt><trkpt lat="45.6239897" lon="10.8218858"><ele>502.0</ele><time>2026-03-22T14:45:07.125Z</time></trkpt><trkpt lat="45.62398" lon="10.8217742"><ele>502.0</ele><time>2026-03-22T14:45:08.125Z</time></trkpt><trkpt lat="45.6239775" lon="10.8216835"><ele>502.00000000000006</ele><time>2026-03-22T14:45:09.124Z</time></trkpt><trkpt lat="45.6240128" lon="10.8215167"><ele>502.0</ele><time>2026-03-22T14:45:11.124Z</time></trkpt><trkpt lat="45.6240439" lon="10.8213497"><ele>503.8</ele><time>2026-03-22T14:45:13.124Z</time></trkpt><trkpt lat="45.6240547" lon="10.821231"><ele>505.6</ele><time>2026-03-22T14:45:15.125Z</time></trkpt><trkpt lat="45.624061" lon="10.8211313"><ele>507.40000000000003</ele><time>2026-03-22T14:45:18.124Z</time></trkpt><trkpt lat="45.6240682" lon="10.8210216"><ele>509.20000000000005</ele><time>2026-03-22T14:45:20.124Z</time></trkpt><trkpt lat="45.6241195" lon="10.8208595"><ele>511.0</ele><time>2026-03-22T14:45:22.124Z</time></trkpt><trkpt lat="45.6241714" lon="10.8207104"><ele>511.20000000000005</ele><time>2026-03-22T14:45:24.124Z</time></trkpt><trkpt lat="45.6242474" lon="10.8206002"><ele>511.40000000000003</ele><time>2026-03-22T14:45:26.124Z</time></trkpt><trkpt lat="45.6243464" lon="10.820526"><ele>511.6</ele><time>2026-03-22T14:45:28.124Z</time></trkpt><trkpt lat="45.6244287" lon="10.8203863"><ele>511.8</ele><time>2026-03-22T14:45:30.125Z</time></trkpt><trkpt lat="45.6244709" lon="10.8203012"><ele>512.0</ele><time>2026-03-22T14:45:31.125Z</time></trkpt><trkpt lat="45.6245191" lon="10.820193"><ele>512.8333333333333</ele><time>2026-03-22T14:45:32.125Z</time></trkpt><trkpt lat="45.6245775" lon="10.8200965"><ele>513.6666666666666</ele><time>2026-03-22T14:45:33.124Z</time></trkpt><trkpt lat="45.6246211" lon="10.8200301"><ele>514.5</ele><time>2026-03-22T14:45:34.125Z</time></trkpt><trkpt lat="45.6246587" lon="10.8199498"><ele>515.3333333333334</ele><time>2026-03-22T14:45:35.124Z</time></trkpt><trkpt lat="45.6247106" lon="10.8198313"><ele>516.1666666666667</ele><time>2026-03-22T14:45:37.125Z</time></trkpt><trkpt lat="45.6247903" lon="10.8197876"><ele>517.0</ele><time>2026-03-22T14:45:39.125Z</time></trkpt><trkpt lat="45.6248955" lon="10.8197831"><ele>517.0</ele><time>2026-03-22T14:45:41.125Z</time></trkpt><trkpt lat="45.624961" lon="10.8198217"><ele>517.0</ele><time>2026-03-22T14:45:43.125Z</time></trkpt><trkpt lat="45.6250231" lon="10.8198622"><ele>517.0</ele><time>2026-03-22T14:45:45.124Z</time></trkpt><trkpt lat="45.6250364" lon="10.8199589"><ele>517.0</ele><time>2026-03-22T14:45:47.123Z</time></trkpt><trkpt lat="45.6251404" lon="10.8200661"><ele>517.0</ele><time>2026-03-22T14:45:50.126Z</time></trkpt><trkpt lat="45.6251888" lon="10.8201341"><ele>517.0</ele><time>2026-03-22T14:45:51.125Z</time></trkpt><trkpt lat="45.6252627" lon="10.8202401"><ele>521.2</ele><time>2026-03-22T14:45:53.124Z</time></trkpt><trkpt lat="45.6253337" lon="10.8203046"><ele>525.4000000000001</ele><time>2026-03-22T14:45:55.122Z</time></trkpt><trkpt lat="45.6254357" lon="10.82037"><ele>529.5999999999999</ele><time>2026-03-22T14:45:57.125Z</time></trkpt><trkpt lat="45.6255391" lon="10.8204388"><ele>533.8</ele><time>2026-03-22T14:45:59.124Z</time></trkpt><trkpt lat="45.6255962" lon="10.8204882"><ele>538.0</ele><time>2026-03-22T14:46:00.125Z</time></trkpt><trkpt lat="45.6256881" lon="10.820595"><ele>538.0</ele><time>2026-03-22T14:46:02.124Z</time></trkpt><trkpt lat="45.6257902" lon="10.8207099"><ele>538.0</ele><time>2026-03-22T14:46:04.125Z</time></trkpt><trkpt lat="45.6258668" lon="10.8207833"><ele>538.0</ele><time>2026-03-22T14:46:06.125Z</time></trkpt><trkpt lat="45.6259545" lon="10.820958"><ele>538.0</ele><time>2026-03-22T14:46:08.124Z</time></trkpt><trkpt lat="45.6260034" lon="10.821036"><ele>538.0</ele><time>2026-03-22T14:46:09.124Z</time></trkpt><trkpt lat="45.626058" lon="10.8211338"><ele>537.6</ele><time>2026-03-22T14:46:10.125Z</time></trkpt><trkpt lat="45.6261182" lon="10.8212356"><ele>537.1999999999999</ele><time>2026-03-22T14:46:11.124Z</time></trkpt><trkpt lat="45.6261867" lon="10.8213858"><ele>536.8</ele><time>2026-03-22T14:46:12.125Z</time></trkpt><trkpt lat="45.6262416" lon="10.8214991"><ele>536.4</ele><time>2026-03-22T14:46:13.125Z</time></trkpt><trkpt lat="45.6262905" lon="10.8215937"><ele>536.0</ele><time>2026-03-22T14:46:14.125Z</time></trkpt><trkpt lat="45.6263312" lon="10.8217027"><ele>538.1666666666666</ele><time>2026-03-22T14:46:15.125Z</time></trkpt><trkpt lat="45.6263681" lon="10.8218258"><ele>540.3333333333333</ele><time>2026-03-22T14:46:16.125Z</time></trkpt><trkpt lat="45.6263963" lon="10.821935"><ele>542.5</ele><time>2026-03-22T14:46:17.125Z</time></trkpt><trkpt lat="45.6264131" lon="10.8220489"><ele>544.6666666666666</ele><time>2026-03-22T14:46:18.125Z</time></trkpt><trkpt lat="45.6264165" lon="10.8221541"><ele>546.8333333333334</ele><time>2026-03-22T14:46:19.124Z</time></trkpt><trkpt lat="45.6264343" lon="10.8223178"><ele>549.0</ele><time>2026-03-22T14:46:21.125Z</time></trkpt><trkpt lat="45.6264681" lon="10.822449"><ele>549.0</ele><time>2026-03-22T14:46:23.123Z</time></trkpt><trkpt lat="45.6265124" lon="10.8225412"><ele>549.0</ele><time>2026-03-22T14:46:32.124Z</time></trkpt><trkpt lat="45.6266116" lon="10.8226631"><ele>549.0</ele><time>2026-03-22T14:46:35.125Z</time></trkpt><trkpt lat="45.6266665" lon="10.8227459"><ele>549.0</ele><time>2026-03-22T14:46:36.125Z</time></trkpt><trkpt lat="45.6267539" lon="10.8228686"><ele>549.0</ele><time>2026-03-22T14:46:38.125Z</time></trkpt><trkpt lat="45.6268319" lon="10.8229553"><ele>549.0</ele><time>2026-03-22T14:46:40.125Z</time></trkpt><trkpt lat="45.6268856" lon="10.823008"><ele>549.0</ele><time>2026-03-22T14:46:41.125Z</time></trkpt><trkpt lat="45.6269467" lon="10.823075"><ele>549.0</ele><time>2026-03-22T14:46:42.123Z</time></trkpt><trkpt lat="45.6270006" lon="10.8231487"><ele>549.0</ele><time>2026-03-22T14:46:43.124Z</time></trkpt><trkpt lat="45.6270754" lon="10.8232642"><ele>549.0</ele><time>2026-03-22T14:46:44.125Z</time></trkpt><trkpt lat="45.6271646" lon="10.8233797"><ele>549.0</ele><time>2026-03-22T14:46:45.124Z</time></trkpt><trkpt lat="45.6272723" lon="10.8235003"><ele>548.6</ele><time>2026-03-22T14:46:46.125Z</time></trkpt><trkpt lat="45.6273833" lon="10.8235974"><ele>548.2</ele><time>2026-03-22T14:46:47.124Z</time></trkpt><trkpt lat="45.6274886" lon="10.823659"><ele>547.8000000000001</ele><time>2026-03-22T14:46:48.123Z</time></trkpt><trkpt lat="45.6275767" lon="10.8236792"><ele>547.4</ele><time>2026-03-22T14:46:49.124Z</time></trkpt><trkpt lat="45.6276558" lon="10.8237192"><ele>547.0</ele><time>2026-03-22T14:46:50.125Z</time></trkpt><trkpt lat="45.6277169" lon="10.8237449"><ele>547.0</ele><time>2026-03-22T14:46:51.125Z</time></trkpt><trkpt lat="45.6278024" lon="10.8237102"><ele>547.0</ele><time>2026-03-22T14:46:53.124Z</time></trkpt><trkpt lat="45.6278595" lon="10.8236479"><ele>547.0</ele><time>2026-03-22T14:46:55.123Z</time></trkpt><trkpt lat="45.6279476" lon="10.823558"><ele>547.0</ele><time>2026-03-22T14:46:57.125Z</time></trkpt><trkpt lat="45.6280198" lon="10.8234987"><ele>547.0</ele><time>2026-03-22T14:46:58.124Z</time></trkpt><trkpt lat="45.628092" lon="10.8234419"><ele>547.0</ele><time>2026-03-22T14:46:59.125Z</time></trkpt><trkpt lat="45.6281532" lon="10.8233733"><ele>548.8000000000001</ele><time>2026-03-22T14:47:00.124Z</time></trkpt><trkpt lat="45.628254" lon="10.8232677"><ele>550.6</ele><time>2026-03-22T14:47:02.125Z</time></trkpt><trkpt lat="45.6283588" lon="10.8231976"><ele>552.4000000000001</ele><time>2026-03-22T14:47:04.125Z</time></trkpt><trkpt lat="45.6284158" lon="10.8231546"><ele>554.2</ele><time>2026-03-22T14:47:05.125Z</time></trkpt><trkpt lat="45.628496" lon="10.8231079"><ele>556.0</ele><time>2026-03-22T14:47:07.125Z</time></trkpt><trkpt lat="45.6284907" lon="10.8229958"><ele>556.0</ele><time>2026-03-22T14:47:10.126Z</time></trkpt><trkpt lat="45.6284247" lon="10.8229401"><ele>556.0</ele><time>2026-03-22T14:47:12.125Z</time></trkpt><trkpt lat="45.6283518" lon="10.8228768"><ele>556.0</ele><time>2026-03-22T14:47:14.125Z</time></trkpt><trkpt lat="45.6283211" lon="10.8227151"><ele>556.0</ele><time>2026-03-22T14:47:16.125Z</time></trkpt><trkpt lat="45.6282507" lon="10.8225761"><ele>556.0</ele><time>2026-03-22T14:47:18.126Z</time></trkpt><trkpt lat="45.6282049" lon="10.8224943"><ele>556.4285714285714</ele><time>2026-03-22T14:47:19.125Z</time></trkpt><trkpt lat="45.6281745" lon="10.8224108"><ele>556.8571428571429</ele><time>2026-03-22T14:47:20.125Z</time></trkpt><trkpt lat="45.6281443" lon="10.8223314"><ele>557.2857142857143</ele><time>2026-03-22T14:47:21.125Z</time></trkpt><trkpt lat="45.6281368" lon="10.8222231"><ele>557.7142857142858</ele><time>2026-03-22T14:47:22.125Z</time></trkpt><trkpt lat="45.6281377" lon="10.822101"><ele>558.1428571428572</ele><time>2026-03-22T14:47:23.124Z</time></trkpt><trkpt lat="45.6281403" lon="10.8220048"><ele>558.5714285714286</ele><time>2026-03-22T14:47:24.123Z</time></trkpt><trkpt lat="45.628139" lon="10.8219131"><ele>559.0</ele><time>2026-03-22T14:47:25.124Z</time></trkpt><trkpt lat="45.6281479" lon="10.8217794"><ele>559.2</ele><time>2026-03-22T14:47:27.125Z</time></trkpt><trkpt lat="45.6282069" lon="10.8216444"><ele>559.4</ele><time>2026-03-22T14:47:29.125Z</time></trkpt><trkpt lat="45.6282406" lon="10.8215266"><ele>559.6</ele><time>2026-03-22T14:47:30.125Z</time></trkpt><trkpt lat="45.6282897" lon="10.8213768"><ele>559.8</ele><time>2026-03-22T14:47:31.124Z</time></trkpt><trkpt lat="45.6283549" lon="10.8212649"><ele>560.0</ele><time>2026-03-22T14:47:32.125Z</time></trkpt><trkpt lat="45.628402" lon="10.8211619"><ele>560.0</ele><time>2026-03-22T14:47:33.124Z</time></trkpt><trkpt lat="45.6284158" lon="10.8209856"><ele>560.0</ele><time>2026-03-22T14:47:35.124Z</time></trkpt><trkpt lat="45.6283985" lon="10.8208576"><ele>560.0</ele><time>2026-03-22T14:47:36.124Z</time></trkpt><trkpt lat="45.6283599" lon="10.8207357"><ele>560.0</ele><time>2026-03-22T14:47:37.125Z</time></trkpt><trkpt lat="45.6282974" lon="10.8205901"><ele>560.0</ele><time>2026-03-22T14:47:38.124Z</time></trkpt><trkpt lat="45.6282296" lon="10.8204279"><ele>561.0</ele><time>2026-03-22T14:47:39.124Z</time></trkpt><trkpt lat="45.6281755" lon="10.8202967"><ele>562.0</ele><time>2026-03-22T14:47:40.125Z</time></trkpt><trkpt lat="45.6281512" lon="10.820166"><ele>563.0</ele><time>2026-03-22T14:47:41.123Z</time></trkpt><trkpt lat="45.6281369" lon="10.8200275"><ele>564.0</ele><time>2026-03-22T14:47:42.124Z</time></trkpt><trkpt lat="45.6281345" lon="10.8198907"><ele>565.0</ele><time>2026-03-22T14:47:43.125Z</time></trkpt><trkpt lat="45.6281376" lon="10.8197627"><ele>567.0</ele><time>2026-03-22T14:47:44.124Z</time></trkpt><trkpt lat="45.6281401" lon="10.8196539"><ele>569.0</ele><time>2026-03-22T14:47:45.126Z</time></trkpt><trkpt lat="45.6281181" lon="10.8195514"><ele>571.0</ele><time>2026-03-22T14:47:46.125Z</time></trkpt><trkpt lat="45.6280889" lon="10.8194154"><ele>573.0</ele><time>2026-03-22T14:47:47.124Z</time></trkpt><trkpt lat="45.6280469" lon="10.8192829"><ele>575.0</ele><time>2026-03-22T14:47:48.125Z</time></trkpt><trkpt lat="45.6280308" lon="10.819137"><ele>578.0</ele><time>2026-03-22T14:47:49.124Z</time></trkpt><trkpt lat="45.6279885" lon="10.8189648"><ele>581.0</ele><time>2026-03-22T14:47:50.123Z</time></trkpt><trkpt lat="45.6279501" lon="10.8188144"><ele>584.0</ele><time>2026-03-22T14:47:51.125Z</time></trkpt><trkpt lat="45.6279158" lon="10.8186495"><ele>587.0</ele><time>2026-03-22T14:47:52.124Z</time></trkpt><trkpt lat="45.6278899" lon="10.8184992"><ele>589.0</ele><time>2026-03-22T14:47:53.124Z</time></trkpt><trkpt lat="45.6278641" lon="10.8183469"><ele>591.0</ele><time>2026-03-22T14:47:54.124Z</time></trkpt><trkpt lat="45.6278369" lon="10.8181708"><ele>593.0</ele><time>2026-03-22T14:47:55.125Z</time></trkpt><trkpt lat="45.6278072" lon="10.8180045"><ele>595.0</ele><time>2026-03-22T14:47:56.124Z</time></trkpt><trkpt lat="45.6277804" lon="10.817832"><ele>588.8</ele><time>2026-03-22T14:47:57.124Z</time></trkpt><trkpt lat="45.6277589" lon="10.8176772"><ele>582.6</ele><time>2026-03-22T14:47:58.124Z</time></trkpt><trkpt lat="45.6277336" lon="10.8175235"><ele>576.4</ele><time>2026-03-22T14:47:59.125Z</time></trkpt><trkpt lat="45.6277078" lon="10.8173702"><ele>570.2</ele><time>2026-03-22T14:48:00.124Z</time></trkpt><trkpt lat="45.6276763" lon="10.817212"><ele>564.0</ele><time>2026-03-22T14:48:01.123Z</time></trkpt><trkpt lat="45.6276392" lon="10.817055"><ele>564.0</ele><time>2026-03-22T14:48:02.125Z</time></trkpt><trkpt lat="45.6275904" lon="10.8168796"><ele>564.0</ele><time>2026-03-22T14:48:03.125Z</time></trkpt><trkpt lat="45.627541" lon="10.8167477"><ele>564.0</ele><time>2026-03-22T14:48:04.124Z</time></trkpt><trkpt lat="45.6274862" lon="10.8166354"><ele>564.0</ele><time>2026-03-22T14:48:05.124Z</time></trkpt><trkpt lat="45.6274409" lon="10.8165218"><ele>564.0</ele><time>2026-03-22T14:48:06.125Z</time></trkpt><trkpt lat="45.6274" lon="10.816419"><ele>565.5</ele><time>2026-03-22T14:48:07.125Z</time></trkpt><trkpt lat="45.6273682" lon="10.8163226"><ele>567.0</ele><time>2026-03-22T14:48:08.125Z</time></trkpt><trkpt lat="45.6273655" lon="10.8161682"><ele>568.5</ele><time>2026-03-22T14:48:10.124Z</time></trkpt><trkpt lat="45.6273817" lon="10.8160609"><ele>570.0</ele><time>2026-03-22T14:48:11.124Z</time></trkpt><trkpt lat="45.6274032" lon="10.8159722"><ele>571.5</ele><time>2026-03-22T14:48:12.124Z</time></trkpt><trkpt lat="45.627405" lon="10.8158012"><ele>573.0</ele><time>2026-03-22T14:48:14.125Z</time></trkpt><trkpt lat="45.6273745" lon="10.8156246"><ele>576.4</ele><time>2026-03-22T14:48:16.124Z</time></trkpt><trkpt lat="45.6273451" lon="10.8154915"><ele>579.8</ele><time>2026-03-22T14:48:18.125Z</time></trkpt><trkpt lat="45.627277" lon="10.8153746"><ele>583.2</ele><time>2026-03-22T14:48:20.126Z</time></trkpt><trkpt lat="45.6272292" lon="10.815254"><ele>586.6</ele><time>2026-03-22T14:48:21.125Z</time></trkpt><trkpt lat="45.627193" lon="10.815178"><ele>590.0</ele><time>2026-03-22T14:48:22.124Z</time></trkpt><trkpt lat="45.6272454" lon="10.8150512"><ele>590.0</ele><time>2026-03-22T14:48:25.124Z</time></trkpt><trkpt lat="45.6273299" lon="10.8150181"><ele>590.0</ele><time>2026-03-22T14:48:28.124Z</time></trkpt><trkpt lat="45.6273886" lon="10.8150606"><ele>590.0</ele><time>2026-03-22T14:48:29.125Z</time></trkpt><trkpt lat="45.6274423" lon="10.8151332"><ele>590.0</ele><time>2026-03-22T14:48:31.125Z</time></trkpt><trkpt lat="45.6275043" lon="10.8151568"><ele>590.0</ele><time>2026-03-22T14:48:33.125Z</time></trkpt><trkpt lat="45.6274639" lon="10.8150678"><ele>590.0</ele><time>2026-03-22T14:48:37.125Z</time></trkpt><trkpt lat="45.6274331" lon="10.8149442"><ele>592.1666666666666</ele><time>2026-03-22T14:48:39.125Z</time></trkpt><trkpt lat="45.6274142" lon="10.8147943"><ele>594.3333333333333</ele><time>2026-03-22T14:48:41.125Z</time></trkpt><trkpt lat="45.6273898" lon="10.8146832"><ele>596.5</ele><time>2026-03-22T14:48:42.125Z</time></trkpt><trkpt lat="45.6273614" lon="10.814565"><ele>598.6666666666666</ele><time>2026-03-22T14:48:43.125Z</time></trkpt><trkpt lat="45.6273408" lon="10.8144651"><ele>600.8333333333334</ele><time>2026-03-22T14:48:44.124Z</time></trkpt><trkpt lat="45.6273216" lon="10.8143503"><ele>603.0</ele><time>2026-03-22T14:48:45.124Z</time></trkpt><trkpt lat="45.627307" lon="10.8142348"><ele>606.0</ele><time>2026-03-22T14:48:46.125Z</time></trkpt><trkpt lat="45.6272798" lon="10.8141324"><ele>609.0</ele><time>2026-03-22T14:48:47.125Z</time></trkpt><trkpt lat="45.6272549" lon="10.8140316"><ele>612.0</ele><time>2026-03-22T14:48:48.125Z</time></trkpt><trkpt lat="45.6272309" lon="10.8139301"><ele>615.0</ele><time>2026-03-22T14:48:49.125Z</time></trkpt><trkpt lat="45.6271877" lon="10.8138579"><ele>618.0</ele><time>2026-03-22T14:48:50.124Z</time></trkpt><trkpt lat="45.6271506" lon="10.8137554"><ele>621.0</ele><time>2026-03-22T14:48:51.125Z</time></trkpt><trkpt lat="45.6271143" lon="10.813657"><ele>621.0</ele><time>2026-03-22T14:48:52.125Z</time></trkpt><trkpt lat="45.6270787" lon="10.8135495"><ele>621.0</ele><time>2026-03-22T14:48:53.124Z</time></trkpt><trkpt lat="45.6270501" lon="10.8134579"><ele>621.0</ele><time>2026-03-22T14:48:54.125Z</time></trkpt><trkpt lat="45.6270188" lon="10.8133636"><ele>621.0</ele><time>2026-03-22T14:48:55.125Z</time></trkpt><trkpt lat="45.626993" lon="10.8132636"><ele>621.0</ele><time>2026-03-22T14:48:56.124Z</time></trkpt><trkpt lat="45.6269629" lon="10.8131771"><ele>621.0</ele><time>2026-03-22T14:48:57.124Z</time></trkpt><trkpt lat="45.6269512" lon="10.8130115"><ele>621.8</ele><time>2026-03-22T14:48:59.125Z</time></trkpt><trkpt lat="45.6269295" lon="10.8128422"><ele>622.6</ele><time>2026-03-22T14:49:01.125Z</time></trkpt><trkpt lat="45.6268827" lon="10.8127017"><ele>623.4</ele><time>2026-03-22T14:49:03.125Z</time></trkpt><trkpt lat="45.6268699" lon="10.8125555"><ele>624.2</ele><time>2026-03-22T14:49:04.125Z</time></trkpt><trkpt lat="45.6268528" lon="10.8124528"><ele>625.0</ele><time>2026-03-22T14:49:05.125Z</time></trkpt><trkpt lat="45.6268401" lon="10.8123585"><ele>625.0</ele><time>2026-03-22T14:49:06.123Z</time></trkpt><trkpt lat="45.6268351" lon="10.8122303"><ele>625.0</ele><time>2026-03-22T14:49:31.124Z</time></trkpt><trkpt lat="45.626841" lon="10.8121035"><ele>625.0</ele><time>2026-03-22T14:49:33.125Z</time></trkpt><trkpt lat="45.6268577" lon="10.8119335"><ele>625.0</ele><time>2026-03-22T14:49:35.124Z</time></trkpt><trkpt lat="45.6268569" lon="10.8117572"><ele>625.0</ele><time>2026-03-22T14:49:37.125Z</time></trkpt><trkpt lat="45.6268651" lon="10.8116543"><ele>627.2</ele><time>2026-03-22T14:49:38.125Z</time></trkpt><trkpt lat="45.6268627" lon="10.8114871"><ele>629.4</ele><time>2026-03-22T14:49:40.125Z</time></trkpt><trkpt lat="45.6268728" lon="10.8113271"><ele>631.6</ele><time>2026-03-22T14:49:42.125Z</time></trkpt><trkpt lat="45.6268488" lon="10.8111659"><ele>633.8</ele><time>2026-03-22T14:49:44.125Z</time></trkpt><trkpt lat="45.6268273" lon="10.8110296"><ele>636.0</ele><time>2026-03-22T14:49:46.125Z</time></trkpt><trkpt lat="45.6268095" lon="10.8108805"><ele>638.0</ele><time>2026-03-22T14:49:48.125Z</time></trkpt><trkpt lat="45.6267991" lon="10.8107517"><ele>640.0</ele><time>2026-03-22T14:49:50.124Z</time></trkpt><trkpt lat="45.6267818" lon="10.8106114"><ele>642.0</ele><time>2026-03-22T14:49:52.124Z</time></trkpt><trkpt lat="45.6267742" lon="10.8104713"><ele>644.0</ele><time>2026-03-22T14:49:54.125Z</time></trkpt><trkpt lat="45.6267497" lon="10.810374"><ele>646.0</ele><time>2026-03-22T14:49:57.125Z</time></trkpt><trkpt lat="45.6267193" lon="10.8102543"><ele>648.5999999999999</ele><time>2026-03-22T14:49:59.125Z</time></trkpt><trkpt lat="45.6267017" lon="10.8101365"><ele>651.2</ele><time>2026-03-22T14:50:02.124Z</time></trkpt><trkpt lat="45.626692" lon="10.8100292"><ele>653.8</ele><time>2026-03-22T14:50:04.125Z</time></trkpt><trkpt lat="45.6266905" lon="10.8098013"><ele>656.4000000000001</ele><time>2026-03-22T14:50:06.125Z</time></trkpt><trkpt lat="45.6266827" lon="10.8096984"><ele>659.0</ele><time>2026-03-22T14:50:07.125Z</time></trkpt><trkpt lat="45.626666" lon="10.809541"><ele>659.0</ele><time>2026-03-22T14:50:09.125Z</time></trkpt><trkpt lat="45.6266617" lon="10.8094136"><ele>659.0</ele><time>2026-03-22T14:50:11.124Z</time></trkpt><trkpt lat="45.6266754" lon="10.8092625"><ele>659.0</ele><time>2026-03-22T14:50:13.123Z</time></trkpt><trkpt lat="45.6266838" lon="10.8091237"><ele>659.0</ele><time>2026-03-22T14:50:15.124Z</time></trkpt><trkpt lat="45.62667" lon="10.8090069"><ele>659.0</ele><time>2026-03-22T14:50:35.123Z</time></trkpt><trkpt lat="45.6266111" lon="10.808945"><ele>659.0</ele><time>2026-03-22T14:50:38.124Z</time></trkpt><trkpt lat="45.6265454" lon="10.8088843"><ele>656.7142857142858</ele><time>2026-03-22T14:50:42.124Z</time></trkpt><trkpt lat="45.6264853" lon="10.8088377"><ele>654.4285714285713</ele><time>2026-03-22T14:50:47.125Z</time></trkpt><trkpt lat="45.6264122" lon="10.8088138"><ele>652.1428571428571</ele><time>2026-03-22T14:50:50.125Z</time></trkpt><trkpt lat="45.6263507" lon="10.8087809"><ele>649.8571428571429</ele><time>2026-03-22T14:50:54.125Z</time></trkpt><trkpt lat="45.6262767" lon="10.8087469"><ele>647.5714285714287</ele><time>2026-03-22T14:50:57.124Z</time></trkpt><trkpt lat="45.6262101" lon="10.8087156"><ele>645.2857142857142</ele><time>2026-03-22T14:50:59.124Z</time></trkpt><trkpt lat="45.6261193" lon="10.8086918"><ele>643.0</ele><time>2026-03-22T14:51:02.124Z</time></trkpt><trkpt lat="45.626035" lon="10.8086397"><ele>643.0</ele><time>2026-03-22T14:51:05.125Z</time></trkpt><trkpt lat="45.6259736" lon="10.808615"><ele>643.0</ele><time>2026-03-22T14:51:07.125Z</time></trkpt><trkpt lat="45.6259131" lon="10.8085745"><ele>643.0</ele><time>2026-03-22T14:51:11.125Z</time></trkpt><trkpt lat="45.6257837" lon="10.8085342"><ele>643.0</ele><time>2026-03-22T14:51:13.124Z</time></trkpt><trkpt lat="45.6256776" lon="10.808554"><ele>643.0</ele><time>2026-03-22T14:51:15.125Z</time></trkpt><trkpt lat="45.6256078" lon="10.8085463"><ele>643.0</ele><time>2026-03-22T14:51:16.125Z</time></trkpt><trkpt lat="45.6255326" lon="10.8085222"><ele>643.0</ele><time>2026-03-22T14:51:17.125Z</time></trkpt><trkpt lat="45.6254611" lon="10.8085044"><ele>643.0</ele><time>2026-03-22T14:51:18.125Z</time></trkpt><trkpt lat="45.62539" lon="10.8084617"><ele>643.0</ele><time>2026-03-22T14:51:19.125Z</time></trkpt><trkpt lat="45.6253269" lon="10.8084422"><ele>643.0</ele><time>2026-03-22T14:51:20.124Z</time></trkpt><trkpt lat="45.6252668" lon="10.8084064"><ele>643.0</ele><time>2026-03-22T14:51:21.125Z</time></trkpt><trkpt lat="45.6251675" lon="10.8083522"><ele>643.0</ele><time>2026-03-22T14:51:23.125Z</time></trkpt><trkpt lat="45.6250939" lon="10.8083193"><ele>644.4</ele><time>2026-03-22T14:51:26.126Z</time></trkpt><trkpt lat="45.6250126" lon="10.8082283"><ele>645.8</ele><time>2026-03-22T14:51:31.125Z</time></trkpt><trkpt lat="45.6249538" lon="10.8081303"><ele>647.2</ele><time>2026-03-22T14:54:51.125Z</time></trkpt><trkpt lat="45.6250851" lon="10.8082165"><ele>648.6</ele><time>2026-03-22T14:58:11.125Z</time></trkpt><trkpt lat="45.6251643" lon="10.8082719"><ele>650.0</ele><time>2026-03-22T14:58:12.125Z</time></trkpt><trkpt lat="45.6252303" lon="10.8083109"><ele>650.0</ele><time>2026-03-22T14:58:14.125Z</time></trkpt><trkpt lat="45.6252885" lon="10.8083496"><ele>650.0</ele><time>2026-03-22T14:58:16.125Z</time></trkpt><trkpt lat="45.62537" lon="10.80835"><ele>650.0</ele><time>2026-03-22T14:58:18.125Z</time></trkpt><trkpt lat="45.6254446" lon="10.8083971"><ele>650.0</ele><time>2026-03-22T14:58:19.126Z</time></trkpt><trkpt lat="45.6255141" lon="10.8084421"><ele>650.0</ele><time>2026-03-22T14:58:20.125Z</time></trkpt><trkpt lat="45.6256076" lon="10.8084767"><ele>650.0</ele><time>2026-03-22T14:58:22.124Z</time></trkpt><trkpt lat="45.6256744" lon="10.8084941"><ele>653.6666666666666</ele><time>2026-03-22T14:58:24.125Z</time></trkpt><trkpt lat="45.6257512" lon="10.8084607"><ele>657.3333333333333</ele><time>2026-03-22T14:58:27.124Z</time></trkpt><trkpt lat="45.6258358" lon="10.808447"><ele>661.0</ele><time>2026-03-22T14:58:30.125Z</time></trkpt><trkpt lat="45.625934" lon="10.8084666"><ele>664.6666666666666</ele><time>2026-03-22T14:58:32.125Z</time></trkpt><trkpt lat="45.6260241" lon="10.8084634"><ele>668.3333333333334</ele><time>2026-03-22T14:58:34.125Z</time></trkpt><trkpt lat="45.6261042" lon="10.8084652"><ele>672.0</ele><time>2026-03-22T14:58:36.124Z</time></trkpt><trkpt lat="45.6261896" lon="10.8084853"><ele>673.0</ele><time>2026-03-22T14:58:38.125Z</time></trkpt><trkpt lat="45.6262698" lon="10.8085355"><ele>674.0</ele><time>2026-03-22T14:58:40.124Z</time></trkpt><trkpt lat="45.6263514" lon="10.8085775"><ele>675.0</ele><time>2026-03-22T14:58:42.125Z</time></trkpt><trkpt lat="45.6264376" lon="10.8086245"><ele>676.0</ele><time>2026-03-22T14:58:44.125Z</time></trkpt><trkpt lat="45.6265083" lon="10.8086803"><ele>677.0</ele><time>2026-03-22T14:58:46.125Z</time></trkpt><trkpt lat="45.6265519" lon="10.8087714"><ele>678.0</ele><time>2026-03-22T14:58:48.125Z</time></trkpt><trkpt lat="45.626622" lon="10.8088707"><ele>678.0</ele><time>2026-03-22T14:59:02.125Z</time></trkpt><trkpt lat="45.6266313" lon="10.8089635"><ele>678.0</ele><time>2026-03-22T14:59:06.125Z</time></trkpt><trkpt lat="45.6266383" lon="10.8091052"><ele>678.0</ele><time>2026-03-22T14:59:08.124Z</time></trkpt><trkpt lat="45.6266287" lon="10.809223"><ele>678.0</ele><time>2026-03-22T14:59:10.125Z</time></trkpt><trkpt lat="45.6266501" lon="10.8093505"><ele>678.0</ele><time>2026-03-22T14:59:13.125Z</time></trkpt><trkpt lat="45.626664" lon="10.809458"><ele>678.0</ele><time>2026-03-22T14:59:14.125Z</time></trkpt><trkpt lat="45.6266828" lon="10.8096334"><ele>673.25</ele><time>2026-03-22T14:59:16.125Z</time></trkpt><trkpt lat="45.6267231" lon="10.8098012"><ele>668.5</ele><time>2026-03-22T14:59:18.125Z</time></trkpt><trkpt lat="45.6267484" lon="10.8099606"><ele>663.75</ele><time>2026-03-22T14:59:20.125Z</time></trkpt><trkpt lat="45.6267753" lon="10.8101186"><ele>659.0</ele><time>2026-03-22T14:59:22.124Z</time></trkpt><trkpt lat="45.6267824" lon="10.8102951"><ele>656.4000000000001</ele><time>2026-03-22T14:59:24.125Z</time></trkpt><trkpt lat="45.6267962" lon="10.8104518"><ele>653.8</ele><time>2026-03-22T14:59:26.125Z</time></trkpt><trkpt lat="45.626794" lon="10.8106061"><ele>651.2</ele><time>2026-03-22T14:59:28.125Z</time></trkpt><trkpt lat="45.6267903" lon="10.8107556"><ele>648.5999999999999</ele><time>2026-03-22T14:59:30.125Z</time></trkpt><trkpt lat="45.6268017" lon="10.8108669"><ele>646.0</ele><time>2026-03-22T14:59:32.126Z</time></trkpt><trkpt lat="45.6268116" lon="10.8109609"><ele>644.0</ele><time>2026-03-22T14:59:34.125Z</time></trkpt><trkpt lat="45.6268229" lon="10.8110605"><ele>642.0</ele><time>2026-03-22T14:59:36.125Z</time></trkpt><trkpt lat="45.6268282" lon="10.8111794"><ele>640.0</ele><time>2026-03-22T14:59:38.125Z</time></trkpt><trkpt lat="45.6268543" lon="10.8112876"><ele>638.0</ele><time>2026-03-22T14:59:39.125Z</time></trkpt><trkpt lat="45.6268535" lon="10.8114264"><ele>636.0</ele><time>2026-03-22T14:59:41.125Z</time></trkpt><trkpt lat="45.6268656" lon="10.8115951"><ele>636.0</ele><time>2026-03-22T14:59:43.125Z</time></trkpt><trkpt lat="45.6268639" lon="10.8117011"><ele>636.0</ele><time>2026-03-22T14:59:46.125Z</time></trkpt><trkpt lat="45.626865" lon="10.8118439"><ele>636.0</ele><time>2026-03-22T14:59:48.124Z</time></trkpt><trkpt lat="45.6268656" lon="10.8119819"><ele>636.0</ele><time>2026-03-22T14:59:50.125Z</time></trkpt><trkpt lat="45.6268642" lon="10.8121112"><ele>636.0</ele><time>2026-03-22T14:59:52.124Z</time></trkpt><trkpt lat="45.6268473" lon="10.8122637"><ele>633.8</ele><time>2026-03-22T14:59:54.125Z</time></trkpt><trkpt lat="45.6268596" lon="10.8124103"><ele>631.6</ele><time>2026-03-22T14:59:56.125Z</time></trkpt><trkpt lat="45.6268953" lon="10.8125518"><ele>629.4</ele><time>2026-03-22T14:59:58.125Z</time></trkpt><trkpt lat="45.6269075" lon="10.8126411"><ele>627.2</ele><time>2026-03-22T14:59:59.125Z</time></trkpt><trkpt lat="45.6269295" lon="10.812803"><ele>625.0</ele><time>2026-03-22T15:00:01.125Z</time></trkpt><trkpt lat="45.6269464" lon="10.8129132"><ele>624.3333333333334</ele><time>2026-03-22T15:00:03.126Z</time></trkpt><trkpt lat="45.626971" lon="10.8130714"><ele>623.6666666666667</ele><time>2026-03-22T15:00:05.125Z</time></trkpt><trkpt lat="45.6270031" lon="10.8131597"><ele>623.0</ele><time>2026-03-22T15:00:06.125Z</time></trkpt><trkpt lat="45.6270199" lon="10.8132547"><ele>622.3333333333334</ele><time>2026-03-22T15:00:07.125Z</time></trkpt><trkpt lat="45.6270525" lon="10.8133477"><ele>621.6666666666666</ele><time>2026-03-22T15:00:08.123Z</time></trkpt><trkpt lat="45.6270875" lon="10.8134229"><ele>621.0</ele><time>2026-03-22T15:00:09.125Z</time></trkpt><trkpt lat="45.6271152" lon="10.8135136"><ele>621.0</ele><time>2026-03-22T15:00:10.125Z</time></trkpt><trkpt lat="45.627165" lon="10.8136562"><ele>621.0</ele><time>2026-03-22T15:00:12.125Z</time></trkpt><trkpt lat="45.6272236" lon="10.8137793"><ele>621.0</ele><time>2026-03-22T15:00:14.124Z</time></trkpt><trkpt lat="45.6272596" lon="10.8138582"><ele>621.0</ele><time>2026-03-22T15:00:15.126Z</time></trkpt><trkpt lat="45.6272883" lon="10.8139967"><ele>621.0</ele><time>2026-03-22T15:00:17.125Z</time></trkpt><trkpt lat="45.6273211" lon="10.8141149"><ele>621.0</ele><time>2026-03-22T15:00:19.125Z</time></trkpt><trkpt lat="45.6273474" lon="10.8142047"><ele>621.0</ele><time>2026-03-22T15:00:20.125Z</time></trkpt><trkpt lat="45.627361" lon="10.814346"><ele>621.0</ele><time>2026-03-22T15:00:22.125Z</time></trkpt><trkpt lat="45.6273949" lon="10.8144743"><ele>621.0</ele><time>2026-03-22T15:00:24.125Z</time></trkpt><trkpt lat="45.6274375" lon="10.8145901"><ele>621.0</ele><time>2026-03-22T15:00:26.125Z</time></trkpt><trkpt lat="45.6274549" lon="10.8146854"><ele>621.0</ele><time>2026-03-22T15:00:27.125Z</time></trkpt><trkpt lat="45.6274857" lon="10.8148671"><ele>618.0</ele><time>2026-03-22T15:00:29.125Z</time></trkpt><trkpt lat="45.6275285" lon="10.8150257"><ele>615.0</ele><time>2026-03-22T15:00:31.125Z</time></trkpt><trkpt lat="45.6275534" lon="10.8151372"><ele>612.0</ele><time>2026-03-22T15:00:33.125Z</time></trkpt><trkpt lat="45.6275156" lon="10.815229"><ele>609.0</ele><time>2026-03-22T15:00:36.125Z</time></trkpt><trkpt lat="45.6274423" lon="10.8151512"><ele>606.0</ele><time>2026-03-22T15:00:39.125Z</time></trkpt><trkpt lat="45.6273864" lon="10.8150901"><ele>603.0</ele><time>2026-03-22T15:00:41.126Z</time></trkpt><trkpt lat="45.6273121" lon="10.8150342"><ele>603.0</ele><time>2026-03-22T15:00:44.125Z</time></trkpt><trkpt lat="45.6272423" lon="10.815048"><ele>603.0</ele><time>2026-03-22T15:00:47.125Z</time></trkpt><trkpt lat="45.6272283" lon="10.8151507"><ele>603.0</ele><time>2026-03-22T15:00:49.126Z</time></trkpt><trkpt lat="45.6272555" lon="10.8152436"><ele>603.0</ele><time>2026-03-22T15:00:51.125Z</time></trkpt><trkpt lat="45.6272943" lon="10.8153235"><ele>603.0</ele><time>2026-03-22T15:00:53.125Z</time></trkpt><trkpt lat="45.6273408" lon="10.8154145"><ele>603.0</ele><time>2026-03-22T15:00:55.125Z</time></trkpt><trkpt lat="45.6273845" lon="10.8155187"><ele>603.0</ele><time>2026-03-22T15:00:58.125Z</time></trkpt><trkpt lat="45.6273845" lon="10.8156186"><ele>600.4</ele><time>2026-03-22T15:01:00.125Z</time></trkpt><trkpt lat="45.6274048" lon="10.8157186"><ele>597.8</ele><time>2026-03-22T15:01:02.125Z</time></trkpt><trkpt lat="45.6274114" lon="10.8158308"><ele>595.2</ele><time>2026-03-22T15:01:04.125Z</time></trkpt><trkpt lat="45.627388" lon="10.8159853"><ele>592.6</ele><time>2026-03-22T15:01:06.126Z</time></trkpt><trkpt lat="45.6273668" lon="10.8161379"><ele>590.0</ele><time>2026-03-22T15:01:08.125Z</time></trkpt><trkpt lat="45.6273627" lon="10.8162597"><ele>587.1666666666666</ele><time>2026-03-22T15:01:10.125Z</time></trkpt><trkpt lat="45.6274047" lon="10.8164086"><ele>584.3333333333333</ele><time>2026-03-22T15:01:12.125Z</time></trkpt><trkpt lat="45.6274594" lon="10.816557"><ele>581.5</ele><time>2026-03-22T15:01:14.124Z</time></trkpt><trkpt lat="45.6274926" lon="10.8166356"><ele>578.6666666666666</ele><time>2026-03-22T15:01:15.125Z</time></trkpt><trkpt lat="45.6275306" lon="10.8167175"><ele>575.8333333333334</ele><time>2026-03-22T15:01:16.125Z</time></trkpt><trkpt lat="45.6275689" lon="10.8168231"><ele>573.0</ele><time>2026-03-22T15:01:17.125Z</time></trkpt><trkpt lat="45.6276055" lon="10.8169306"><ele>571.1999999999999</ele><time>2026-03-22T15:01:18.125Z</time></trkpt><trkpt lat="45.6276375" lon="10.8170562"><ele>569.4</ele><time>2026-03-22T15:01:19.125Z</time></trkpt><trkpt lat="45.6276698" lon="10.8171955"><ele>567.5999999999999</ele><time>2026-03-22T15:01:20.124Z</time></trkpt><trkpt lat="45.6277012" lon="10.8173452"><ele>565.8</ele><time>2026-03-22T15:01:21.125Z</time></trkpt><trkpt lat="45.6277261" lon="10.8174809"><ele>564.0</ele><time>2026-03-22T15:01:22.125Z</time></trkpt><trkpt lat="45.6277509" lon="10.8176277"><ele>564.0</ele><time>2026-03-22T15:01:23.125Z</time></trkpt><trkpt lat="45.6277698" lon="10.8177648"><ele>564.0</ele><time>2026-03-22T15:01:24.125Z</time></trkpt><trkpt lat="45.6277861" lon="10.8178839"><ele>564.0</ele><time>2026-03-22T15:01:25.125Z</time></trkpt><trkpt lat="45.6278003" lon="10.8179946"><ele>564.0</ele><time>2026-03-22T15:01:26.125Z</time></trkpt><trkpt lat="45.6278168" lon="10.8181041"><ele>564.0</ele><time>2026-03-22T15:01:27.125Z</time></trkpt><trkpt lat="45.627832" lon="10.8182207"><ele>564.0</ele><time>2026-03-22T15:01:28.125Z</time></trkpt><trkpt lat="45.6278576" lon="10.8183318"><ele>568.6</ele><time>2026-03-22T15:01:29.125Z</time></trkpt><trkpt lat="45.6278842" lon="10.818453"><ele>573.2</ele><time>2026-03-22T15:01:30.125Z</time></trkpt><trkpt lat="45.627912" lon="10.8185846"><ele>577.8000000000001</ele><time>2026-03-22T15:01:31.124Z</time></trkpt><trkpt lat="45.6279434" lon="10.818713"><ele>582.4</ele><time>2026-03-22T15:01:32.125Z</time></trkpt><trkpt lat="45.6279815" lon="10.8188462"><ele>587.0</ele><time>2026-03-22T15:01:33.125Z</time></trkpt><trkpt lat="45.6280157" lon="10.8189719"><ele>587.0</ele><time>2026-03-22T15:01:34.125Z</time></trkpt><trkpt lat="45.6280395" lon="10.819072"><ele>587.0</ele><time>2026-03-22T15:01:35.125Z</time></trkpt><trkpt lat="45.6280578" lon="10.819172"><ele>587.0</ele><time>2026-03-22T15:01:36.125Z</time></trkpt><trkpt lat="45.6280717" lon="10.8192932"><ele>587.0</ele><time>2026-03-22T15:01:37.125Z</time></trkpt><trkpt lat="45.6280935" lon="10.819397"><ele>587.0</ele><time>2026-03-22T15:01:38.125Z</time></trkpt><trkpt lat="45.6281246" lon="10.8195011"><ele>587.0</ele><time>2026-03-22T15:01:39.125Z</time></trkpt><trkpt lat="45.6281311" lon="10.8196087"><ele>585.0</ele><time>2026-03-22T15:01:40.125Z</time></trkpt><trkpt lat="45.6281337" lon="10.8197098"><ele>583.0</ele><time>2026-03-22T15:01:41.125Z</time></trkpt><trkpt lat="45.6281302" lon="10.819817"><ele>581.0</ele><time>2026-03-22T15:01:42.125Z</time></trkpt><trkpt lat="45.6281363" lon="10.8199374"><ele>579.0</ele><time>2026-03-22T15:01:43.125Z</time></trkpt><trkpt lat="45.6281398" lon="10.8200457"><ele>577.0</ele><time>2026-03-22T15:01:44.125Z</time></trkpt><trkpt lat="45.6281564" lon="10.8201659"><ele>575.0</ele><time>2026-03-22T15:01:45.125Z</time></trkpt><trkpt lat="45.6281732" lon="10.8202571"><ele>573.3333333333333</ele><time>2026-03-22T15:01:46.125Z</time></trkpt><trkpt lat="45.6282017" lon="10.8203654"><ele>571.6666666666666</ele><time>2026-03-22T15:01:47.125Z</time></trkpt><trkpt lat="45.6282451" lon="10.8204751"><ele>570.0</ele><time>2026-03-22T15:01:48.125Z</time></trkpt><trkpt lat="45.6282957" lon="10.8205631"><ele>568.3333333333334</ele><time>2026-03-22T15:01:49.124Z</time></trkpt><trkpt lat="45.6283354" lon="10.8206657"><ele>566.6666666666667</ele><time>2026-03-22T15:01:50.125Z</time></trkpt><trkpt lat="45.6283637" lon="10.8207671"><ele>565.0</ele><time>2026-03-22T15:01:51.125Z</time></trkpt><trkpt lat="45.6283906" lon="10.8208627"><ele>565.0</ele><time>2026-03-22T15:01:52.125Z</time></trkpt><trkpt lat="45.628412" lon="10.8209577"><ele>565.0</ele><time>2026-03-22T15:01:53.125Z</time></trkpt><trkpt lat="45.6284082" lon="10.821075"><ele>565.0</ele><time>2026-03-22T15:01:54.125Z</time></trkpt><trkpt lat="45.6283607" lon="10.8212566"><ele>565.0</ele><time>2026-03-22T15:01:56.125Z</time></trkpt><trkpt lat="45.6283173" lon="10.8213438"><ele>565.0</ele><time>2026-03-22T15:01:57.125Z</time></trkpt><trkpt lat="45.6282798" lon="10.8214223"><ele>565.0</ele><time>2026-03-22T15:01:58.125Z</time></trkpt><trkpt lat="45.6282376" lon="10.8215652"><ele>564.0</ele><time>2026-03-22T15:02:00.125Z</time></trkpt><trkpt lat="45.6281876" lon="10.8216955"><ele>563.0</ele><time>2026-03-22T15:02:02.125Z</time></trkpt><trkpt lat="45.6281542" lon="10.8218244"><ele>562.0</ele><time>2026-03-22T15:02:04.124Z</time></trkpt><trkpt lat="45.6281629" lon="10.8219429"><ele>561.0</ele><time>2026-03-22T15:02:06.126Z</time></trkpt><trkpt lat="45.6281617" lon="10.8220608"><ele>560.0</ele><time>2026-03-22T15:02:08.125Z</time></trkpt><trkpt lat="45.6281505" lon="10.822207"><ele>559.8333333333333</ele><time>2026-03-22T15:02:10.125Z</time></trkpt><trkpt lat="45.6281654" lon="10.82231"><ele>559.6666666666666</ele><time>2026-03-22T15:02:11.124Z</time></trkpt><trkpt lat="45.6282218" lon="10.8224612"><ele>559.5</ele><time>2026-03-22T15:02:13.125Z</time></trkpt><trkpt lat="45.6282655" lon="10.8225472"><ele>559.3333333333334</ele><time>2026-03-22T15:02:14.124Z</time></trkpt><trkpt lat="45.6283083" lon="10.8226645"><ele>559.1666666666667</ele><time>2026-03-22T15:02:15.125Z</time></trkpt><trkpt lat="45.6283308" lon="10.8227578"><ele>559.0</ele><time>2026-03-22T15:02:16.125Z</time></trkpt><trkpt lat="45.6283638" lon="10.8228884"><ele>558.5</ele><time>2026-03-22T15:02:18.125Z</time></trkpt><trkpt lat="45.6284295" lon="10.8229389"><ele>558.0</ele><time>2026-03-22T15:02:20.125Z</time></trkpt><trkpt lat="45.6284901" lon="10.8229741"><ele>557.5</ele><time>2026-03-22T15:02:22.125Z</time></trkpt><trkpt lat="45.6284594" lon="10.8231034"><ele>557.0</ele><time>2026-03-22T15:02:25.125Z</time></trkpt><trkpt lat="45.6283514" lon="10.8231857"><ele>556.5</ele><time>2026-03-22T15:02:27.125Z</time></trkpt><trkpt lat="45.6282938" lon="10.8232287"><ele>556.0</ele><time>2026-03-22T15:02:28.125Z</time></trkpt><trkpt lat="45.6282245" lon="10.823289"><ele>556.0</ele><time>2026-03-22T15:02:29.125Z</time></trkpt><trkpt lat="45.6281389" lon="10.8233787"><ele>556.0</ele><time>2026-03-22T15:02:30.124Z</time></trkpt><trkpt lat="45.6280364" lon="10.8234613"><ele>556.0</ele><time>2026-03-22T15:02:31.125Z</time></trkpt><trkpt lat="45.6279494" lon="10.8235303"><ele>556.0</ele><time>2026-03-22T15:02:32.125Z</time></trkpt><trkpt lat="45.6278762" lon="10.8236024"><ele>556.0</ele><time>2026-03-22T15:02:33.124Z</time></trkpt><trkpt lat="45.6278235" lon="10.8236684"><ele>554.5</ele><time>2026-03-22T15:02:34.125Z</time></trkpt><trkpt lat="45.627763" lon="10.8237274"><ele>553.0</ele><time>2026-03-22T15:02:36.125Z</time></trkpt><trkpt lat="45.6276757" lon="10.8237207"><ele>551.5</ele><time>2026-03-22T15:02:39.125Z</time></trkpt><trkpt lat="45.6276149" lon="10.8236889"><ele>550.0</ele><time>2026-03-22T15:02:40.124Z</time></trkpt><trkpt lat="45.6275339" lon="10.8236562"><ele>548.5</ele><time>2026-03-22T15:02:41.126Z</time></trkpt><trkpt lat="45.6274467" lon="10.8236173"><ele>547.0</ele><time>2026-03-22T15:02:42.124Z</time></trkpt><trkpt lat="45.6273658" lon="10.8235674"><ele>547.0</ele><time>2026-03-22T15:02:43.125Z</time></trkpt><trkpt lat="45.6272929" lon="10.8235033"><ele>547.0</ele><time>2026-03-22T15:02:44.126Z</time></trkpt><trkpt lat="45.6272191" lon="10.8234333"><ele>547.0</ele><time>2026-03-22T15:02:45.125Z</time></trkpt><trkpt lat="45.6271512" lon="10.8233609"><ele>547.0</ele><time>2026-03-22T15:02:46.125Z</time></trkpt><trkpt lat="45.6270935" lon="10.8232864"><ele>547.0</ele><time>2026-03-22T15:02:47.125Z</time></trkpt><trkpt lat="45.6270476" lon="10.8232123"><ele>547.0</ele><time>2026-03-22T15:02:48.125Z</time></trkpt><trkpt lat="45.6269936" lon="10.8231606"><ele>546.6</ele><time>2026-03-22T15:02:49.126Z</time></trkpt><trkpt lat="45.6268826" lon="10.8231664"><ele>546.2</ele><time>2026-03-22T15:02:51.125Z</time></trkpt><trkpt lat="45.6268133" lon="10.8232902"><ele>545.8</ele><time>2026-03-22T15:02:53.125Z</time></trkpt><trkpt lat="45.6268283" lon="10.8234508"><ele>545.4</ele><time>2026-03-22T15:02:55.125Z</time></trkpt><trkpt lat="45.6268704" lon="10.8235236"><ele>545.0</ele><time>2026-03-22T15:02:56.125Z</time></trkpt><trkpt lat="45.62692" lon="10.8236137"><ele>545.3333333333333</ele><time>2026-03-22T15:02:57.126Z</time></trkpt><trkpt lat="45.6269736" lon="10.8237144"><ele>545.6666666666666</ele><time>2026-03-22T15:02:58.125Z</time></trkpt><trkpt lat="45.6270275" lon="10.8238076"><ele>546.0</ele><time>2026-03-22T15:02:59.124Z</time></trkpt><trkpt lat="45.6270786" lon="10.8238982"><ele>546.3333333333334</ele><time>2026-03-22T15:03:00.126Z</time></trkpt><trkpt lat="45.6271276" lon="10.8239849"><ele>546.6666666666667</ele><time>2026-03-22T15:03:01.125Z</time></trkpt><trkpt lat="45.6271753" lon="10.8240631"><ele>547.0</ele><time>2026-03-22T15:03:02.125Z</time></trkpt><trkpt lat="45.6272172" lon="10.8241462"><ele>547.0</ele><time>2026-03-22T15:03:03.125Z</time></trkpt><trkpt lat="45.6272565" lon="10.8242235"><ele>547.0</ele><time>2026-03-22T15:03:04.125Z</time></trkpt><trkpt lat="45.627303" lon="10.8243104"><ele>547.0</ele><time>2026-03-22T15:03:05.126Z</time></trkpt><trkpt lat="45.6273514" lon="10.8244085"><ele>547.0</ele><time>2026-03-22T15:03:06.125Z</time></trkpt><trkpt lat="45.6273938" lon="10.824521"><ele>547.0</ele><time>2026-03-22T15:03:07.125Z</time></trkpt><trkpt lat="45.6274393" lon="10.8246427"><ele>547.0</ele><time>2026-03-22T15:03:08.125Z</time></trkpt><trkpt lat="45.6274826" lon="10.8247755"><ele>545.8333333333334</ele><time>2026-03-22T15:03:09.125Z</time></trkpt><trkpt lat="45.6275063" lon="10.8248965"><ele>544.6666666666667</ele><time>2026-03-22T15:03:10.125Z</time></trkpt><trkpt lat="45.6275109" lon="10.8250243"><ele>543.5</ele><time>2026-03-22T15:03:11.125Z</time></trkpt><trkpt lat="45.6274957" lon="10.8251366"><ele>542.3333333333334</ele><time>2026-03-22T15:03:12.125Z</time></trkpt><trkpt lat="45.6274601" lon="10.8252364"><ele>541.1666666666666</ele><time>2026-03-22T15:03:13.125Z</time></trkpt><trkpt lat="45.6274031" lon="10.825308"><ele>540.0</ele><time>2026-03-22T15:03:14.125Z</time></trkpt><trkpt lat="45.6273328" lon="10.8253373"><ele>540.0</ele><time>2026-03-22T15:03:15.124Z</time></trkpt><trkpt lat="45.6272548" lon="10.8253139"><ele>540.0</ele><time>2026-03-22T15:03:16.126Z</time></trkpt><trkpt lat="45.6271654" lon="10.8252612"><ele>540.0</ele><time>2026-03-22T15:03:17.125Z</time></trkpt><trkpt lat="45.6270679" lon="10.8251936"><ele>540.0</ele><time>2026-03-22T15:03:18.125Z</time></trkpt><trkpt lat="45.626973" lon="10.825128"><ele>540.0</ele><time>2026-03-22T15:03:19.125Z</time></trkpt><trkpt lat="45.6268767" lon="10.8250817"><ele>536.8</ele><time>2026-03-22T15:03:20.125Z</time></trkpt><trkpt lat="45.6267814" lon="10.8250739"><ele>533.6</ele><time>2026-03-22T15:03:21.125Z</time></trkpt><trkpt lat="45.626695" lon="10.825104"><ele>530.4</ele><time>2026-03-22T15:03:22.125Z</time></trkpt><trkpt lat="45.6266131" lon="10.8251584"><ele>527.2</ele><time>2026-03-22T15:03:23.125Z</time></trkpt><trkpt lat="45.6265317" lon="10.8252292"><ele>524.0</ele><time>2026-03-22T15:03:24.125Z</time></trkpt><trkpt lat="45.6264599" lon="10.8253105"><ele>524.0</ele><time>2026-03-22T15:03:25.125Z</time></trkpt><trkpt lat="45.626404" lon="10.8254065"><ele>524.0</ele><time>2026-03-22T15:03:26.124Z</time></trkpt><trkpt lat="45.6263649" lon="10.8255097"><ele>524.0</ele><time>2026-03-22T15:03:27.125Z</time></trkpt><trkpt lat="45.626337" lon="10.8256133"><ele>524.0</ele><time>2026-03-22T15:03:28.124Z</time></trkpt><trkpt lat="45.6263324" lon="10.8257229"><ele>524.0</ele><time>2026-03-22T15:03:29.125Z</time></trkpt><trkpt lat="45.6263486" lon="10.8258424"><ele>524.0</ele><time>2026-03-22T15:03:30.125Z</time></trkpt><trkpt lat="45.6263869" lon="10.8259449"><ele>523.6</ele><time>2026-03-22T15:03:31.125Z</time></trkpt><trkpt lat="45.6264351" lon="10.8260664"><ele>523.2</ele><time>2026-03-22T15:03:32.126Z</time></trkpt><trkpt lat="45.6264872" lon="10.8261851"><ele>522.8000000000001</ele><time>2026-03-22T15:03:33.125Z</time></trkpt><trkpt lat="45.6265447" lon="10.8262982"><ele>522.4</ele><time>2026-03-22T15:03:34.125Z</time></trkpt><trkpt lat="45.6266104" lon="10.8264203"><ele>522.0</ele><time>2026-03-22T15:03:35.125Z</time></trkpt><trkpt lat="45.6266709" lon="10.8265455"><ele>522.0</ele><time>2026-03-22T15:03:36.125Z</time></trkpt><trkpt lat="45.6267273" lon="10.8266713"><ele>522.0</ele><time>2026-03-22T15:03:37.126Z</time></trkpt><trkpt lat="45.6267828" lon="10.8267873"><ele>522.0</ele><time>2026-03-22T15:03:38.125Z</time></trkpt><trkpt lat="45.6268429" lon="10.8268768"><ele>522.0</ele><time>2026-03-22T15:03:39.126Z</time></trkpt><trkpt lat="45.6269114" lon="10.8269758"><ele>522.0</ele><time>2026-03-22T15:03:40.125Z</time></trkpt><trkpt lat="45.6269892" lon="10.8270693"><ele>520.25</ele><time>2026-03-22T15:03:41.126Z</time></trkpt><trkpt lat="45.6270766" lon="10.8271606"><ele>518.5</ele><time>2026-03-22T15:03:42.125Z</time></trkpt><trkpt lat="45.6271826" lon="10.8272449"><ele>516.75</ele><time>2026-03-22T15:03:43.127Z</time></trkpt><trkpt lat="45.6273014" lon="10.8273329"><ele>515.0</ele><time>2026-03-22T15:03:44.125Z</time></trkpt><trkpt lat="45.6274155" lon="10.8274249"><ele>515.0</ele><time>2026-03-22T15:03:45.125Z</time></trkpt><trkpt lat="45.6275191" lon="10.8275095"><ele>515.0</ele><time>2026-03-22T15:03:46.124Z</time></trkpt><trkpt lat="45.6276217" lon="10.8275891"><ele>515.0</ele><time>2026-03-22T15:03:47.125Z</time></trkpt><trkpt lat="45.6277122" lon="10.8276819"><ele>515.0</ele><time>2026-03-22T15:03:48.126Z</time></trkpt><trkpt lat="45.6277957" lon="10.8277883"><ele>513.0</ele><time>2026-03-22T15:03:49.124Z</time></trkpt><trkpt lat="45.6278731" lon="10.8279036"><ele>511.0</ele><time>2026-03-22T15:03:50.125Z</time></trkpt><trkpt lat="45.627957" lon="10.8280151"><ele>509.0</ele><time>2026-03-22T15:03:51.126Z</time></trkpt><trkpt lat="45.6280413" lon="10.8281126"><ele>507.0</ele><time>2026-03-22T15:03:52.126Z</time></trkpt><trkpt lat="45.6281244" lon="10.8281885"><ele>505.0</ele><time>2026-03-22T15:03:53.124Z</time></trkpt><trkpt lat="45.6282173" lon="10.8282344"><ele>505.00000000000006</ele><time>2026-03-22T15:03:54.126Z</time></trkpt><trkpt lat="45.6283136" lon="10.8282647"><ele>505.0</ele><time>2026-03-22T15:03:55.125Z</time></trkpt><trkpt lat="45.628407" lon="10.8282934"><ele>505.0</ele><time>2026-03-22T15:03:56.124Z</time></trkpt><trkpt lat="45.6284987" lon="10.8283128"><ele>505.0</ele><time>2026-03-22T15:03:57.124Z</time></trkpt><trkpt lat="45.6285709" lon="10.8283284"><ele>505.00000000000006</ele><time>2026-03-22T15:03:58.126Z</time></trkpt><trkpt lat="45.6286465" lon="10.8283501"><ele>505.0</ele><time>2026-03-22T15:03:59.125Z</time></trkpt><trkpt lat="45.6287131" lon="10.8283575"><ele>503.83333333333337</ele><time>2026-03-22T15:04:00.126Z</time></trkpt><trkpt lat="45.6287692" lon="10.8284179"><ele>502.6666666666667</ele><time>2026-03-22T15:04:02.125Z</time></trkpt><trkpt lat="45.6287024" lon="10.8284891"><ele>501.5</ele><time>2026-03-22T15:04:05.125Z</time></trkpt><trkpt lat="45.6285873" lon="10.8284883"><ele>500.33333333333337</ele><time>2026-03-22T15:04:07.125Z</time></trkpt><trkpt lat="45.6285122" lon="10.8284876"><ele>499.1666666666667</ele><time>2026-03-22T15:04:08.125Z</time></trkpt><trkpt lat="45.6284109" lon="10.8284974"><ele>498.0</ele><time>2026-03-22T15:04:09.124Z</time></trkpt><trkpt lat="45.6282995" lon="10.8285036"><ele>495.5</ele><time>2026-03-22T15:04:10.126Z</time></trkpt><trkpt lat="45.6281858" lon="10.8285118"><ele>493.0</ele><time>2026-03-22T15:04:11.125Z</time></trkpt><trkpt lat="45.6280579" lon="10.8285119"><ele>490.5</ele><time>2026-03-22T15:04:12.125Z</time></trkpt><trkpt lat="45.627921" lon="10.8285082"><ele>488.0</ele><time>2026-03-22T15:04:13.125Z</time></trkpt><trkpt lat="45.6277718" lon="10.8285029"><ele>489.75</ele><time>2026-03-22T15:04:14.126Z</time></trkpt><trkpt lat="45.6276254" lon="10.8284943"><ele>491.5</ele><time>2026-03-22T15:04:15.125Z</time></trkpt><trkpt lat="45.6274896" lon="10.8284828"><ele>493.25</ele><time>2026-03-22T15:04:16.127Z</time></trkpt><trkpt lat="45.6273632" lon="10.8284741"><ele>495.0</ele><time>2026-03-22T15:04:17.125Z</time></trkpt><trkpt lat="45.6272507" lon="10.8284674"><ele>495.0</ele><time>2026-03-22T15:04:18.125Z</time></trkpt><trkpt lat="45.6271616" lon="10.8284691"><ele>495.0</ele><time>2026-03-22T15:04:19.125Z</time></trkpt><trkpt lat="45.6270858" lon="10.8284715"><ele>495.0</ele><time>2026-03-22T15:04:20.125Z</time></trkpt><trkpt lat="45.6270214" lon="10.828482"><ele>495.0</ele><time>2026-03-22T15:04:21.125Z</time></trkpt><trkpt lat="45.6269395" lon="10.8285685"><ele>495.0</ele><time>2026-03-22T15:04:23.125Z</time></trkpt><trkpt lat="45.6268704" lon="10.8286791"><ele>495.0</ele><time>2026-03-22T15:04:25.125Z</time></trkpt><trkpt lat="45.6267824" lon="10.8288092"><ele>491.5</ele><time>2026-03-22T15:04:27.125Z</time></trkpt><trkpt lat="45.6267368" lon="10.8288758"><ele>488.0</ele><time>2026-03-22T15:04:28.124Z</time></trkpt><trkpt lat="45.6266779" lon="10.828931"><ele>484.5</ele><time>2026-03-22T15:04:29.125Z</time></trkpt><trkpt lat="45.6265545" lon="10.8289849"><ele>481.0</ele><time>2026-03-22T15:04:31.125Z</time></trkpt><trkpt lat="45.6264777" lon="10.828985"><ele>477.5</ele><time>2026-03-22T15:04:32.126Z</time></trkpt><trkpt lat="45.6264077" lon="10.8289745"><ele>474.0</ele><time>2026-03-22T15:04:33.125Z</time></trkpt><trkpt lat="45.6263242" lon="10.8289665"><ele>474.0</ele><time>2026-03-22T15:04:34.124Z</time></trkpt><trkpt lat="45.626241" lon="10.8289731"><ele>474.0</ele><time>2026-03-22T15:04:35.125Z</time></trkpt><trkpt lat="45.6261578" lon="10.8289734"><ele>474.0</ele><time>2026-03-22T15:04:36.125Z</time></trkpt><trkpt lat="45.6260711" lon="10.8289752"><ele>474.0</ele><time>2026-03-22T15:04:37.125Z</time></trkpt><trkpt lat="45.6259585" lon="10.8289954"><ele>474.0</ele><time>2026-03-22T15:04:38.124Z</time></trkpt><trkpt lat="45.6258643" lon="10.8290064"><ele>472.2</ele><time>2026-03-22T15:04:39.125Z</time></trkpt><trkpt lat="45.6257718" lon="10.8290135"><ele>470.4</ele><time>2026-03-22T15:04:40.125Z</time></trkpt><trkpt lat="45.6256771" lon="10.8290288"><ele>468.6</ele><time>2026-03-22T15:04:41.126Z</time></trkpt><trkpt lat="45.6255817" lon="10.8290501"><ele>466.8</ele><time>2026-03-22T15:04:42.125Z</time></trkpt><trkpt lat="45.6254959" lon="10.8290702"><ele>465.0</ele><time>2026-03-22T15:04:43.125Z</time></trkpt><trkpt lat="45.6253974" lon="10.8290818"><ele>462.3333333333333</ele><time>2026-03-22T15:04:44.125Z</time></trkpt><trkpt lat="45.6253119" lon="10.8290807"><ele>459.66666666666663</ele><time>2026-03-22T15:04:45.126Z</time></trkpt><trkpt lat="45.6252267" lon="10.829068"><ele>457.0</ele><time>2026-03-22T15:04:46.125Z</time></trkpt><trkpt lat="45.6251341" lon="10.829067"><ele>454.3333333333333</ele><time>2026-03-22T15:04:47.126Z</time></trkpt><trkpt lat="45.6250489" lon="10.8290608"><ele>451.66666666666663</ele><time>2026-03-22T15:04:48.125Z</time></trkpt><trkpt lat="45.6249573" lon="10.8290702"><ele>449.0</ele><time>2026-03-22T15:04:49.125Z</time></trkpt><trkpt lat="45.6248652" lon="10.8290819"><ele>448.99999999999994</ele><time>2026-03-22T15:04:50.125Z</time></trkpt><trkpt lat="45.6247755" lon="10.8291015"><ele>449.0</ele><time>2026-03-22T15:04:51.126Z</time></trkpt><trkpt lat="45.6246897" lon="10.8291252"><ele>449.0</ele><time>2026-03-22T15:04:52.125Z</time></trkpt><trkpt lat="45.6246047" lon="10.8291432"><ele>449.0</ele><time>2026-03-22T15:04:53.125Z</time></trkpt><trkpt lat="45.6245149" lon="10.8291383"><ele>448.99999999999994</ele><time>2026-03-22T15:04:54.126Z</time></trkpt><trkpt lat="45.624429" lon="10.8291107"><ele>449.0</ele><time>2026-03-22T15:04:55.125Z</time></trkpt><trkpt lat="45.6243487" lon="10.8290567"><ele>446.2</ele><time>2026-03-22T15:04:56.125Z</time></trkpt><trkpt lat="45.6242644" lon="10.8289955"><ele>443.4</ele><time>2026-03-22T15:04:57.125Z</time></trkpt><trkpt lat="45.6241824" lon="10.8289398"><ele>440.6</ele><time>2026-03-22T15:04:58.125Z</time></trkpt><trkpt lat="45.6240963" lon="10.8288813"><ele>437.8</ele><time>2026-03-22T15:04:59.126Z</time></trkpt><trkpt lat="45.6240088" lon="10.8288226"><ele>435.0</ele><time>2026-03-22T15:05:00.125Z</time></trkpt><trkpt lat="45.6239144" lon="10.8287833"><ele>435.0</ele><time>2026-03-22T15:05:01.125Z</time></trkpt><trkpt lat="45.6238258" lon="10.8287455"><ele>435.0</ele><time>2026-03-22T15:05:02.125Z</time></trkpt><trkpt lat="45.6237336" lon="10.8287253"><ele>435.0</ele><time>2026-03-22T15:05:03.125Z</time></trkpt><trkpt lat="45.6236441" lon="10.8287437"><ele>435.0</ele><time>2026-03-22T15:05:04.125Z</time></trkpt><trkpt lat="45.6235577" lon="10.8287726"><ele>435.0</ele><time>2026-03-22T15:05:05.125Z</time></trkpt><trkpt lat="45.6234775" lon="10.8288016"><ele>435.0</ele><time>2026-03-22T15:05:06.126Z</time></trkpt><trkpt lat="45.6233897" lon="10.8288173"><ele>433.2</ele><time>2026-03-22T15:05:07.125Z</time></trkpt><trkpt lat="45.6232981" lon="10.8288107"><ele>431.4</ele><time>2026-03-22T15:05:08.124Z</time></trkpt><trkpt lat="45.6232057" lon="10.8287982"><ele>429.6</ele><time>2026-03-22T15:05:09.125Z</time></trkpt><trkpt lat="45.6231036" lon="10.8287919"><ele>427.8</ele><time>2026-03-22T15:05:10.126Z</time></trkpt><trkpt lat="45.6229936" lon="10.8287757"><ele>426.0</ele><time>2026-03-22T15:05:11.125Z</time></trkpt><trkpt lat="45.6228779" lon="10.8287431"><ele>427.0</ele><time>2026-03-22T15:05:12.125Z</time></trkpt><trkpt lat="45.622767" lon="10.8286884"><ele>428.0</ele><time>2026-03-22T15:05:13.125Z</time></trkpt><trkpt lat="45.6226631" lon="10.828637"><ele>429.0</ele><time>2026-03-22T15:05:14.125Z</time></trkpt><trkpt lat="45.6225603" lon="10.828583"><ele>430.0</ele><time>2026-03-22T15:05:15.124Z</time></trkpt><trkpt lat="45.6224641" lon="10.8285205"><ele>431.0</ele><time>2026-03-22T15:05:16.125Z</time></trkpt><trkpt lat="45.6223752" lon="10.8284441"><ele>431.0</ele><time>2026-03-22T15:05:17.125Z</time></trkpt><trkpt lat="45.6222864" lon="10.8283687"><ele>431.0</ele><time>2026-03-22T15:05:18.125Z</time></trkpt><trkpt lat="45.6222003" lon="10.8283035"><ele>431.0</ele><time>2026-03-22T15:05:19.125Z</time></trkpt><trkpt lat="45.622117" lon="10.8282406"><ele>431.0</ele><time>2026-03-22T15:05:20.125Z</time></trkpt><trkpt lat="45.6220373" lon="10.8281727"><ele>431.0</ele><time>2026-03-22T15:05:21.126Z</time></trkpt><trkpt lat="45.6219593" lon="10.8281179"><ele>429.49999999999994</ele><time>2026-03-22T15:05:22.126Z</time></trkpt><trkpt lat="45.6218867" lon="10.8280442"><ele>428.0</ele><time>2026-03-22T15:05:23.125Z</time></trkpt><trkpt lat="45.6218261" lon="10.8279629"><ele>426.5</ele><time>2026-03-22T15:05:24.124Z</time></trkpt><trkpt lat="45.6217684" lon="10.8278706"><ele>425.0</ele><time>2026-03-22T15:05:25.125Z</time></trkpt><trkpt lat="45.6217105" lon="10.82777"><ele>423.49999999999994</ele><time>2026-03-22T15:05:26.125Z</time></trkpt><trkpt lat="45.6216642" lon="10.8276651"><ele>422.0</ele><time>2026-03-22T15:05:27.125Z</time></trkpt><trkpt lat="45.6216077" lon="10.827564"><ele>421.99999999999994</ele><time>2026-03-22T15:05:28.125Z</time></trkpt><trkpt lat="45.6215504" lon="10.8274642"><ele>422.0</ele><time>2026-03-22T15:05:29.124Z</time></trkpt><trkpt lat="45.6214943" lon="10.8273739"><ele>422.0</ele><time>2026-03-22T15:05:30.126Z</time></trkpt><trkpt lat="45.62144" lon="10.8272769"><ele>422.0</ele><time>2026-03-22T15:05:31.125Z</time></trkpt><trkpt lat="45.6213818" lon="10.8271805"><ele>421.99999999999994</ele><time>2026-03-22T15:05:32.125Z</time></trkpt><trkpt lat="45.6213068" lon="10.8271001"><ele>422.0</ele><time>2026-03-22T15:05:33.125Z</time></trkpt><trkpt lat="45.6212223" lon="10.8270257"><ele>420.16666666666663</ele><time>2026-03-22T15:05:34.125Z</time></trkpt><trkpt lat="45.6211427" lon="10.8269546"><ele>418.3333333333333</ele><time>2026-03-22T15:05:35.124Z</time></trkpt><trkpt lat="45.6210674" lon="10.8268799"><ele>416.5</ele><time>2026-03-22T15:05:36.125Z</time></trkpt><trkpt lat="45.6209979" lon="10.8268151"><ele>414.66666666666663</ele><time>2026-03-22T15:05:37.125Z</time></trkpt><trkpt lat="45.6209306" lon="10.8267422"><ele>412.8333333333333</ele><time>2026-03-22T15:05:38.125Z</time></trkpt><trkpt lat="45.6208532" lon="10.8266721"><ele>411.0</ele><time>2026-03-22T15:05:39.125Z</time></trkpt><trkpt lat="45.6207771" lon="10.8265938"><ele>411.0</ele><time>2026-03-22T15:05:40.124Z</time></trkpt><trkpt lat="45.6207075" lon="10.8265075"><ele>411.0</ele><time>2026-03-22T15:05:41.125Z</time></trkpt><trkpt lat="45.6206398" lon="10.8264342"><ele>411.0</ele><time>2026-03-22T15:05:42.126Z</time></trkpt><trkpt lat="45.6205671" lon="10.8263655"><ele>411.0</ele><time>2026-03-22T15:05:43.125Z</time></trkpt><trkpt lat="45.6204917" lon="10.8263215"><ele>411.0</ele><time>2026-03-22T15:05:44.125Z</time></trkpt><trkpt lat="45.6204117" lon="10.826283"><ele>411.0</ele><time>2026-03-22T15:05:45.125Z</time></trkpt><trkpt lat="45.6203375" lon="10.8262342"><ele>409.5</ele><time>2026-03-22T15:05:46.125Z</time></trkpt><trkpt lat="45.6202622" lon="10.8261876"><ele>408.0</ele><time>2026-03-22T15:05:47.125Z</time></trkpt><trkpt lat="45.6201779" lon="10.8261352"><ele>406.5</ele><time>2026-03-22T15:05:48.125Z</time></trkpt><trkpt lat="45.6200999" lon="10.8260847"><ele>405.0</ele><time>2026-03-22T15:05:49.126Z</time></trkpt><trkpt lat="45.6200178" lon="10.8260139"><ele>403.5</ele><time>2026-03-22T15:05:50.125Z</time></trkpt><trkpt lat="45.6199492" lon="10.8259442"><ele>402.0</ele><time>2026-03-22T15:05:51.125Z</time></trkpt><trkpt lat="45.6198421" lon="10.82586"><ele>402.0</ele><time>2026-03-22T15:05:52.125Z</time></trkpt><trkpt lat="45.6197576" lon="10.8257805"><ele>402.0</ele><time>2026-03-22T15:05:53.125Z</time></trkpt><trkpt lat="45.6196827" lon="10.825703"><ele>402.0</ele><time>2026-03-22T15:05:54.125Z</time></trkpt><trkpt lat="45.6196191" lon="10.8256172"><ele>402.0</ele><time>2026-03-22T15:05:55.125Z</time></trkpt><trkpt lat="45.6195726" lon="10.8255257"><ele>402.0</ele><time>2026-03-22T15:05:56.125Z</time></trkpt><trkpt lat="45.6195286" lon="10.8254299"><ele>402.0</ele><time>2026-03-22T15:05:57.126Z</time></trkpt><trkpt lat="45.6194941" lon="10.8253287"><ele>401.0</ele><time>2026-03-22T15:05:58.125Z</time></trkpt><trkpt lat="45.6194631" lon="10.8252352"><ele>400.0</ele><time>2026-03-22T15:05:59.126Z</time></trkpt><trkpt lat="45.6194268" lon="10.8251398"><ele>399.0</ele><time>2026-03-22T15:06:00.125Z</time></trkpt><trkpt lat="45.619379" lon="10.8250646"><ele>398.0</ele><time>2026-03-22T15:06:01.125Z</time></trkpt><trkpt lat="45.6193314" lon="10.8250019"><ele>397.0</ele><time>2026-03-22T15:06:02.125Z</time></trkpt><trkpt lat="45.6192549" lon="10.8249586"><ele>396.0</ele><time>2026-03-22T15:06:03.125Z</time></trkpt><trkpt lat="45.6191814" lon="10.8249259"><ele>395.0</ele><time>2026-03-22T15:06:04.125Z</time></trkpt><trkpt lat="45.6191098" lon="10.8249253"><ele>395.0</ele><time>2026-03-22T15:06:05.126Z</time></trkpt><trkpt lat="45.6190341" lon="10.8249211"><ele>395.0</ele><time>2026-03-22T15:06:06.125Z</time></trkpt><trkpt lat="45.6189611" lon="10.8249211"><ele>395.0</ele><time>2026-03-22T15:06:07.125Z</time></trkpt><trkpt lat="45.61889" lon="10.8249177"><ele>395.0</ele><time>2026-03-22T15:06:08.124Z</time></trkpt><trkpt lat="45.6188125" lon="10.8249226"><ele>395.0</ele><time>2026-03-22T15:06:09.126Z</time></trkpt><trkpt lat="45.6187449" lon="10.8249325"><ele>395.0</ele><time>2026-03-22T15:06:10.126Z</time></trkpt><trkpt lat="45.6186728" lon="10.8249437"><ele>395.0</ele><time>2026-03-22T15:06:11.125Z</time></trkpt><trkpt lat="45.618582" lon="10.8249188"><ele>393.2857142857143</ele><time>2026-03-22T15:06:13.125Z</time></trkpt><trkpt lat="45.6185208" lon="10.8248615"><ele>391.5714285714286</ele><time>2026-03-22T15:06:15.125Z</time></trkpt><trkpt lat="45.6185066" lon="10.8247622"><ele>389.8571428571429</ele><time>2026-03-22T15:06:18.126Z</time></trkpt><trkpt lat="45.618518" lon="10.8246535"><ele>388.1428571428571</ele><time>2026-03-22T15:08:05.125Z</time></trkpt><trkpt lat="45.6185296" lon="10.8245522"><ele>386.42857142857144</ele><time>2026-03-22T15:08:12.125Z</time></trkpt><trkpt lat="45.6185341" lon="10.8246446"><ele>384.7142857142857</ele><time>2026-03-22T15:09:04.125Z</time></trkpt><trkpt lat="45.6184838" lon="10.8245884"><ele>383.0</ele><time>2026-03-22T15:10:29.125Z</time></trkpt><trkpt lat="45.6184312" lon="10.8245383"><ele>383.0</ele><time>2026-03-22T15:11:34.125Z</time></trkpt><trkpt lat="45.6183673" lon="10.8245128"><ele>383.0</ele><time>2026-03-22T15:13:49.083Z</time></trkpt><trkpt lat="45.6184307" lon="10.8244951"><ele>383.0</ele><time>2026-03-22T15:24:19.125Z</time></trkpt><trkpt lat="45.6183671" lon="10.8244545"><ele>383.0</ele><time>2026-03-22T15:35:06.124Z</time></trkpt><trkpt lat="45.6184339" lon="10.8244618"><ele>383.0</ele><time>2026-03-22T15:42:30.125Z</time></trkpt><trkpt lat="45.6183668" lon="10.8244653"><ele>383.0</ele><time>2026-03-22T15:58:09.126Z</time></trkpt></trkseg></trk></gpx>